<?xml version="1.0" encoding="UTF-8"?>
<gpx version="1.0" creator="Trackator" xmlns:xsi="http://www.w3.org/2001/XMLSchema-instance" xmlns="http://www.topografix.com/GPX/1/0" xmlns:topografix="http://www.topografix.com/GPX/Private/TopoGrafix/0/1" xsi:schemaLocation="http://www.topografix.com/GPX/1/0 http://www.topografix.com/GPX/1/0/gpx.xsd http://www.topografix.com/GPX/Private/TopoGrafix/0/1 http://www.topografix.com/GPX/Private/TopoGrafix/0/1/topografix.xsd">
<metadata>
<link href="http://www.trackator.com">
<text>Trackator</text>
</link>
</metadata>
<time>2015-04-04T:00:04Z</time>
<trk>
<name>Track: </name>
<desc>Hiking</desc>
<trkseg>
<trkpt lat="39.47616629" lon="-0.36879912">
<ele>60</ele>
<time>2015-04-04T:00:04Z</time>
</trkpt>
<trkpt lat="39.47612969" lon="-0.36882956">
<ele>58</ele>
<time>2015-04-04T19:00:06Z</time>
</trkpt>
<trkpt lat="39.4761035" lon="-0.36887885">
<ele>58</ele>
<time>2015-04-04T19:00:08Z</time>
</trkpt>
<trkpt lat="39.47609207" lon="-0.36888544">
<ele>57</ele>
<time>2015-04-04T19:00:10Z</time>
</trkpt>
<trkpt lat="39.47608561" lon="-0.36892005">
<ele>58</ele>
<time>2015-04-04T19:00:12Z</time>
</trkpt>
<trkpt lat="39.47607143" lon="-0.36892264">
<ele>57</ele>
<time>2015-04-04T19:00:14Z</time>
</trkpt>
<trkpt lat="39.47605543" lon="-0.36895125">
<ele>59</ele>
<time>2015-04-04T19:00:16Z</time>
</trkpt>
<trkpt lat="39.47602749" lon="-0.36897259">
<ele>58</ele>
<time>2015-04-04T19:00:18Z</time>
</trkpt>
<trkpt lat="39.47600719" lon="-0.36897148">
<ele>58</ele>
<time>2015-04-04T19:00:20Z</time>
</trkpt>
<trkpt lat="39.47598973" lon="-0.36897051">
<ele>58</ele>
<time>2015-04-04T19:00:22Z</time>
</trkpt>
<trkpt lat="39.47596617" lon="-0.36901518">
<ele>58</ele>
<time>2015-04-04T19:00:24Z</time>
</trkpt>
<trkpt lat="39.47592553" lon="-0.36909383">
<ele>59</ele>
<time>2015-04-04T19:00:26Z</time>
</trkpt>
<trkpt lat="39.47588974" lon="-0.36915218">
<ele>59</ele>
<time>2015-04-04T19:00:28Z</time>
</trkpt>
<trkpt lat="39.47585765" lon="-0.36921251">
<ele>59</ele>
<time>2015-04-04T19:00:30Z</time>
</trkpt>
<trkpt lat="39.47583804" lon="-0.36924839">
<ele>59</ele>
<time>2015-04-04T19:00:32Z</time>
</trkpt>
<trkpt lat="39.47581715" lon="-0.36925498">
<ele>59</ele>
<time>2015-04-04T19:00:34Z</time>
</trkpt>
<trkpt lat="39.47580646" lon="-0.36927434">
<ele>60</ele>
<time>2015-04-04T19:00:36Z</time>
</trkpt>
<trkpt lat="39.47579081" lon="-0.36931664">
<ele>61</ele>
<time>2015-04-04T19:00:38Z</time>
</trkpt>
<trkpt lat="39.47575779" lon="-0.36936983">
<ele>62</ele>
<time>2015-04-04T19:00:40Z</time>
</trkpt>
<trkpt lat="39.47572064" lon="-0.36941218">
<ele>62</ele>
<time>2015-04-04T19:00:42Z</time>
</trkpt>
<trkpt lat="39.47569149" lon="-0.36944527">
<ele>63</ele>
<time>2015-04-04T19:00:44Z</time>
</trkpt>
<trkpt lat="39.47564962" lon="-0.36945396">
<ele>62</ele>
<time>2015-04-04T19:00:46Z</time>
</trkpt>
<trkpt lat="39.47562934" lon="-0.36945581">
<ele>62</ele>
<time>2015-04-04T19:00:48Z</time>
</trkpt>
<trkpt lat="39.47562235" lon="-0.36940046">
<ele>62</ele>
<time>2015-04-04T19:00:50Z</time>
</trkpt>
<trkpt lat="39.47561203" lon="-0.36940545">
<ele>62</ele>
<time>2015-04-04T19:00:52Z</time>
</trkpt>
<trkpt lat="39.47560506" lon="-0.36937862">
<ele>63</ele>
<time>2015-04-04T19:00:54Z</time>
</trkpt>
<trkpt lat="39.47558375" lon="-0.36939331">
<ele>62</ele>
<time>2015-04-04T19:00:56Z</time>
</trkpt>
<trkpt lat="39.47555625" lon="-0.36940041">
<ele>62</ele>
<time>2015-04-04T19:00:58Z</time>
</trkpt>
<trkpt lat="39.4755339" lon="-0.36941491">
<ele>61</ele>
<time>2015-04-04T19:01:00Z</time>
</trkpt>
<trkpt lat="39.47554289" lon="-0.36940869">
<ele>61</ele>
<time>2015-04-04T19:01:02Z</time>
</trkpt>
<trkpt lat="39.47553362" lon="-0.36941205">
<ele>61</ele>
<time>2015-04-04T19:01:04Z</time>
</trkpt>
<trkpt lat="39.47554651" lon="-0.36940288">
<ele>60</ele>
<time>2015-04-04T19:01:06Z</time>
</trkpt>
<trkpt lat="39.47555173" lon="-0.36937433">
<ele>60</ele>
<time>2015-04-04T19:01:08Z</time>
</trkpt>
<trkpt lat="39.47561647" lon="-0.36938347">
<ele>61</ele>
<time>2015-04-04T19:01:12Z</time>
</trkpt>
<trkpt lat="39.47558249" lon="-0.36939367">
<ele>62</ele>
<time>2015-04-04T19:01:13Z</time>
</trkpt>
<trkpt lat="39.47557024" lon="-0.36941025">
<ele>62</ele>
<time>2015-04-04T19:01:15Z</time>
</trkpt>
<trkpt lat="39.47554949" lon="-0.36941786">
<ele>62</ele>
<time>2015-04-04T19:01:17Z</time>
</trkpt>
<trkpt lat="39.47542596" lon="-0.36971307">
<ele>67</ele>
<time>2015-04-04T19:02:25Z</time>
</trkpt>
<trkpt lat="39.47542697" lon="-0.36971785">
<ele>67</ele>
<time>2015-04-04T19:02:26Z</time>
</trkpt>
<trkpt lat="39.47542548" lon="-0.36971705">
<ele>67</ele>
<time>2015-04-04T19:02:28Z</time>
</trkpt>
<trkpt lat="39.47542595" lon="-0.36971754">
<ele>67</ele>
<time>2015-04-04T19:02:30Z</time>
</trkpt>
<trkpt lat="39.47542508" lon="-0.36971733">
<ele>67</ele>
<time>2015-04-04T19:02:32Z</time>
</trkpt>
<trkpt lat="39.47542503" lon="-0.36971846">
<ele>67</ele>
<time>2015-04-04T19:02:34Z</time>
</trkpt>
<trkpt lat="39.47542512" lon="-0.3697194">
<ele>67</ele>
<time>2015-04-04T19:02:36Z</time>
</trkpt>
<trkpt lat="39.47542531" lon="-0.36971947">
<ele>67</ele>
<time>2015-04-04T19:02:38Z</time>
</trkpt>
<trkpt lat="39.4754254" lon="-0.36971832">
<ele>67</ele>
<time>2015-04-04T19:02:40Z</time>
</trkpt>
<trkpt lat="39.47400137" lon="-0.37221276">
<ele>68</ele>
<time>2015-04-04T19:06:56Z</time>
</trkpt>
<trkpt lat="39.47390466" lon="-0.37239009">
<ele>67</ele>
<time>2015-04-04T19:08:35Z</time>
</trkpt>
<trkpt lat="39.47390449" lon="-0.37239081">
<ele>67</ele>
<time>2015-04-04T19:08:36Z</time>
</trkpt>
<trkpt lat="39.47390428" lon="-0.37239232">
<ele>67</ele>
<time>2015-04-04T19:08:38Z</time>
</trkpt>
<trkpt lat="39.47390587" lon="-0.37241592">
<ele>60</ele>
<time>2015-04-04T19:09:41Z</time>
</trkpt>
<trkpt lat="39.47390616" lon="-0.37241596">
<ele>60</ele>
<time>2015-04-04T19:09:42Z</time>
</trkpt>
<trkpt lat="39.47391028" lon="-0.37242157">
<ele>60</ele>
<time>2015-04-04T19:09:44Z</time>
</trkpt>
<trkpt lat="39.47418124" lon="-0.37440923">
<ele>29</ele>
<time>2015-04-04T19:10:06Z</time>
</trkpt>
<trkpt lat="39.47418894" lon="-0.37449032">
<ele>33</ele>
<time>2015-04-04T19:10:07Z</time>
</trkpt>
<trkpt lat="39.4741739" lon="-0.37455315">
<ele>34</ele>
<time>2015-04-04T19:10:09Z</time>
</trkpt>
<trkpt lat="39.4741488" lon="-0.37465088">
<ele>38</ele>
<time>2015-04-04T19:10:11Z</time>
</trkpt>
<trkpt lat="39.47415347" lon="-0.3747521">
<ele>42</ele>
<time>2015-04-04T19:10:13Z</time>
</trkpt>
<trkpt lat="39.47413164" lon="-0.37476644">
<ele>42</ele>
<time>2015-04-04T19:10:15Z</time>
</trkpt>
<trkpt lat="39.47411738" lon="-0.37479981">
<ele>42</ele>
<time>2015-04-04T19:10:17Z</time>
</trkpt>
<trkpt lat="39.47407951" lon="-0.37484775">
<ele>42</ele>
<time>2015-04-04T19:10:19Z</time>
</trkpt>
<trkpt lat="39.47404236" lon="-0.37491758">
<ele>45</ele>
<time>2015-04-04T19:10:21Z</time>
</trkpt>
<trkpt lat="39.47399891" lon="-0.37495874">
<ele>46</ele>
<time>2015-04-04T19:10:23Z</time>
</trkpt>
<trkpt lat="39.47396462" lon="-0.37500335">
<ele>47</ele>
<time>2015-04-04T19:10:25Z</time>
</trkpt>
<trkpt lat="39.47393814" lon="-0.37498734">
<ele>47</ele>
<time>2015-04-04T19:10:27Z</time>
</trkpt>
<trkpt lat="39.47391163" lon="-0.37497646">
<ele>47</ele>
<time>2015-04-04T19:10:29Z</time>
</trkpt>
<trkpt lat="39.47390955" lon="-0.37498414">
<ele>47</ele>
<time>2015-04-04T19:10:31Z</time>
</trkpt>
<trkpt lat="39.47392286" lon="-0.37499727">
<ele>48</ele>
<time>2015-04-04T19:10:33Z</time>
</trkpt>
<trkpt lat="39.47391951" lon="-0.37505458">
<ele>48</ele>
<time>2015-04-04T19:10:35Z</time>
</trkpt>
<trkpt lat="39.47390804" lon="-0.37507599">
<ele>48</ele>
<time>2015-04-04T19:10:36Z</time>
</trkpt>
<trkpt lat="39.47391204" lon="-0.37507704">
<ele>49</ele>
<time>2015-04-04T19:10:39Z</time>
</trkpt>
<trkpt lat="39.47392052" lon="-0.37512869">
<ele>49</ele>
<time>2015-04-04T19:10:41Z</time>
</trkpt>
<trkpt lat="39.47391572" lon="-0.37519855">
<ele>50</ele>
<time>2015-04-04T19:10:43Z</time>
</trkpt>
<trkpt lat="39.47387456" lon="-0.37525669">
<ele>51</ele>
<time>2015-04-04T19:10:45Z</time>
</trkpt>
<trkpt lat="39.47387095" lon="-0.37531834">
<ele>52</ele>
<time>2015-04-04T19:10:47Z</time>
</trkpt>
<trkpt lat="39.4738652" lon="-0.37538515">
<ele>53</ele>
<time>2015-04-04T19:10:49Z</time>
</trkpt>
<trkpt lat="39.47387207" lon="-0.37536913">
<ele>53</ele>
<time>2015-04-04T19:10:51Z</time>
</trkpt>
<trkpt lat="39.47387184" lon="-0.3753603">
<ele>53</ele>
<time>2015-04-04T19:10:53Z</time>
</trkpt>
<trkpt lat="39.47387227" lon="-0.37536212">
<ele>54</ele>
<time>2015-04-04T19:10:55Z</time>
</trkpt>
<trkpt lat="39.4738719" lon="-0.37536862">
<ele>54</ele>
<time>2015-04-04T19:10:57Z</time>
</trkpt>
<trkpt lat="39.4738806" lon="-0.37536312">
<ele>55</ele>
<time>2015-04-04T19:10:59Z</time>
</trkpt>
<trkpt lat="39.473881" lon="-0.37536388">
<ele>55</ele>
<time>2015-04-04T19:11:01Z</time>
</trkpt>
<trkpt lat="39.47388082" lon="-0.37536318">
<ele>55</ele>
<time>2015-04-04T19:11:03Z</time>
</trkpt>
<trkpt lat="39.47388013" lon="-0.37536488">
<ele>55</ele>
<time>2015-04-04T19:11:05Z</time>
</trkpt>
<trkpt lat="39.47388059" lon="-0.37536341">
<ele>55</ele>
<time>2015-04-04T19:11:07Z</time>
</trkpt>
<trkpt lat="39.47388073" lon="-0.37536415">
<ele>55</ele>
<time>2015-04-04T19:11:09Z</time>
</trkpt>
<trkpt lat="39.47388037" lon="-0.37536328">
<ele>55</ele>
<time>2015-04-04T19:11:10Z</time>
</trkpt>
<trkpt lat="39.47387937" lon="-0.37536353">
<ele>55</ele>
<time>2015-04-04T19:11:12Z</time>
</trkpt>
<trkpt lat="39.47387943" lon="-0.37536362">
<ele>55</ele>
<time>2015-04-04T19:11:13Z</time>
</trkpt>
<trkpt lat="39.47387946" lon="-0.37536473">
<ele>55</ele>
<time>2015-04-04T19:11:16Z</time>
</trkpt>
<trkpt lat="39.4738794" lon="-0.37536508">
<ele>55</ele>
<time>2015-04-04T19:11:18Z</time>
</trkpt>
<trkpt lat="39.47387916" lon="-0.37536616">
<ele>55</ele>
<time>2015-04-04T19:11:20Z</time>
</trkpt>
<trkpt lat="39.47387866" lon="-0.37536669">
<ele>55</ele>
<time>2015-04-04T19:11:22Z</time>
</trkpt>
<trkpt lat="39.47387858" lon="-0.3753668">
<ele>55</ele>
<time>2015-04-04T19:11:24Z</time>
</trkpt>
<trkpt lat="39.47387851" lon="-0.37536716">
<ele>55</ele>
<time>2015-04-04T19:11:26Z</time>
</trkpt>
<trkpt lat="39.47387868" lon="-0.3753688">
<ele>55</ele>
<time>2015-04-04T19:11:28Z</time>
</trkpt>
<trkpt lat="39.47387865" lon="-0.37537028">
<ele>55</ele>
<time>2015-04-04T19:11:30Z</time>
</trkpt>
<trkpt lat="39.47387827" lon="-0.37537185">
<ele>55</ele>
<time>2015-04-04T19:11:32Z</time>
</trkpt>
<trkpt lat="39.47387816" lon="-0.37537257">
<ele>55</ele>
<time>2015-04-04T19:11:34Z</time>
</trkpt>
<trkpt lat="39.47387777" lon="-0.37537319">
<ele>55</ele>
<time>2015-04-04T19:11:36Z</time>
</trkpt>
<trkpt lat="39.47387782" lon="-0.37537429">
<ele>55</ele>
<time>2015-04-04T19:11:38Z</time>
</trkpt>
<trkpt lat="39.47387857" lon="-0.37537457">
<ele>55</ele>
<time>2015-04-04T19:11:40Z</time>
</trkpt>
<trkpt lat="39.47387872" lon="-0.37537463">
<ele>55</ele>
<time>2015-04-04T19:11:42Z</time>
</trkpt>
<trkpt lat="39.47387822" lon="-0.37537548">
<ele>55</ele>
<time>2015-04-04T19:11:44Z</time>
</trkpt>
<trkpt lat="39.47387794" lon="-0.37537613">
<ele>55</ele>
<time>2015-04-04T19:11:46Z</time>
</trkpt>
<trkpt lat="39.47387776" lon="-0.37537672">
<ele>55</ele>
<time>2015-04-04T19:11:48Z</time>
</trkpt>
<trkpt lat="39.47387802" lon="-0.3753778">
<ele>55</ele>
<time>2015-04-04T19:11:50Z</time>
</trkpt>
<trkpt lat="39.47387766" lon="-0.37537824">
<ele>55</ele>
<time>2015-04-04T19:11:52Z</time>
</trkpt>
<trkpt lat="39.47387735" lon="-0.3753789">
<ele>55</ele>
<time>2015-04-04T19:11:54Z</time>
</trkpt>
<trkpt lat="39.47387718" lon="-0.37537945">
<ele>55</ele>
<time>2015-04-04T19:11:56Z</time>
</trkpt>
<trkpt lat="39.47387721" lon="-0.3753798">
<ele>55</ele>
<time>2015-04-04T19:11:58Z</time>
</trkpt>
<trkpt lat="39.47411244" lon="-0.37649441">
<ele>10</ele>
<time>2015-04-04T19:13:29Z</time>
</trkpt>
<trkpt lat="39.47408394" lon="-0.37653649">
<ele>18</ele>
<time>2015-04-04T19:13:38Z</time>
</trkpt>
<trkpt lat="39.47408389" lon="-0.37653838">
<ele>18</ele>
<time>2015-04-04T19:13:39Z</time>
</trkpt>
<trkpt lat="39.47408247" lon="-0.37653881">
<ele>18</ele>
<time>2015-04-04T19:13:41Z</time>
</trkpt>
<trkpt lat="39.47514535" lon="-0.37627109">
<ele>54</ele>
<time>2015-04-04T19:16:39Z</time>
</trkpt>
<trkpt lat="39.47513825" lon="-0.3762747">
<ele>54</ele>
<time>2015-04-04T19:16:40Z</time>
</trkpt>
<trkpt lat="39.47514222" lon="-0.3762596">
<ele>55</ele>
<time>2015-04-04T19:16:42Z</time>
</trkpt>
<trkpt lat="39.47513384" lon="-0.37623082">
<ele>56</ele>
<time>2015-04-04T19:16:44Z</time>
</trkpt>
<trkpt lat="39.47513803" lon="-0.37622991">
<ele>56</ele>
<time>2015-04-04T19:16:46Z</time>
</trkpt>
<trkpt lat="39.47372176" lon="-0.37571298">
<ele>70</ele>
<time>2015-04-04T19:19:54Z</time>
</trkpt>
<trkpt lat="39.47367276" lon="-0.37567115">
<ele>73</ele>
<time>2015-04-04T19:19:55Z</time>
</trkpt>
<trkpt lat="39.47367421" lon="-0.37564122">
<ele>80</ele>
<time>2015-04-04T19:19:57Z</time>
</trkpt>
<trkpt lat="39.47363429" lon="-0.37562109">
<ele>80</ele>
<time>2015-04-04T19:19:59Z</time>
</trkpt>
<trkpt lat="39.47359521" lon="-0.37558511">
<ele>80</ele>
<time>2015-04-04T19:20:01Z</time>
</trkpt>
<trkpt lat="39.47156996" lon="-0.37659429">
<ele>88</ele>
<time>2015-04-04T19:24:17Z</time>
</trkpt>
<trkpt lat="39.47155712" lon="-0.3765271">
<ele>98</ele>
<time>2015-04-04T19:25:19Z</time>
</trkpt>
<trkpt lat="39.47155727" lon="-0.37652597">
<ele>98</ele>
<time>2015-04-04T19:25:20Z</time>
</trkpt>
<trkpt lat="39.47193124" lon="-0.37459441">
<ele>51</ele>
<time>2015-04-04T19:26:44Z</time>
</trkpt>
<trkpt lat="39.47193816" lon="-0.37447802">
<ele>53</ele>
<time>2015-04-04T19:26:49Z</time>
</trkpt>
<trkpt lat="39.4712771" lon="-0.37409267">
<ele>84</ele>
<time>2015-04-04T19:27:35Z</time>
</trkpt>
<trkpt lat="39.47126266" lon="-0.37407099">
<ele>84</ele>
<time>2015-04-04T19:27:36Z</time>
</trkpt>
<trkpt lat="39.47122815" lon="-0.37405996">
<ele>86</ele>
<time>2015-04-04T19:27:38Z</time>
</trkpt>
<trkpt lat="39.47118607" lon="-0.37405183">
<ele>85</ele>
<time>2015-04-04T19:27:40Z</time>
</trkpt>
<trkpt lat="39.47114094" lon="-0.37406607">
<ele>85</ele>
<time>2015-04-04T19:27:42Z</time>
</trkpt>
<trkpt lat="39.47111153" lon="-0.3740841">
<ele>85</ele>
<time>2015-04-04T19:27:44Z</time>
</trkpt>
<trkpt lat="39.47108646" lon="-0.37406352">
<ele>85</ele>
<time>2015-04-04T19:27:46Z</time>
</trkpt>
<trkpt lat="39.47110218" lon="-0.37411436">
<ele>85</ele>
<time>2015-04-04T19:27:48Z</time>
</trkpt>
<trkpt lat="39.4710689" lon="-0.37411269">
<ele>85</ele>
<time>2015-04-04T19:27:50Z</time>
</trkpt>
<trkpt lat="39.47104034" lon="-0.37410024">
<ele>86</ele>
<time>2015-04-04T19:27:52Z</time>
</trkpt>
<trkpt lat="39.47104316" lon="-0.37411358">
<ele>85</ele>
<time>2015-04-04T19:27:54Z</time>
</trkpt>
<trkpt lat="39.47102937" lon="-0.37413025">
<ele>85</ele>
<time>2015-04-04T19:27:56Z</time>
</trkpt>
<trkpt lat="39.47041558" lon="-0.37405486">
<ele>117</ele>
<time>2015-04-04T19:28:38Z</time>
</trkpt>
<trkpt lat="39.47043188" lon="-0.37403733">
<ele>118</ele>
<time>2015-04-04T19:28:39Z</time>
</trkpt>
<trkpt lat="39.47047328" lon="-0.37393296">
<ele>116</ele>
<time>2015-04-04T19:28:41Z</time>
</trkpt>
<trkpt lat="39.47048102" lon="-0.37394016">
<ele>116</ele>
<time>2015-04-04T19:28:43Z</time>
</trkpt>
<trkpt lat="39.47050063" lon="-0.37390086">
<ele>115</ele>
<time>2015-04-04T19:28:45Z</time>
</trkpt>
<trkpt lat="39.47054632" lon="-0.37387475">
<ele>114</ele>
<time>2015-04-04T19:28:47Z</time>
</trkpt>
<trkpt lat="39.47057313" lon="-0.37388258">
<ele>114</ele>
<time>2015-04-04T19:28:49Z</time>
</trkpt>
<trkpt lat="39.47056188" lon="-0.37387394">
<ele>111</ele>
<time>2015-04-04T19:28:51Z</time>
</trkpt>
<trkpt lat="39.47053901" lon="-0.37386606">
<ele>112</ele>
<time>2015-04-04T19:28:53Z</time>
</trkpt>
<trkpt lat="39.47052869" lon="-0.37387226">
<ele>111</ele>
<time>2015-04-04T19:28:55Z</time>
</trkpt>
<trkpt lat="39.4705327" lon="-0.37386716">
<ele>111</ele>
<time>2015-04-04T19:28:57Z</time>
</trkpt>
<trkpt lat="39.47053553" lon="-0.37381449">
<ele>111</ele>
<time>2015-04-04T19:28:59Z</time>
</trkpt>
<trkpt lat="39.47051311" lon="-0.37377592">
<ele>113</ele>
<time>2015-04-04T19:29:01Z</time>
</trkpt>
<trkpt lat="39.47051054" lon="-0.3737657">
<ele>113</ele>
<time>2015-04-04T19:29:03Z</time>
</trkpt>
<trkpt lat="39.4705047" lon="-0.37376943">
<ele>113</ele>
<time>2015-04-04T19:29:05Z</time>
</trkpt>
<trkpt lat="39.47052824" lon="-0.37378951">
<ele>113</ele>
<time>2015-04-04T19:29:07Z</time>
</trkpt>
<trkpt lat="39.47051372" lon="-0.37378016">
<ele>111</ele>
<time>2015-04-04T19:29:09Z</time>
</trkpt>
<trkpt lat="39.47051038" lon="-0.37380517">
<ele>109</ele>
<time>2015-04-04T19:29:11Z</time>
</trkpt>
<trkpt lat="39.47048965" lon="-0.37381163">
<ele>108</ele>
<time>2015-04-04T19:29:13Z</time>
</trkpt>
<trkpt lat="39.47047998" lon="-0.37380911">
<ele>107</ele>
<time>2015-04-04T19:29:15Z</time>
</trkpt>
<trkpt lat="39.47047951" lon="-0.373809">
<ele>108</ele>
<time>2015-04-04T19:29:17Z</time>
</trkpt>
<trkpt lat="39.47047923" lon="-0.37381009">
<ele>105</ele>
<time>2015-04-04T19:29:19Z</time>
</trkpt>
<trkpt lat="39.47046895" lon="-0.37380558">
<ele>103</ele>
<time>2015-04-04T19:29:21Z</time>
</trkpt>
<trkpt lat="39.47046138" lon="-0.37380441">
<ele>102</ele>
<time>2015-04-04T19:29:23Z</time>
</trkpt>
<trkpt lat="39.47045778" lon="-0.3738074">
<ele>102</ele>
<time>2015-04-04T19:30:03Z</time>
</trkpt>
<trkpt lat="39.47045806" lon="-0.37380747">
<ele>102</ele>
<time>2015-04-04T19:30:04Z</time>
</trkpt>
<trkpt lat="39.47045822" lon="-0.37380912">
<ele>102</ele>
<time>2015-04-04T19:30:06Z</time>
</trkpt>
<trkpt lat="39.47045844" lon="-0.37380906">
<ele>102</ele>
<time>2015-04-04T19:30:08Z</time>
</trkpt>
<trkpt lat="39.47045895" lon="-0.37380804">
<ele>102</ele>
<time>2015-04-04T19:30:10Z</time>
</trkpt>
<trkpt lat="39.47045873" lon="-0.37380817">
<ele>102</ele>
<time>2015-04-04T19:30:12Z</time>
</trkpt>
<trkpt lat="39.47045832" lon="-0.37380833">
<ele>102</ele>
<time>2015-04-04T19:30:14Z</time>
</trkpt>
<trkpt lat="39.47044945" lon="-0.37380957">
<ele>101</ele>
<time>2015-04-04T19:30:59Z</time>
</trkpt>
<trkpt lat="39.47044972" lon="-0.37380902">
<ele>101</ele>
<time>2015-04-04T19:31:00Z</time>
</trkpt>
<trkpt lat="39.47044939" lon="-0.3738086">
<ele>101</ele>
<time>2015-04-04T19:31:02Z</time>
</trkpt>
<trkpt lat="39.47044651" lon="-0.37380906">
<ele>101</ele>
<time>2015-04-04T19:31:31Z</time>
</trkpt>
<trkpt lat="39.4704464" lon="-0.37380905">
<ele>101</ele>
<time>2015-04-04T19:31:32Z</time>
</trkpt>
<trkpt lat="39.47044621" lon="-0.373809">
<ele>101</ele>
<time>2015-04-04T19:31:34Z</time>
</trkpt>
<trkpt lat="39.47044214" lon="-0.37381">
<ele>100</ele>
<time>2015-04-04T19:31:58Z</time>
</trkpt>
<trkpt lat="39.47044193" lon="-0.37381017">
<ele>100</ele>
<time>2015-04-04T19:31:59Z</time>
</trkpt>
<trkpt lat="39.47044187" lon="-0.37381006">
<ele>100</ele>
<time>2015-04-04T19:32:01Z</time>
</trkpt>
<trkpt lat="39.47044181" lon="-0.37381068">
<ele>100</ele>
<time>2015-04-04T19:32:03Z</time>
</trkpt>
<trkpt lat="39.47044126" lon="-0.3738116">
<ele>100</ele>
<time>2015-04-04T19:32:05Z</time>
</trkpt>
<trkpt lat="39.470441" lon="-0.37381184">
<ele>100</ele>
<time>2015-04-04T19:32:07Z</time>
</trkpt>
<trkpt lat="39.47044077" lon="-0.373812">
<ele>100</ele>
<time>2015-04-04T19:32:09Z</time>
</trkpt>
<trkpt lat="39.47043787" lon="-0.37381278">
<ele>100</ele>
<time>2015-04-04T19:32:21Z</time>
</trkpt>
<trkpt lat="39.47043741" lon="-0.37381313">
<ele>100</ele>
<time>2015-04-04T19:32:22Z</time>
</trkpt>
<trkpt lat="39.46803467" lon="-0.37357331">
<ele>121</ele>
<time>2015-04-04T19:33:15Z</time>
</trkpt>
<trkpt lat="39.46802013" lon="-0.3735532">
<ele>120</ele>
<time>2015-04-04T19:33:16Z</time>
</trkpt>
<trkpt lat="39.46798097" lon="-0.37354434">
<ele>120</ele>
<time>2015-04-04T19:33:18Z</time>
</trkpt>
<trkpt lat="39.46796303" lon="-0.3735234">
<ele>118</ele>
<time>2015-04-04T19:33:20Z</time>
</trkpt>
<trkpt lat="39.46795373" lon="-0.3735512">
<ele>117</ele>
<time>2015-04-04T19:33:22Z</time>
</trkpt>
<trkpt lat="39.46796703" lon="-0.37356944">
<ele>116</ele>
<time>2015-04-04T19:33:24Z</time>
</trkpt>
<trkpt lat="39.46795033" lon="-0.37357094">
<ele>115</ele>
<time>2015-04-04T19:33:26Z</time>
</trkpt>
<trkpt lat="39.46792389" lon="-0.37355881">
<ele>114</ele>
<time>2015-04-04T19:33:28Z</time>
</trkpt>
<trkpt lat="39.46791327" lon="-0.37353999">
<ele>112</ele>
<time>2015-04-04T19:33:29Z</time>
</trkpt>
<trkpt lat="39.46789504" lon="-0.37355131">
<ele>111</ele>
<time>2015-04-04T19:33:32Z</time>
</trkpt>
<trkpt lat="39.46787633" lon="-0.37358448">
<ele>111</ele>
<time>2015-04-04T19:33:34Z</time>
</trkpt>
<trkpt lat="39.46785248" lon="-0.37359368">
<ele>110</ele>
<time>2015-04-04T19:33:36Z</time>
</trkpt>
<trkpt lat="39.46781304" lon="-0.373584">
<ele>110</ele>
<time>2015-04-04T19:33:38Z</time>
</trkpt>
<trkpt lat="39.46775664" lon="-0.37358995">
<ele>111</ele>
<time>2015-04-04T19:33:40Z</time>
</trkpt>
<trkpt lat="39.46771318" lon="-0.37359405">
<ele>112</ele>
<time>2015-04-04T19:33:42Z</time>
</trkpt>
<trkpt lat="39.46766765" lon="-0.37359519">
<ele>112</ele>
<time>2015-04-04T19:33:44Z</time>
</trkpt>
<trkpt lat="39.46767971" lon="-0.37361036">
<ele>113</ele>
<time>2015-04-04T19:33:46Z</time>
</trkpt>
<trkpt lat="39.46765073" lon="-0.37362937">
<ele>113</ele>
<time>2015-04-04T19:33:48Z</time>
</trkpt>
<trkpt lat="39.46764704" lon="-0.37360295">
<ele>113</ele>
<time>2015-04-04T19:33:50Z</time>
</trkpt>
<trkpt lat="39.46761643" lon="-0.37357067">
<ele>113</ele>
<time>2015-04-04T19:33:52Z</time>
</trkpt>
<trkpt lat="39.46757853" lon="-0.37354385">
<ele>112</ele>
<time>2015-04-04T19:33:54Z</time>
</trkpt>
<trkpt lat="39.4675705" lon="-0.37351756">
<ele>111</ele>
<time>2015-04-04T19:33:56Z</time>
</trkpt>
<trkpt lat="39.46756582" lon="-0.37353069">
<ele>110</ele>
<time>2015-04-04T19:33:58Z</time>
</trkpt>
<trkpt lat="39.46754523" lon="-0.37352371">
<ele>110</ele>
<time>2015-04-04T19:34:00Z</time>
</trkpt>
<trkpt lat="39.46755337" lon="-0.37354559">
<ele>110</ele>
<time>2015-04-04T19:34:02Z</time>
</trkpt>
<trkpt lat="39.46753241" lon="-0.37355774">
<ele>109</ele>
<time>2015-04-04T19:34:04Z</time>
</trkpt>
<trkpt lat="39.46753518" lon="-0.3735955">
<ele>108</ele>
<time>2015-04-04T19:34:06Z</time>
</trkpt>
<trkpt lat="39.46751101" lon="-0.37359116">
<ele>109</ele>
<time>2015-04-04T19:34:12Z</time>
</trkpt>
<trkpt lat="39.46749005" lon="-0.37359715">
<ele>108</ele>
<time>2015-04-04T19:34:13Z</time>
</trkpt>
<trkpt lat="39.46748118" lon="-0.37357485">
<ele>107</ele>
<time>2015-04-04T19:34:15Z</time>
</trkpt>
<trkpt lat="39.46745835" lon="-0.37359617">
<ele>107</ele>
<time>2015-04-04T19:34:17Z</time>
</trkpt>
<trkpt lat="39.46678581" lon="-0.37268441">
<ele>100</ele>
<time>2015-04-04T19:35:22Z</time>
</trkpt>
<trkpt lat="39.46674127" lon="-0.37284423">
<ele>97</ele>
<time>2015-04-04T19:35:32Z</time>
</trkpt>
<trkpt lat="39.4667454" lon="-0.37285991">
<ele>95</ele>
<time>2015-04-04T19:35:33Z</time>
</trkpt>
<trkpt lat="39.4667417" lon="-0.37287589">
<ele>93</ele>
<time>2015-04-04T19:35:35Z</time>
</trkpt>
<trkpt lat="39.46671784" lon="-0.37288042">
<ele>93</ele>
<time>2015-04-04T19:35:37Z</time>
</trkpt>
<trkpt lat="39.46668247" lon="-0.37287172">
<ele>92</ele>
<time>2015-04-04T19:35:39Z</time>
</trkpt>
<trkpt lat="39.46667801" lon="-0.37290764">
<ele>94</ele>
<time>2015-04-04T19:35:41Z</time>
</trkpt>
<trkpt lat="39.46665844" lon="-0.37292393">
<ele>94</ele>
<time>2015-04-04T19:35:43Z</time>
</trkpt>
<trkpt lat="39.46664337" lon="-0.37291654">
<ele>93</ele>
<time>2015-04-04T19:35:45Z</time>
</trkpt>
<trkpt lat="39.46661723" lon="-0.37292044">
<ele>93</ele>
<time>2015-04-04T19:35:47Z</time>
</trkpt>
<trkpt lat="39.466596" lon="-0.37293445">
<ele>93</ele>
<time>2015-04-04T19:35:49Z</time>
</trkpt>
<trkpt lat="39.46656494" lon="-0.37291781">
<ele>92</ele>
<time>2015-04-04T19:35:51Z</time>
</trkpt>
<trkpt lat="39.46654736" lon="-0.37290708">
<ele>92</ele>
<time>2015-04-04T19:35:53Z</time>
</trkpt>
<trkpt lat="39.46654622" lon="-0.37290026">
<ele>92</ele>
<time>2015-04-04T19:35:55Z</time>
</trkpt>
<trkpt lat="39.4665009" lon="-0.37286967">
<ele>92</ele>
<time>2015-04-04T19:35:57Z</time>
</trkpt>
<trkpt lat="39.46646713" lon="-0.37289789">
<ele>92</ele>
<time>2015-04-04T19:35:59Z</time>
</trkpt>
<trkpt lat="39.46641907" lon="-0.37290344">
<ele>92</ele>
<time>2015-04-04T19:36:01Z</time>
</trkpt>
<trkpt lat="39.46556888" lon="-0.37175911">
<ele>51</ele>
<time>2015-04-04T19:37:06Z</time>
</trkpt>
<trkpt lat="39.46559881" lon="-0.37171256">
<ele>56</ele>
<time>2015-04-04T19:37:13Z</time>
</trkpt>
<trkpt lat="39.46558749" lon="-0.3716983">
<ele>58</ele>
<time>2015-04-04T19:37:14Z</time>
</trkpt>
<trkpt lat="39.46552927" lon="-0.3716355">
<ele>63</ele>
<time>2015-04-04T19:37:16Z</time>
</trkpt>
<trkpt lat="39.46551589" lon="-0.37161547">
<ele>64</ele>
<time>2015-04-04T19:37:18Z</time>
</trkpt>
<trkpt lat="39.46552781" lon="-0.37164012">
<ele>62</ele>
<time>2015-04-04T19:37:20Z</time>
</trkpt>
<trkpt lat="39.4655003" lon="-0.37158399">
<ele>67</ele>
<time>2015-04-04T19:37:22Z</time>
</trkpt>
<trkpt lat="39.46553331" lon="-0.37160875">
<ele>70</ele>
<time>2015-04-04T19:37:24Z</time>
</trkpt>
<trkpt lat="39.46554542" lon="-0.37161153">
<ele>73</ele>
<time>2015-04-04T19:37:26Z</time>
</trkpt>
<trkpt lat="39.46556244" lon="-0.37162443">
<ele>73</ele>
<time>2015-04-04T19:37:28Z</time>
</trkpt>
<trkpt lat="39.46556677" lon="-0.37162788">
<ele>72</ele>
<time>2015-04-04T19:37:30Z</time>
</trkpt>
<trkpt lat="39.46554505" lon="-0.37162164">
<ele>72</ele>
<time>2015-04-04T19:37:32Z</time>
</trkpt>
<trkpt lat="39.46555868" lon="-0.37161102">
<ele>72</ele>
<time>2015-04-04T19:37:34Z</time>
</trkpt>
<trkpt lat="39.46556066" lon="-0.37163756">
<ele>74</ele>
<time>2015-04-04T19:37:36Z</time>
</trkpt>
<trkpt lat="39.46555871" lon="-0.37158277">
<ele>73</ele>
<time>2015-04-04T19:37:38Z</time>
</trkpt>
<trkpt lat="39.46556558" lon="-0.3715784">
<ele>74</ele>
<time>2015-04-04T19:37:40Z</time>
</trkpt>
<trkpt lat="39.46556974" lon="-0.37153859">
<ele>73</ele>
<time>2015-04-04T19:37:42Z</time>
</trkpt>
<trkpt lat="39.46554315" lon="-0.37149834">
<ele>72</ele>
<time>2015-04-04T19:37:44Z</time>
</trkpt>
<trkpt lat="39.46554147" lon="-0.37142962">
<ele>73</ele>
<time>2015-04-04T19:37:46Z</time>
</trkpt>
<trkpt lat="39.46552234" lon="-0.37141739">
<ele>72</ele>
<time>2015-04-04T19:37:48Z</time>
</trkpt>
<trkpt lat="39.46554082" lon="-0.37141212">
<ele>74</ele>
<time>2015-04-04T19:37:50Z</time>
</trkpt>
<trkpt lat="39.46551692" lon="-0.37136457">
<ele>74</ele>
<time>2015-04-04T19:37:52Z</time>
</trkpt>
<trkpt lat="39.46552928" lon="-0.37136462">
<ele>74</ele>
<time>2015-04-04T19:37:54Z</time>
</trkpt>
<trkpt lat="39.46553582" lon="-0.37134417">
<ele>74</ele>
<time>2015-04-04T19:37:56Z</time>
</trkpt>
<trkpt lat="39.46553081" lon="-0.37132155">
<ele>75</ele>
<time>2015-04-04T19:37:58Z</time>
</trkpt>
<trkpt lat="39.46557298" lon="-0.37132075">
<ele>74</ele>
<time>2015-04-04T19:38:00Z</time>
</trkpt>
<trkpt lat="39.46563069" lon="-0.37130553">
<ele>74</ele>
<time>2015-04-04T19:38:02Z</time>
</trkpt>
<trkpt lat="39.46568193" lon="-0.3712806">
<ele>74</ele>
<time>2015-04-04T19:38:05Z</time>
</trkpt>
<trkpt lat="39.46569924" lon="-0.37128339">
<ele>73</ele>
<time>2015-04-04T19:38:06Z</time>
</trkpt>
<trkpt lat="39.46571142" lon="-0.37127181">
<ele>74</ele>
<time>2015-04-04T19:38:08Z</time>
</trkpt>
<trkpt lat="39.46570182" lon="-0.37124834">
<ele>73</ele>
<time>2015-04-04T19:38:10Z</time>
</trkpt>
<trkpt lat="39.46572581" lon="-0.37119286">
<ele>73</ele>
<time>2015-04-04T19:38:12Z</time>
</trkpt>
<trkpt lat="39.46572682" lon="-0.37113366">
<ele>75</ele>
<time>2015-04-04T19:38:14Z</time>
</trkpt>
<trkpt lat="39.46592973" lon="-0.37088098">
<ele>74</ele>
<time>2015-04-04T19:38:37Z</time>
</trkpt>
<trkpt lat="39.46592322" lon="-0.37091419">
<ele>74</ele>
<time>2015-04-04T19:38:38Z</time>
</trkpt>
<trkpt lat="39.46593134" lon="-0.37089728">
<ele>75</ele>
<time>2015-04-04T19:38:40Z</time>
</trkpt>
<trkpt lat="39.46593955" lon="-0.370865">
<ele>76</ele>
<time>2015-04-04T19:38:42Z</time>
</trkpt>
<trkpt lat="39.4659306" lon="-0.3708294">
<ele>77</ele>
<time>2015-04-04T19:38:44Z</time>
</trkpt>
<trkpt lat="39.46592857" lon="-0.37079306">
<ele>76</ele>
<time>2015-04-04T19:38:46Z</time>
</trkpt>
<trkpt lat="39.4659217" lon="-0.37077786">
<ele>76</ele>
<time>2015-04-04T19:38:48Z</time>
</trkpt>
<trkpt lat="39.46591524" lon="-0.37072167">
<ele>75</ele>
<time>2015-04-04T19:38:50Z</time>
</trkpt>
<trkpt lat="39.4659306" lon="-0.37070216">
<ele>76</ele>
<time>2015-04-04T19:38:52Z</time>
</trkpt>
<trkpt lat="39.46596731" lon="-0.37069259">
<ele>76</ele>
<time>2015-04-04T19:38:54Z</time>
</trkpt>
<trkpt lat="39.46598583" lon="-0.37067817">
<ele>76</ele>
<time>2015-04-04T19:38:56Z</time>
</trkpt>
<trkpt lat="39.46601463" lon="-0.37066403">
<ele>77</ele>
<time>2015-04-04T19:38:58Z</time>
</trkpt>
<trkpt lat="39.46603012" lon="-0.37066359">
<ele>77</ele>
<time>2015-04-04T19:39:00Z</time>
</trkpt>
<trkpt lat="39.46604211" lon="-0.3706449">
<ele>76</ele>
<time>2015-04-04T19:39:02Z</time>
</trkpt>
<trkpt lat="39.46603852" lon="-0.37061355">
<ele>75</ele>
<time>2015-04-04T19:39:04Z</time>
</trkpt>
<trkpt lat="39.46603572" lon="-0.37055799">
<ele>74</ele>
<time>2015-04-04T19:39:06Z</time>
</trkpt>
<trkpt lat="39.46599191" lon="-0.37052111">
<ele>74</ele>
<time>2015-04-04T19:39:08Z</time>
</trkpt>
<trkpt lat="39.46598212" lon="-0.37050886">
<ele>74</ele>
<time>2015-04-04T19:39:10Z</time>
</trkpt>
<trkpt lat="39.4659802" lon="-0.37046192">
<ele>74</ele>
<time>2015-04-04T19:39:12Z</time>
</trkpt>
<trkpt lat="39.4660234" lon="-0.37045665">
<ele>75</ele>
<time>2015-04-04T19:39:14Z</time>
</trkpt>
<trkpt lat="39.4660397" lon="-0.37043213">
<ele>75</ele>
<time>2015-04-04T19:39:16Z</time>
</trkpt>
<trkpt lat="39.46602975" lon="-0.37038165">
<ele>76</ele>
<time>2015-04-04T19:39:18Z</time>
</trkpt>
<trkpt lat="39.46601854" lon="-0.37036648">
<ele>75</ele>
<time>2015-04-04T19:39:20Z</time>
</trkpt>
<trkpt lat="39.46603472" lon="-0.3703657">
<ele>75</ele>
<time>2015-04-04T19:39:22Z</time>
</trkpt>
<trkpt lat="39.46604073" lon="-0.37033251">
<ele>75</ele>
<time>2015-04-04T19:39:24Z</time>
</trkpt>
<trkpt lat="39.46605601" lon="-0.37032037">
<ele>75</ele>
<time>2015-04-04T19:39:26Z</time>
</trkpt>
<trkpt lat="39.46605973" lon="-0.37026684">
<ele>76</ele>
<time>2015-04-04T19:39:28Z</time>
</trkpt>
<trkpt lat="39.46602992" lon="-0.37019577">
<ele>77</ele>
<time>2015-04-04T19:39:30Z</time>
</trkpt>
<trkpt lat="39.46597583" lon="-0.37013561">
<ele>79</ele>
<time>2015-04-04T19:39:32Z</time>
</trkpt>
<trkpt lat="39.4659749" lon="-0.37013904">
<ele>80</ele>
<time>2015-04-04T19:39:34Z</time>
</trkpt>
<trkpt lat="39.46596758" lon="-0.37010606">
<ele>79</ele>
<time>2015-04-04T19:39:36Z</time>
</trkpt>
<trkpt lat="39.46560592" lon="-0.36832571">
<ele>77</ele>
<time>2015-04-04T19:41:44Z</time>
</trkpt>
<trkpt lat="39.46566134" lon="-0.36827258">
<ele>77</ele>
<time>2015-04-04T19:41:48Z</time>
</trkpt>
<trkpt lat="39.46562646" lon="-0.3682704">
<ele>77</ele>
<time>2015-04-04T19:41:49Z</time>
</trkpt>
<trkpt lat="39.46644042" lon="-0.36732369">
<ele>90</ele>
<time>2015-04-04T19:43:36Z</time>
</trkpt>
<trkpt lat="39.46646942" lon="-0.36735567">
<ele>91</ele>
<time>2015-04-04T19:43:37Z</time>
</trkpt>
<trkpt lat="39.4664555" lon="-0.36736221">
<ele>91</ele>
<time>2015-04-04T19:43:39Z</time>
</trkpt>
<trkpt lat="39.46650021" lon="-0.3673837">
<ele>90</ele>
<time>2015-04-04T19:43:41Z</time>
</trkpt>
<trkpt lat="39.46652614" lon="-0.36740627">
<ele>90</ele>
<time>2015-04-04T19:43:43Z</time>
</trkpt>
<trkpt lat="39.4665424" lon="-0.36740563">
<ele>89</ele>
<time>2015-04-04T19:43:45Z</time>
</trkpt>
<trkpt lat="39.46656077" lon="-0.36744745">
<ele>90</ele>
<time>2015-04-04T19:43:47Z</time>
</trkpt>
<trkpt lat="39.46717967" lon="-0.3679836">
<ele>89</ele>
<time>2015-04-04T19:44:46Z</time>
</trkpt>
<trkpt lat="39.46718515" lon="-0.36797939">
<ele>89</ele>
<time>2015-04-04T19:44:47Z</time>
</trkpt>
<trkpt lat="39.46719976" lon="-0.3679699">
<ele>89</ele>
<time>2015-04-04T19:44:49Z</time>
</trkpt>
<trkpt lat="39.46720642" lon="-0.36795199">
<ele>89</ele>
<time>2015-04-04T19:44:51Z</time>
</trkpt>
<trkpt lat="39.46721763" lon="-0.36790468">
<ele>87</ele>
<time>2015-04-04T19:44:52Z</time>
</trkpt>
<trkpt lat="39.46721506" lon="-0.3679016">
<ele>87</ele>
<time>2015-04-04T19:44:55Z</time>
</trkpt>
<trkpt lat="39.46721203" lon="-0.3678995">
<ele>87</ele>
<time>2015-04-04T19:44:57Z</time>
</trkpt>
<trkpt lat="39.46721264" lon="-0.36790012">
<ele>87</ele>
<time>2015-04-04T19:44:59Z</time>
</trkpt>
<trkpt lat="39.46721243" lon="-0.36790072">
<ele>87</ele>
<time>2015-04-04T19:45:01Z</time>
</trkpt>
<trkpt lat="39.46721179" lon="-0.36790047">
<ele>86</ele>
<time>2015-04-04T19:45:03Z</time>
</trkpt>
<trkpt lat="39.46721175" lon="-0.36789974">
<ele>86</ele>
<time>2015-04-04T19:45:05Z</time>
</trkpt>
<trkpt lat="39.46721152" lon="-0.36789864">
<ele>86</ele>
<time>2015-04-04T19:45:07Z</time>
</trkpt>
<trkpt lat="39.46721176" lon="-0.36789733">
<ele>86</ele>
<time>2015-04-04T19:45:09Z</time>
</trkpt>
<trkpt lat="39.46721188" lon="-0.36789631">
<ele>86</ele>
<time>2015-04-04T19:45:11Z</time>
</trkpt>
<trkpt lat="39.46721235" lon="-0.36789499">
<ele>86</ele>
<time>2015-04-04T19:45:13Z</time>
</trkpt>
<trkpt lat="39.46721202" lon="-0.36789444">
<ele>86</ele>
<time>2015-04-04T19:45:15Z</time>
</trkpt>
<trkpt lat="39.46721295" lon="-0.36789351">
<ele>86</ele>
<time>2015-04-04T19:45:17Z</time>
</trkpt>
<trkpt lat="39.46721331" lon="-0.3678928">
<ele>86</ele>
<time>2015-04-04T19:45:19Z</time>
</trkpt>
<trkpt lat="39.46721387" lon="-0.36789136">
<ele>86</ele>
<time>2015-04-04T19:45:21Z</time>
</trkpt>
<trkpt lat="39.46721373" lon="-0.36788993">
<ele>86</ele>
<time>2015-04-04T19:45:23Z</time>
</trkpt>
<trkpt lat="39.46721308" lon="-0.36788808">
<ele>86</ele>
<time>2015-04-04T19:45:25Z</time>
</trkpt>
<trkpt lat="39.46721261" lon="-0.36788696">
<ele>86</ele>
<time>2015-04-04T19:45:27Z</time>
</trkpt>
<trkpt lat="39.46721284" lon="-0.36788578">
<ele>86</ele>
<time>2015-04-04T19:45:29Z</time>
</trkpt>
<trkpt lat="39.46721209" lon="-0.36788419">
<ele>86</ele>
<time>2015-04-04T19:45:31Z</time>
</trkpt>
<trkpt lat="39.46721069" lon="-0.36788292">
<ele>86</ele>
<time>2015-04-04T19:45:33Z</time>
</trkpt>
<trkpt lat="39.46721028" lon="-0.36788112">
<ele>86</ele>
<time>2015-04-04T19:45:35Z</time>
</trkpt>
<trkpt lat="39.46720972" lon="-0.36787873">
<ele>86</ele>
<time>2015-04-04T19:45:37Z</time>
</trkpt>
<trkpt lat="39.46720924" lon="-0.36787631">
<ele>85</ele>
<time>2015-04-04T19:45:38Z</time>
</trkpt>
<trkpt lat="39.46720965" lon="-0.36787416">
<ele>85</ele>
<time>2015-04-04T19:45:41Z</time>
</trkpt>
<trkpt lat="39.46721028" lon="-0.36787178">
<ele>85</ele>
<time>2015-04-04T19:45:43Z</time>
</trkpt>
<trkpt lat="39.46721136" lon="-0.36786187">
<ele>85</ele>
<time>2015-04-04T19:45:45Z</time>
</trkpt>
<trkpt lat="39.46762372" lon="-0.36683321">
<ele>84</ele>
<time>2015-04-04T19:46:16Z</time>
</trkpt>
<trkpt lat="39.46767591" lon="-0.36679175">
<ele>83</ele>
<time>2015-04-04T19:46:17Z</time>
</trkpt>
<trkpt lat="39.46774617" lon="-0.36674338">
<ele>83</ele>
<time>2015-04-04T19:46:19Z</time>
</trkpt>
<trkpt lat="39.46776707" lon="-0.3667025">
<ele>83</ele>
<time>2015-04-04T19:46:21Z</time>
</trkpt>
<trkpt lat="39.46776484" lon="-0.36661231">
<ele>80</ele>
<time>2015-04-04T19:46:23Z</time>
</trkpt>
<trkpt lat="39.46776007" lon="-0.36657092">
<ele>79</ele>
<time>2015-04-04T19:46:25Z</time>
</trkpt>
<trkpt lat="39.46779829" lon="-0.36655312">
<ele>78</ele>
<time>2015-04-04T19:46:27Z</time>
</trkpt>
<trkpt lat="39.4678155" lon="-0.36654092">
<ele>77</ele>
<time>2015-04-04T19:46:29Z</time>
</trkpt>
<trkpt lat="39.46783874" lon="-0.36652698">
<ele>78</ele>
<time>2015-04-04T19:46:31Z</time>
</trkpt>
<trkpt lat="39.4678505" lon="-0.36646864">
<ele>76</ele>
<time>2015-04-04T19:46:33Z</time>
</trkpt>
<trkpt lat="39.46786038" lon="-0.36640234">
<ele>74</ele>
<time>2015-04-04T19:46:36Z</time>
</trkpt>
<trkpt lat="39.46785842" lon="-0.36638917">
<ele>75</ele>
<time>2015-04-04T19:46:37Z</time>
</trkpt>
<trkpt lat="39.46790737" lon="-0.36637563">
<ele>74</ele>
<time>2015-04-04T19:46:39Z</time>
</trkpt>
<trkpt lat="39.4679392" lon="-0.36633326">
<ele>75</ele>
<time>2015-04-04T19:46:41Z</time>
</trkpt>
<trkpt lat="39.46791099" lon="-0.36632895">
<ele>73</ele>
<time>2015-04-04T19:46:43Z</time>
</trkpt>
<trkpt lat="39.46791142" lon="-0.36632617">
<ele>74</ele>
<time>2015-04-04T19:46:45Z</time>
</trkpt>
<trkpt lat="39.46790051" lon="-0.36628984">
<ele>73</ele>
<time>2015-04-04T19:46:47Z</time>
</trkpt>
<trkpt lat="39.4679318" lon="-0.36626008">
<ele>73</ele>
<time>2015-04-04T19:46:49Z</time>
</trkpt>
<trkpt lat="39.46797481" lon="-0.3662141">
<ele>72</ele>
<time>2015-04-04T19:46:51Z</time>
</trkpt>
<trkpt lat="39.468014" lon="-0.36619758">
<ele>72</ele>
<time>2015-04-04T19:46:53Z</time>
</trkpt>
<trkpt lat="39.46805322" lon="-0.36618716">
<ele>73</ele>
<time>2015-04-04T19:46:55Z</time>
</trkpt>
<trkpt lat="39.46813044" lon="-0.36617113">
<ele>73</ele>
<time>2015-04-04T19:46:57Z</time>
</trkpt>
<trkpt lat="39.46814968" lon="-0.36613014">
<ele>72</ele>
<time>2015-04-04T19:46:59Z</time>
</trkpt>
<trkpt lat="39.4680914" lon="-0.36603478">
<ele>72</ele>
<time>2015-04-04T19:47:01Z</time>
</trkpt>
<trkpt lat="39.46806032" lon="-0.36594656">
<ele>70</ele>
<time>2015-04-04T19:47:03Z</time>
</trkpt>
<trkpt lat="39.46798109" lon="-0.36577218">
<ele>69</ele>
<time>2015-04-04T19:47:10Z</time>
</trkpt>
<trkpt lat="39.46794422" lon="-0.36574767">
<ele>70</ele>
<time>2015-04-04T19:47:11Z</time>
</trkpt>
<trkpt lat="39.46795064" lon="-0.36574799">
<ele>71</ele>
<time>2015-04-04T19:47:13Z</time>
</trkpt>
<trkpt lat="39.46804394" lon="-0.36577821">
<ele>68</ele>
<time>2015-04-04T19:47:15Z</time>
</trkpt>
<trkpt lat="39.46801169" lon="-0.3657485">
<ele>69</ele>
<time>2015-04-04T19:47:17Z</time>
</trkpt>
<trkpt lat="39.46798514" lon="-0.36570521">
<ele>70</ele>
<time>2015-04-04T19:47:19Z</time>
</trkpt>
<trkpt lat="39.46798656" lon="-0.36567021">
<ele>70</ele>
<time>2015-04-04T19:47:21Z</time>
</trkpt>
<trkpt lat="39.46798341" lon="-0.36562935">
<ele>71</ele>
<time>2015-04-04T19:47:23Z</time>
</trkpt>
<trkpt lat="39.46798848" lon="-0.3655963">
<ele>71</ele>
<time>2015-04-04T19:47:25Z</time>
</trkpt>
<trkpt lat="39.46798711" lon="-0.36556307">
<ele>71</ele>
<time>2015-04-04T19:47:27Z</time>
</trkpt>
<trkpt lat="39.46798163" lon="-0.36552984">
<ele>73</ele>
<time>2015-04-04T19:47:29Z</time>
</trkpt>
<trkpt lat="39.46797542" lon="-0.36550514">
<ele>74</ele>
<time>2015-04-04T19:47:31Z</time>
</trkpt>
<trkpt lat="39.46794255" lon="-0.36544601">
<ele>74</ele>
<time>2015-04-04T19:47:33Z</time>
</trkpt>
<trkpt lat="39.46796043" lon="-0.36539782">
<ele>75</ele>
<time>2015-04-04T19:47:35Z</time>
</trkpt>
<trkpt lat="39.46798879" lon="-0.3653907">
<ele>76</ele>
<time>2015-04-04T19:47:37Z</time>
</trkpt>
<trkpt lat="39.46802422" lon="-0.3653511">
<ele>76</ele>
<time>2015-04-04T19:47:39Z</time>
</trkpt>
<trkpt lat="39.46811456" lon="-0.36535963">
<ele>76</ele>
<time>2015-04-04T19:47:41Z</time>
</trkpt>
<trkpt lat="39.46817304" lon="-0.36532377">
<ele>76</ele>
<time>2015-04-04T19:47:43Z</time>
</trkpt>
<trkpt lat="39.46820285" lon="-0.36530776">
<ele>77</ele>
<time>2015-04-04T19:47:45Z</time>
</trkpt>
<trkpt lat="39.46822679" lon="-0.36530047">
<ele>76</ele>
<time>2015-04-04T19:47:47Z</time>
</trkpt>
<trkpt lat="39.46824014" lon="-0.36530391">
<ele>78</ele>
<time>2015-04-04T19:47:49Z</time>
</trkpt>
<trkpt lat="39.4682437" lon="-0.36529136">
<ele>79</ele>
<time>2015-04-04T19:47:51Z</time>
</trkpt>
<trkpt lat="39.46828369" lon="-0.36529499">
<ele>79</ele>
<time>2015-04-04T19:47:53Z</time>
</trkpt>
<trkpt lat="39.46828463" lon="-0.36527077">
<ele>79</ele>
<time>2015-04-04T19:47:55Z</time>
</trkpt>
<trkpt lat="39.46829261" lon="-0.36527454">
<ele>79</ele>
<time>2015-04-04T19:47:57Z</time>
</trkpt>
<trkpt lat="39.46829224" lon="-0.36527586">
<ele>79</ele>
<time>2015-04-04T19:47:59Z</time>
</trkpt>
<trkpt lat="39.4682984" lon="-0.36527833">
<ele>79</ele>
<time>2015-04-04T19:48:01Z</time>
</trkpt>
<trkpt lat="39.46829878" lon="-0.36528008">
<ele>79</ele>
<time>2015-04-04T19:48:03Z</time>
</trkpt>
<trkpt lat="39.4682995" lon="-0.36527921">
<ele>79</ele>
<time>2015-04-04T19:48:05Z</time>
</trkpt>
<trkpt lat="39.46829929" lon="-0.36527879">
<ele>79</ele>
<time>2015-04-04T19:48:06Z</time>
</trkpt>
<trkpt lat="39.46830087" lon="-0.36527945">
<ele>79</ele>
<time>2015-04-04T19:48:09Z</time>
</trkpt>
<trkpt lat="39.46830091" lon="-0.36527987">
<ele>79</ele>
<time>2015-04-04T19:48:11Z</time>
</trkpt>
<trkpt lat="39.46830058" lon="-0.36527967">
<ele>79</ele>
<time>2015-04-04T19:48:13Z</time>
</trkpt>
<trkpt lat="39.46829981" lon="-0.3652798">
<ele>79</ele>
<time>2015-04-04T19:48:15Z</time>
</trkpt>
<trkpt lat="39.46829966" lon="-0.36528063">
<ele>79</ele>
<time>2015-04-04T19:48:17Z</time>
</trkpt>
<trkpt lat="39.46829969" lon="-0.36528111">
<ele>79</ele>
<time>2015-04-04T19:48:19Z</time>
</trkpt>
<trkpt lat="39.4683007" lon="-0.36528078">
<ele>79</ele>
<time>2015-04-04T19:48:21Z</time>
</trkpt>
<trkpt lat="39.4683014" lon="-0.36528064">
<ele>79</ele>
<time>2015-04-04T19:48:23Z</time>
</trkpt>
<trkpt lat="39.46830471" lon="-0.36528115">
<ele>79</ele>
<time>2015-04-04T19:48:25Z</time>
</trkpt>
<trkpt lat="39.46830378" lon="-0.36528119">
<ele>79</ele>
<time>2015-04-04T19:48:27Z</time>
</trkpt>
<trkpt lat="39.46830235" lon="-0.36528059">
<ele>79</ele>
<time>2015-04-04T19:48:29Z</time>
</trkpt>
<trkpt lat="39.4683025" lon="-0.36527969">
<ele>79</ele>
<time>2015-04-04T19:48:31Z</time>
</trkpt>
<trkpt lat="39.46830306" lon="-0.36528031">
<ele>79</ele>
<time>2015-04-04T19:48:33Z</time>
</trkpt>
<trkpt lat="39.46830229" lon="-0.36528006">
<ele>79</ele>
<time>2015-04-04T19:48:35Z</time>
</trkpt>
<trkpt lat="39.46830284" lon="-0.36528013">
<ele>79</ele>
<time>2015-04-04T19:48:37Z</time>
</trkpt>
<trkpt lat="39.46830242" lon="-0.36527937">
<ele>79</ele>
<time>2015-04-04T19:48:39Z</time>
</trkpt>
<trkpt lat="39.46830213" lon="-0.36527874">
<ele>79</ele>
<time>2015-04-04T19:48:41Z</time>
</trkpt>
<trkpt lat="39.46830224" lon="-0.36527847">
<ele>79</ele>
<time>2015-04-04T19:48:43Z</time>
</trkpt>
<trkpt lat="39.46830201" lon="-0.36527864">
<ele>79</ele>
<time>2015-04-04T19:48:45Z</time>
</trkpt>
<trkpt lat="39.46830146" lon="-0.36527828">
<ele>79</ele>
<time>2015-04-04T19:48:47Z</time>
</trkpt>
<trkpt lat="39.46830166" lon="-0.36527809">
<ele>79</ele>
<time>2015-04-04T19:48:49Z</time>
</trkpt>
<trkpt lat="39.46830149" lon="-0.36527769">
<ele>79</ele>
<time>2015-04-04T19:48:51Z</time>
</trkpt>
<trkpt lat="39.46830142" lon="-0.3652777">
<ele>79</ele>
<time>2015-04-04T19:48:53Z</time>
</trkpt>
<trkpt lat="39.46830148" lon="-0.3652771">
<ele>79</ele>
<time>2015-04-04T19:48:55Z</time>
</trkpt>
<trkpt lat="39.46830123" lon="-0.36527664">
<ele>79</ele>
<time>2015-04-04T19:48:57Z</time>
</trkpt>
<trkpt lat="39.46830093" lon="-0.36527458">
<ele>79</ele>
<time>2015-04-04T19:48:59Z</time>
</trkpt>
<trkpt lat="39.46830027" lon="-0.36527124">
<ele>78</ele>
<time>2015-04-04T19:49:01Z</time>
</trkpt>
<trkpt lat="39.46869725" lon="-0.36448648">
<ele>55</ele>
<time>2015-04-04T19:49:44Z</time>
</trkpt>
<trkpt lat="39.46869589" lon="-0.36440637">
<ele>54</ele>
<time>2015-04-04T19:49:45Z</time>
</trkpt>
<trkpt lat="39.46868906" lon="-0.36425014">
<ele>55</ele>
<time>2015-04-04T19:49:47Z</time>
</trkpt>
<trkpt lat="39.46869118" lon="-0.36419007">
<ele>57</ele>
<time>2015-04-04T19:49:48Z</time>
</trkpt>
<trkpt lat="39.46868475" lon="-0.36410298">
<ele>62</ele>
<time>2015-04-04T19:49:51Z</time>
</trkpt>
<trkpt lat="39.46867559" lon="-0.36394877">
<ele>68</ele>
<time>2015-04-04T19:49:53Z</time>
</trkpt>
<trkpt lat="39.46866083" lon="-0.36386011">
<ele>65</ele>
<time>2015-04-04T19:49:55Z</time>
</trkpt>
<trkpt lat="39.46866679" lon="-0.36381887">
<ele>66</ele>
<time>2015-04-04T19:49:57Z</time>
</trkpt>
<trkpt lat="39.46869251" lon="-0.36377863">
<ele>67</ele>
<time>2015-04-04T19:49:59Z</time>
</trkpt>
<trkpt lat="39.46869377" lon="-0.3637484">
<ele>67</ele>
<time>2015-04-04T19:50:01Z</time>
</trkpt>
<trkpt lat="39.46868551" lon="-0.36371504">
<ele>67</ele>
<time>2015-04-04T19:50:03Z</time>
</trkpt>
<trkpt lat="39.46868781" lon="-0.36369881">
<ele>67</ele>
<time>2015-04-04T19:50:05Z</time>
</trkpt>
<trkpt lat="39.46868135" lon="-0.36366785">
<ele>65</ele>
<time>2015-04-04T19:50:07Z</time>
</trkpt>
<trkpt lat="39.46870347" lon="-0.36361503">
<ele>64</ele>
<time>2015-04-04T19:50:09Z</time>
</trkpt>
<trkpt lat="39.46871631" lon="-0.36357787">
<ele>63</ele>
<time>2015-04-04T19:50:11Z</time>
</trkpt>
<trkpt lat="39.46871757" lon="-0.36355065">
<ele>64</ele>
<time>2015-04-04T19:50:13Z</time>
</trkpt>
<trkpt lat="39.46872281" lon="-0.36354629">
<ele>64</ele>
<time>2015-04-04T19:50:15Z</time>
</trkpt>
<trkpt lat="39.46871232" lon="-0.36354745">
<ele>64</ele>
<time>2015-04-04T19:50:17Z</time>
</trkpt>
<trkpt lat="39.46871146" lon="-0.36353033">
<ele>64</ele>
<time>2015-04-04T19:50:18Z</time>
</trkpt>
<trkpt lat="39.46872971" lon="-0.3634691">
<ele>64</ele>
<time>2015-04-04T19:50:21Z</time>
</trkpt>
<trkpt lat="39.46871806" lon="-0.36343213">
<ele>65</ele>
<time>2015-04-04T19:50:23Z</time>
</trkpt>
<trkpt lat="39.46870782" lon="-0.36341683">
<ele>65</ele>
<time>2015-04-04T19:50:24Z</time>
</trkpt>
<trkpt lat="39.46870447" lon="-0.36337054">
<ele>66</ele>
<time>2015-04-04T19:50:27Z</time>
</trkpt>
<trkpt lat="39.46870824" lon="-0.36335861">
<ele>65</ele>
<time>2015-04-04T19:50:29Z</time>
</trkpt>
<trkpt lat="39.46871162" lon="-0.36334376">
<ele>65</ele>
<time>2015-04-04T19:50:31Z</time>
</trkpt>
<trkpt lat="39.46871539" lon="-0.36333151">
<ele>64</ele>
<time>2015-04-04T19:50:33Z</time>
</trkpt>
<trkpt lat="39.46871696" lon="-0.36331918">
<ele>64</ele>
<time>2015-04-04T19:50:35Z</time>
</trkpt>
<trkpt lat="39.46871702" lon="-0.36331808">
<ele>64</ele>
<time>2015-04-04T19:50:36Z</time>
</trkpt>
<trkpt lat="39.46871552" lon="-0.36331348">
<ele>64</ele>
<time>2015-04-04T19:50:39Z</time>
</trkpt>
<trkpt lat="39.468713" lon="-0.36330935">
<ele>64</ele>
<time>2015-04-04T19:50:41Z</time>
</trkpt>
<trkpt lat="39.46872777" lon="-0.36324321">
<ele>65</ele>
<time>2015-04-04T19:50:43Z</time>
</trkpt>
<trkpt lat="39.46873373" lon="-0.36323724">
<ele>65</ele>
<time>2015-04-04T19:50:45Z</time>
</trkpt>
<trkpt lat="39.46873177" lon="-0.36322059">
<ele>66</ele>
<time>2015-04-04T19:50:47Z</time>
</trkpt>
<trkpt lat="39.46874408" lon="-0.36312853">
<ele>66</ele>
<time>2015-04-04T19:50:49Z</time>
</trkpt>
<trkpt lat="39.46874762" lon="-0.36307368">
<ele>65</ele>
<time>2015-04-04T19:50:51Z</time>
</trkpt>
<trkpt lat="39.468737" lon="-0.36307666">
<ele>65</ele>
<time>2015-04-04T19:50:53Z</time>
</trkpt>
<trkpt lat="39.46873162" lon="-0.36305443">
<ele>65</ele>
<time>2015-04-04T19:50:55Z</time>
</trkpt>
<trkpt lat="39.46872602" lon="-0.36299632">
<ele>63</ele>
<time>2015-04-04T19:50:57Z</time>
</trkpt>
<trkpt lat="39.46872867" lon="-0.36291467">
<ele>63</ele>
<time>2015-04-04T19:50:59Z</time>
</trkpt>
<trkpt lat="39.4687232" lon="-0.36288642">
<ele>63</ele>
<time>2015-04-04T19:51:01Z</time>
</trkpt>
<trkpt lat="39.46871155" lon="-0.3628371">
<ele>62</ele>
<time>2015-04-04T19:51:03Z</time>
</trkpt>
<trkpt lat="39.46871333" lon="-0.36279131">
<ele>64</ele>
<time>2015-04-04T19:51:05Z</time>
</trkpt>
<trkpt lat="39.46872167" lon="-0.36278435">
<ele>63</ele>
<time>2015-04-04T19:51:07Z</time>
</trkpt>
<trkpt lat="39.46872262" lon="-0.36277252">
<ele>63</ele>
<time>2015-04-04T19:51:09Z</time>
</trkpt>
<trkpt lat="39.46874093" lon="-0.3627361">
<ele>63</ele>
<time>2015-04-04T19:51:11Z</time>
</trkpt>
<trkpt lat="39.46874675" lon="-0.36272399">
<ele>62</ele>
<time>2015-04-04T19:51:13Z</time>
</trkpt>
<trkpt lat="39.46875092" lon="-0.36270887">
<ele>63</ele>
<time>2015-04-04T19:51:14Z</time>
</trkpt>
<trkpt lat="39.46874651" lon="-0.36270284">
<ele>63</ele>
<time>2015-04-04T19:51:17Z</time>
</trkpt>
<trkpt lat="39.46874502" lon="-0.36269724">
<ele>63</ele>
<time>2015-04-04T19:51:19Z</time>
</trkpt>
<trkpt lat="39.46874468" lon="-0.36268435">
<ele>63</ele>
<time>2015-04-04T19:51:21Z</time>
</trkpt>
<trkpt lat="39.46875026" lon="-0.36260045">
<ele>62</ele>
<time>2015-04-04T19:51:23Z</time>
</trkpt>
<trkpt lat="39.46875836" lon="-0.36251338">
<ele>62</ele>
<time>2015-04-04T19:51:25Z</time>
</trkpt>
<trkpt lat="39.46876557" lon="-0.36247385">
<ele>61</ele>
<time>2015-04-04T19:51:27Z</time>
</trkpt>
<trkpt lat="39.46876466" lon="-0.36240588">
<ele>60</ele>
<time>2015-04-04T19:51:29Z</time>
</trkpt>
<trkpt lat="39.46876343" lon="-0.36236422">
<ele>63</ele>
<time>2015-04-04T19:51:31Z</time>
</trkpt>
<trkpt lat="39.46876887" lon="-0.36230202">
<ele>65</ele>
<time>2015-04-04T19:51:33Z</time>
</trkpt>
<trkpt lat="39.46876769" lon="-0.36225347">
<ele>66</ele>
<time>2015-04-04T19:51:35Z</time>
</trkpt>
<trkpt lat="39.46875889" lon="-0.36222188">
<ele>65</ele>
<time>2015-04-04T19:51:37Z</time>
</trkpt>
<trkpt lat="39.4687654" lon="-0.36218205">
<ele>66</ele>
<time>2015-04-04T19:51:39Z</time>
</trkpt>
<trkpt lat="39.4687683" lon="-0.36214424">
<ele>66</ele>
<time>2015-04-04T19:51:41Z</time>
</trkpt>
<trkpt lat="39.46877116" lon="-0.36210467">
<ele>69</ele>
<time>2015-04-04T19:51:43Z</time>
</trkpt>
<trkpt lat="39.46878461" lon="-0.36208425">
<ele>68</ele>
<time>2015-04-04T19:51:45Z</time>
</trkpt>
<trkpt lat="39.4687852" lon="-0.36205828">
<ele>66</ele>
<time>2015-04-04T19:51:47Z</time>
</trkpt>
<trkpt lat="39.46878853" lon="-0.36201511">
<ele>67</ele>
<time>2015-04-04T19:51:49Z</time>
</trkpt>
<trkpt lat="39.46878703" lon="-0.36197803">
<ele>69</ele>
<time>2015-04-04T19:51:50Z</time>
</trkpt>
<trkpt lat="39.46879125" lon="-0.36194711">
<ele>69</ele>
<time>2015-04-04T19:51:53Z</time>
</trkpt>
<trkpt lat="39.46879357" lon="-0.36192051">
<ele>69</ele>
<time>2015-04-04T19:51:55Z</time>
</trkpt>
<trkpt lat="39.4687842" lon="-0.36190047">
<ele>68</ele>
<time>2015-04-04T19:51:57Z</time>
</trkpt>
<trkpt lat="39.46879123" lon="-0.36187667">
<ele>67</ele>
<time>2015-04-04T19:51:59Z</time>
</trkpt>
<trkpt lat="39.46879348" lon="-0.36184172">
<ele>67</ele>
<time>2015-04-04T19:52:01Z</time>
</trkpt>
<trkpt lat="39.46879406" lon="-0.36181911">
<ele>66</ele>
<time>2015-04-04T19:52:03Z</time>
</trkpt>
<trkpt lat="39.4687872" lon="-0.36179998">
<ele>67</ele>
<time>2015-04-04T19:52:05Z</time>
</trkpt>
<trkpt lat="39.46878043" lon="-0.36179078">
<ele>66</ele>
<time>2015-04-04T19:52:07Z</time>
</trkpt>
<trkpt lat="39.46877814" lon="-0.36175442">
<ele>68</ele>
<time>2015-04-04T19:52:09Z</time>
</trkpt>
<trkpt lat="39.46877376" lon="-0.36175226">
<ele>68</ele>
<time>2015-04-04T19:52:11Z</time>
</trkpt>
<trkpt lat="39.46876482" lon="-0.36172891">
<ele>68</ele>
<time>2015-04-04T19:52:13Z</time>
</trkpt>
<trkpt lat="39.46876022" lon="-0.36172246">
<ele>68</ele>
<time>2015-04-04T19:52:15Z</time>
</trkpt>
<trkpt lat="39.46873807" lon="-0.3617043">
<ele>66</ele>
<time>2015-04-04T19:52:17Z</time>
</trkpt>
<trkpt lat="39.46871414" lon="-0.3616776">
<ele>66</ele>
<time>2015-04-04T19:52:19Z</time>
</trkpt>
<trkpt lat="39.46868984" lon="-0.36164893">
<ele>64</ele>
<time>2015-04-04T19:52:21Z</time>
</trkpt>
<trkpt lat="39.46866449" lon="-0.36164532">
<ele>64</ele>
<time>2015-04-04T19:52:23Z</time>
</trkpt>
<trkpt lat="39.46863392" lon="-0.36164299">
<ele>63</ele>
<time>2015-04-04T19:52:25Z</time>
</trkpt>
<trkpt lat="39.46860604" lon="-0.36164033">
<ele>62</ele>
<time>2015-04-04T19:52:27Z</time>
</trkpt>
<trkpt lat="39.4685873" lon="-0.36162098">
<ele>62</ele>
<time>2015-04-04T19:52:29Z</time>
</trkpt>
<trkpt lat="39.46855635" lon="-0.36157162">
<ele>62</ele>
<time>2015-04-04T19:52:31Z</time>
</trkpt>
<trkpt lat="39.46852964" lon="-0.3615467">
<ele>62</ele>
<time>2015-04-04T19:52:33Z</time>
</trkpt>
<trkpt lat="39.46851629" lon="-0.36153545">
<ele>62</ele>
<time>2015-04-04T19:52:35Z</time>
</trkpt>
<trkpt lat="39.46850581" lon="-0.36150227">
<ele>62</ele>
<time>2015-04-04T19:52:37Z</time>
</trkpt>
<trkpt lat="39.46848056" lon="-0.36147401">
<ele>62</ele>
<time>2015-04-04T19:52:39Z</time>
</trkpt>
<trkpt lat="39.46845545" lon="-0.36144089">
<ele>62</ele>
<time>2015-04-04T19:52:41Z</time>
</trkpt>
<trkpt lat="39.46844979" lon="-0.36143869">
<ele>61</ele>
<time>2015-04-04T19:52:43Z</time>
</trkpt>
<trkpt lat="39.46843042" lon="-0.36139775">
<ele>61</ele>
<time>2015-04-04T19:52:45Z</time>
</trkpt>
<trkpt lat="39.46841596" lon="-0.36135198">
<ele>62</ele>
<time>2015-04-04T19:52:47Z</time>
</trkpt>
<trkpt lat="39.46838557" lon="-0.36134484">
<ele>63</ele>
<time>2015-04-04T19:52:49Z</time>
</trkpt>
<trkpt lat="39.46837436" lon="-0.36132577">
<ele>62</ele>
<time>2015-04-04T19:52:51Z</time>
</trkpt>
<trkpt lat="39.46835412" lon="-0.36131502">
<ele>62</ele>
<time>2015-04-04T19:52:53Z</time>
</trkpt>
<trkpt lat="39.46832649" lon="-0.36128381">
<ele>62</ele>
<time>2015-04-04T19:52:55Z</time>
</trkpt>
<trkpt lat="39.46830644" lon="-0.36127452">
<ele>63</ele>
<time>2015-04-04T19:52:57Z</time>
</trkpt>
<trkpt lat="39.46827319" lon="-0.36124606">
<ele>63</ele>
<time>2015-04-04T19:52:59Z</time>
</trkpt>
<trkpt lat="39.46826143" lon="-0.36122253">
<ele>63</ele>
<time>2015-04-04T19:53:01Z</time>
</trkpt>
<trkpt lat="39.4682431" lon="-0.36118554">
<ele>63</ele>
<time>2015-04-04T19:53:03Z</time>
</trkpt>
<trkpt lat="39.46823094" lon="-0.36115384">
<ele>63</ele>
<time>2015-04-04T19:53:05Z</time>
</trkpt>
<trkpt lat="39.46822964" lon="-0.36110766">
<ele>64</ele>
<time>2015-04-04T19:53:07Z</time>
</trkpt>
<trkpt lat="39.46822458" lon="-0.36109217">
<ele>64</ele>
<time>2015-04-04T19:53:09Z</time>
</trkpt>
<trkpt lat="39.46821467" lon="-0.3610494">
<ele>66</ele>
<time>2015-04-04T19:53:11Z</time>
</trkpt>
<trkpt lat="39.46821919" lon="-0.36100589">
<ele>65</ele>
<time>2015-04-04T19:53:13Z</time>
</trkpt>
<trkpt lat="39.46819502" lon="-0.360992">
<ele>62</ele>
<time>2015-04-04T19:53:15Z</time>
</trkpt>
<trkpt lat="39.46819144" lon="-0.36097133">
<ele>61</ele>
<time>2015-04-04T19:53:17Z</time>
</trkpt>
<trkpt lat="39.46818265" lon="-0.36097596">
<ele>60</ele>
<time>2015-04-04T19:53:19Z</time>
</trkpt>
<trkpt lat="39.46817527" lon="-0.36096551">
<ele>60</ele>
<time>2015-04-04T19:53:21Z</time>
</trkpt>
<trkpt lat="39.46814927" lon="-0.36094733">
<ele>60</ele>
<time>2015-04-04T19:53:23Z</time>
</trkpt>
<trkpt lat="39.46814056" lon="-0.36090075">
<ele>59</ele>
<time>2015-04-04T19:53:25Z</time>
</trkpt>
<trkpt lat="39.46814154" lon="-0.36085356">
<ele>60</ele>
<time>2015-04-04T19:53:27Z</time>
</trkpt>
<trkpt lat="39.46815104" lon="-0.36082106">
<ele>61</ele>
<time>2015-04-04T19:53:29Z</time>
</trkpt>
<trkpt lat="39.46814675" lon="-0.36078551">
<ele>63</ele>
<time>2015-04-04T19:53:31Z</time>
</trkpt>
<trkpt lat="39.46815119" lon="-0.360741">
<ele>64</ele>
<time>2015-04-04T19:53:33Z</time>
</trkpt>
<trkpt lat="39.46815202" lon="-0.36070343">
<ele>65</ele>
<time>2015-04-04T19:53:35Z</time>
</trkpt>
<trkpt lat="39.46813323" lon="-0.36068138">
<ele>64</ele>
<time>2015-04-04T19:53:37Z</time>
</trkpt>
<trkpt lat="39.46813632" lon="-0.36066076">
<ele>64</ele>
<time>2015-04-04T19:53:39Z</time>
</trkpt>
<trkpt lat="39.46813821" lon="-0.36064898">
<ele>65</ele>
<time>2015-04-04T19:53:41Z</time>
</trkpt>
<trkpt lat="39.46813741" lon="-0.36063645">
<ele>66</ele>
<time>2015-04-04T19:53:43Z</time>
</trkpt>
<trkpt lat="39.46813869" lon="-0.36063328">
<ele>66</ele>
<time>2015-04-04T19:53:45Z</time>
</trkpt>
<trkpt lat="39.46814102" lon="-0.36062508">
<ele>66</ele>
<time>2015-04-04T19:53:47Z</time>
</trkpt>
<trkpt lat="39.46814191" lon="-0.36061823">
<ele>66</ele>
<time>2015-04-04T19:53:49Z</time>
</trkpt>
<trkpt lat="39.46814186" lon="-0.36061692">
<ele>66</ele>
<time>2015-04-04T19:53:51Z</time>
</trkpt>
<trkpt lat="39.46814192" lon="-0.36061676">
<ele>66</ele>
<time>2015-04-04T19:53:53Z</time>
</trkpt>
<trkpt lat="39.46814185" lon="-0.36061672">
<ele>66</ele>
<time>2015-04-04T19:53:55Z</time>
</trkpt>
<trkpt lat="39.46814117" lon="-0.36061685">
<ele>66</ele>
<time>2015-04-04T19:53:57Z</time>
</trkpt>
<trkpt lat="39.46814135" lon="-0.3606169">
<ele>66</ele>
<time>2015-04-04T19:53:59Z</time>
</trkpt>
<trkpt lat="39.46814138" lon="-0.36061681">
<ele>66</ele>
<time>2015-04-04T19:54:01Z</time>
</trkpt>
<trkpt lat="39.46814136" lon="-0.3606168">
<ele>66</ele>
<time>2015-04-04T19:54:03Z</time>
</trkpt>
<trkpt lat="39.46814135" lon="-0.36061676">
<ele>66</ele>
<time>2015-04-04T19:54:05Z</time>
</trkpt>
<trkpt lat="39.46814124" lon="-0.36061674">
<ele>66</ele>
<time>2015-04-04T19:54:07Z</time>
</trkpt>
<trkpt lat="39.4681414" lon="-0.36061682">
<ele>66</ele>
<time>2015-04-04T19:54:09Z</time>
</trkpt>
<trkpt lat="39.4681415" lon="-0.36061678">
<ele>66</ele>
<time>2015-04-04T19:54:11Z</time>
</trkpt>
<trkpt lat="39.46814151" lon="-0.36061684">
<ele>66</ele>
<time>2015-04-04T19:54:13Z</time>
</trkpt>
<trkpt lat="39.46814133" lon="-0.36061661">
<ele>66</ele>
<time>2015-04-04T19:54:15Z</time>
</trkpt>
<trkpt lat="39.46814124" lon="-0.36061647">
<ele>66</ele>
<time>2015-04-04T19:54:17Z</time>
</trkpt>
<trkpt lat="39.46814139" lon="-0.36061643">
<ele>66</ele>
<time>2015-04-04T19:54:19Z</time>
</trkpt>
<trkpt lat="39.46814148" lon="-0.36061639">
<ele>66</ele>
<time>2015-04-04T19:54:21Z</time>
</trkpt>
<trkpt lat="39.46814136" lon="-0.36061625">
<ele>66</ele>
<time>2015-04-04T19:54:23Z</time>
</trkpt>
<trkpt lat="39.46814123" lon="-0.36061605">
<ele>66</ele>
<time>2015-04-04T19:54:25Z</time>
</trkpt>
<trkpt lat="39.46813584" lon="-0.36055011">
<ele>68</ele>
<time>2015-04-04T19:54:27Z</time>
</trkpt>
<trkpt lat="39.46812483" lon="-0.36047733">
<ele>71</ele>
<time>2015-04-04T19:54:29Z</time>
</trkpt>
<trkpt lat="39.46812763" lon="-0.36040268">
<ele>72</ele>
<time>2015-04-04T19:54:31Z</time>
</trkpt>
<trkpt lat="39.46813666" lon="-0.36033657">
<ele>73</ele>
<time>2015-04-04T19:54:33Z</time>
</trkpt>
<trkpt lat="39.46815023" lon="-0.36029666">
<ele>74</ele>
<time>2015-04-04T19:54:35Z</time>
</trkpt>
<trkpt lat="39.4681516" lon="-0.36025489">
<ele>74</ele>
<time>2015-04-04T19:54:37Z</time>
</trkpt>
<trkpt lat="39.46815956" lon="-0.3602377">
<ele>73</ele>
<time>2015-04-04T19:54:39Z</time>
</trkpt>
<trkpt lat="39.46815779" lon="-0.36020019">
<ele>74</ele>
<time>2015-04-04T19:54:40Z</time>
</trkpt>
<trkpt lat="39.46816881" lon="-0.36017811">
<ele>74</ele>
<time>2015-04-04T19:54:43Z</time>
</trkpt>
<trkpt lat="39.46821106" lon="-0.36015091">
<ele>73</ele>
<time>2015-04-04T19:54:45Z</time>
</trkpt>
<trkpt lat="39.46822992" lon="-0.36013621">
<ele>75</ele>
<time>2015-04-04T19:54:46Z</time>
</trkpt>
<trkpt lat="39.46822201" lon="-0.36014239">
<ele>75</ele>
<time>2015-04-04T19:54:49Z</time>
</trkpt>
<trkpt lat="39.46821406" lon="-0.3601401">
<ele>76</ele>
<time>2015-04-04T19:54:51Z</time>
</trkpt>
<trkpt lat="39.46821028" lon="-0.36013958">
<ele>76</ele>
<time>2015-04-04T19:54:53Z</time>
</trkpt>
<trkpt lat="39.46821339" lon="-0.36013623">
<ele>76</ele>
<time>2015-04-04T19:54:55Z</time>
</trkpt>
<trkpt lat="39.46821191" lon="-0.36013393">
<ele>77</ele>
<time>2015-04-04T19:54:57Z</time>
</trkpt>
<trkpt lat="39.46821366" lon="-0.36013323">
<ele>77</ele>
<time>2015-04-04T19:54:59Z</time>
</trkpt>
<trkpt lat="39.46821397" lon="-0.3601335">
<ele>77</ele>
<time>2015-04-04T19:55:01Z</time>
</trkpt>
<trkpt lat="39.46821395" lon="-0.36013366">
<ele>77</ele>
<time>2015-04-04T19:55:03Z</time>
</trkpt>
<trkpt lat="39.46821597" lon="-0.36013268">
<ele>77</ele>
<time>2015-04-04T19:55:05Z</time>
</trkpt>
<trkpt lat="39.46821574" lon="-0.36013278">
<ele>77</ele>
<time>2015-04-04T19:55:07Z</time>
</trkpt>
<trkpt lat="39.46821453" lon="-0.36013399">
<ele>77</ele>
<time>2015-04-04T19:55:09Z</time>
</trkpt>
<trkpt lat="39.468214" lon="-0.36013477">
<ele>77</ele>
<time>2015-04-04T19:55:11Z</time>
</trkpt>
<trkpt lat="39.46821378" lon="-0.36013771">
<ele>77</ele>
<time>2015-04-04T19:55:13Z</time>
</trkpt>
<trkpt lat="39.46821381" lon="-0.36013702">
<ele>77</ele>
<time>2015-04-04T19:55:15Z</time>
</trkpt>
<trkpt lat="39.46821469" lon="-0.36013833">
<ele>77</ele>
<time>2015-04-04T19:55:17Z</time>
</trkpt>
<trkpt lat="39.46821439" lon="-0.36013823">
<ele>77</ele>
<time>2015-04-04T19:55:19Z</time>
</trkpt>
<trkpt lat="39.46821381" lon="-0.36013921">
<ele>77</ele>
<time>2015-04-04T19:55:21Z</time>
</trkpt>
<trkpt lat="39.46821383" lon="-0.36013877">
<ele>77</ele>
<time>2015-04-04T19:55:22Z</time>
</trkpt>
<trkpt lat="39.4682146" lon="-0.3601383">
<ele>77</ele>
<time>2015-04-04T19:55:25Z</time>
</trkpt>
<trkpt lat="39.46821438" lon="-0.36013766">
<ele>77</ele>
<time>2015-04-04T19:55:27Z</time>
</trkpt>
<trkpt lat="39.46821334" lon="-0.36013823">
<ele>77</ele>
<time>2015-04-04T19:55:29Z</time>
</trkpt>
<trkpt lat="39.46820373" lon="-0.36012732">
<ele>77</ele>
<time>2015-04-04T19:55:30Z</time>
</trkpt>
<trkpt lat="39.46814164" lon="-0.3600596">
<ele>78</ele>
<time>2015-04-04T19:55:33Z</time>
</trkpt>
<trkpt lat="39.46812496" lon="-0.3600235">
<ele>76</ele>
<time>2015-04-04T19:55:35Z</time>
</trkpt>
<trkpt lat="39.46809299" lon="-0.36001608">
<ele>75</ele>
<time>2015-04-04T19:55:37Z</time>
</trkpt>
<trkpt lat="39.46806078" lon="-0.35996985">
<ele>73</ele>
<time>2015-04-04T19:55:39Z</time>
</trkpt>
<trkpt lat="39.46805345" lon="-0.35993174">
<ele>72</ele>
<time>2015-04-04T19:55:41Z</time>
</trkpt>
<trkpt lat="39.46802363" lon="-0.35990824">
<ele>72</ele>
<time>2015-04-04T19:55:43Z</time>
</trkpt>
<trkpt lat="39.46799573" lon="-0.35988216">
<ele>70</ele>
<time>2015-04-04T19:55:45Z</time>
</trkpt>
<trkpt lat="39.46794732" lon="-0.35984126">
<ele>70</ele>
<time>2015-04-04T19:55:47Z</time>
</trkpt>
<trkpt lat="39.46792413" lon="-0.35982249">
<ele>71</ele>
<time>2015-04-04T19:55:49Z</time>
</trkpt>
<trkpt lat="39.46790631" lon="-0.35980291">
<ele>71</ele>
<time>2015-04-04T19:55:51Z</time>
</trkpt>
<trkpt lat="39.4678794" lon="-0.35978185">
<ele>71</ele>
<time>2015-04-04T19:55:53Z</time>
</trkpt>
<trkpt lat="39.46786399" lon="-0.35973731">
<ele>71</ele>
<time>2015-04-04T19:55:55Z</time>
</trkpt>
<trkpt lat="39.46785406" lon="-0.35970869">
<ele>71</ele>
<time>2015-04-04T19:55:57Z</time>
</trkpt>
<trkpt lat="39.46784793" lon="-0.35965751">
<ele>71</ele>
<time>2015-04-04T19:55:59Z</time>
</trkpt>
<trkpt lat="39.46783588" lon="-0.35964496">
<ele>71</ele>
<time>2015-04-04T19:56:01Z</time>
</trkpt>
<trkpt lat="39.4678551" lon="-0.35961894">
<ele>72</ele>
<time>2015-04-04T19:56:03Z</time>
</trkpt>
<trkpt lat="39.4678431" lon="-0.3596051">
<ele>72</ele>
<time>2015-04-04T19:56:05Z</time>
</trkpt>
<trkpt lat="39.46782833" lon="-0.35957674">
<ele>74</ele>
<time>2015-04-04T19:56:07Z</time>
</trkpt>
<trkpt lat="39.4678038" lon="-0.35955191">
<ele>73</ele>
<time>2015-04-04T19:56:09Z</time>
</trkpt>
<trkpt lat="39.46778903" lon="-0.35948511">
<ele>75</ele>
<time>2015-04-04T19:56:11Z</time>
</trkpt>
<trkpt lat="39.46778155" lon="-0.35943564">
<ele>77</ele>
<time>2015-04-04T19:56:13Z</time>
</trkpt>
<trkpt lat="39.46777334" lon="-0.3594362">
<ele>77</ele>
<time>2015-04-04T19:56:15Z</time>
</trkpt>
<trkpt lat="39.46777434" lon="-0.35943084">
<ele>78</ele>
<time>2015-04-04T19:56:17Z</time>
</trkpt>
<trkpt lat="39.46777228" lon="-0.35942293">
<ele>78</ele>
<time>2015-04-04T19:56:19Z</time>
</trkpt>
<trkpt lat="39.4677698" lon="-0.35941726">
<ele>78</ele>
<time>2015-04-04T19:56:21Z</time>
</trkpt>
<trkpt lat="39.46776676" lon="-0.35941491">
<ele>78</ele>
<time>2015-04-04T19:56:23Z</time>
</trkpt>
<trkpt lat="39.4677678" lon="-0.35941539">
<ele>77</ele>
<time>2015-04-04T19:56:25Z</time>
</trkpt>
<trkpt lat="39.46776841" lon="-0.35941488">
<ele>77</ele>
<time>2015-04-04T19:56:27Z</time>
</trkpt>
<trkpt lat="39.46776913" lon="-0.35941618">
<ele>77</ele>
<time>2015-04-04T19:56:29Z</time>
</trkpt>
<trkpt lat="39.46776898" lon="-0.35941624">
<ele>77</ele>
<time>2015-04-04T19:56:31Z</time>
</trkpt>
<trkpt lat="39.46776783" lon="-0.35941657">
<ele>77</ele>
<time>2015-04-04T19:56:33Z</time>
</trkpt>
<trkpt lat="39.46776625" lon="-0.35941538">
<ele>77</ele>
<time>2015-04-04T19:56:35Z</time>
</trkpt>
<trkpt lat="39.46776625" lon="-0.35941583">
<ele>77</ele>
<time>2015-04-04T19:56:37Z</time>
</trkpt>
<trkpt lat="39.46776608" lon="-0.35941533">
<ele>77</ele>
<time>2015-04-04T19:56:39Z</time>
</trkpt>
<trkpt lat="39.46776289" lon="-0.3594152">
<ele>77</ele>
<time>2015-04-04T19:56:41Z</time>
</trkpt>
<trkpt lat="39.46776372" lon="-0.35941504">
<ele>77</ele>
<time>2015-04-04T19:56:43Z</time>
</trkpt>
<trkpt lat="39.46775986" lon="-0.35941516">
<ele>77</ele>
<time>2015-04-04T19:56:45Z</time>
</trkpt>
<trkpt lat="39.46775881" lon="-0.35941529">
<ele>77</ele>
<time>2015-04-04T19:56:47Z</time>
</trkpt>
<trkpt lat="39.46775857" lon="-0.35941526">
<ele>77</ele>
<time>2015-04-04T19:56:49Z</time>
</trkpt>
<trkpt lat="39.46775885" lon="-0.35941498">
<ele>77</ele>
<time>2015-04-04T19:56:51Z</time>
</trkpt>
<trkpt lat="39.46775794" lon="-0.35941482">
<ele>77</ele>
<time>2015-04-04T19:56:53Z</time>
</trkpt>
<trkpt lat="39.46775791" lon="-0.35941484">
<ele>77</ele>
<time>2015-04-04T19:56:55Z</time>
</trkpt>
<trkpt lat="39.46775526" lon="-0.35941378">
<ele>77</ele>
<time>2015-04-04T19:56:57Z</time>
</trkpt>
<trkpt lat="39.46775488" lon="-0.3594137">
<ele>77</ele>
<time>2015-04-04T19:56:59Z</time>
</trkpt>
<trkpt lat="39.46775437" lon="-0.3594139">
<ele>77</ele>
<time>2015-04-04T19:57:01Z</time>
</trkpt>
<trkpt lat="39.46775414" lon="-0.35941411">
<ele>77</ele>
<time>2015-04-04T19:57:03Z</time>
</trkpt>
<trkpt lat="39.46775401" lon="-0.35941394">
<ele>77</ele>
<time>2015-04-04T19:57:05Z</time>
</trkpt>
<trkpt lat="39.46775201" lon="-0.3594125">
<ele>77</ele>
<time>2015-04-04T19:57:07Z</time>
</trkpt>
<trkpt lat="39.46775166" lon="-0.35941192">
<ele>77</ele>
<time>2015-04-04T19:57:09Z</time>
</trkpt>
<trkpt lat="39.46775153" lon="-0.3594111">
<ele>77</ele>
<time>2015-04-04T19:57:11Z</time>
</trkpt>
<trkpt lat="39.46775143" lon="-0.35941063">
<ele>77</ele>
<time>2015-04-04T19:57:13Z</time>
</trkpt>
<trkpt lat="39.4677515" lon="-0.35941045">
<ele>77</ele>
<time>2015-04-04T19:57:15Z</time>
</trkpt>
<trkpt lat="39.46775135" lon="-0.35941022">
<ele>77</ele>
<time>2015-04-04T19:57:17Z</time>
</trkpt>
<trkpt lat="39.467751" lon="-0.35940943">
<ele>77</ele>
<time>2015-04-04T19:57:19Z</time>
</trkpt>
<trkpt lat="39.4677509" lon="-0.35940915">
<ele>77</ele>
<time>2015-04-04T19:57:21Z</time>
</trkpt>
<trkpt lat="39.46775079" lon="-0.35940878">
<ele>77</ele>
<time>2015-04-04T19:57:23Z</time>
</trkpt>
<trkpt lat="39.46775098" lon="-0.35940867">
<ele>77</ele>
<time>2015-04-04T19:57:25Z</time>
</trkpt>
<trkpt lat="39.46775102" lon="-0.35940802">
<ele>77</ele>
<time>2015-04-04T19:57:27Z</time>
</trkpt>
<trkpt lat="39.46774892" lon="-0.35940558">
<ele>77</ele>
<time>2015-04-04T19:57:29Z</time>
</trkpt>
<trkpt lat="39.46774883" lon="-0.35940574">
<ele>77</ele>
<time>2015-04-04T19:57:31Z</time>
</trkpt>
<trkpt lat="39.46774913" lon="-0.35940506">
<ele>77</ele>
<time>2015-04-04T19:57:33Z</time>
</trkpt>
<trkpt lat="39.46774976" lon="-0.35940486">
<ele>77</ele>
<time>2015-04-04T19:57:35Z</time>
</trkpt>
<trkpt lat="39.46774592" lon="-0.35940249">
<ele>78</ele>
<time>2015-04-04T19:57:37Z</time>
</trkpt>
<trkpt lat="39.46774538" lon="-0.35940248">
<ele>78</ele>
<time>2015-04-04T19:57:39Z</time>
</trkpt>
<trkpt lat="39.4677398" lon="-0.35939884">
<ele>78</ele>
<time>2015-04-04T19:57:41Z</time>
</trkpt>
<trkpt lat="39.46773986" lon="-0.35939874">
<ele>78</ele>
<time>2015-04-04T19:57:43Z</time>
</trkpt>
<trkpt lat="39.46773994" lon="-0.35939844">
<ele>78</ele>
<time>2015-04-04T19:57:45Z</time>
</trkpt>
<trkpt lat="39.46773646" lon="-0.35939557">
<ele>79</ele>
<time>2015-04-04T19:57:47Z</time>
</trkpt>
<trkpt lat="39.46777959" lon="-0.3593205">
<ele>77</ele>
<time>2015-04-04T19:57:49Z</time>
</trkpt>
<trkpt lat="39.46765127" lon="-0.35926649">
<ele>76</ele>
<time>2015-04-04T19:57:51Z</time>
</trkpt>
<trkpt lat="39.46765718" lon="-0.35919467">
<ele>74</ele>
<time>2015-04-04T19:57:53Z</time>
</trkpt>
<trkpt lat="39.46766979" lon="-0.35911329">
<ele>71</ele>
<time>2015-04-04T19:57:55Z</time>
</trkpt>
<trkpt lat="39.46765099" lon="-0.35902391">
<ele>71</ele>
<time>2015-04-04T19:57:57Z</time>
</trkpt>
<trkpt lat="39.46757523" lon="-0.35888942">
<ele>68</ele>
<time>2015-04-04T19:57:59Z</time>
</trkpt>
<trkpt lat="39.46749682" lon="-0.35877372">
<ele>65</ele>
<time>2015-04-04T19:58:01Z</time>
</trkpt>
<trkpt lat="39.46746342" lon="-0.35867049">
<ele>63</ele>
<time>2015-04-04T19:58:03Z</time>
</trkpt>
<trkpt lat="39.46741254" lon="-0.3585745">
<ele>62</ele>
<time>2015-04-04T19:58:05Z</time>
</trkpt>
<trkpt lat="39.46740318" lon="-0.35846506">
<ele>62</ele>
<time>2015-04-04T19:58:07Z</time>
</trkpt>
<trkpt lat="39.46739768" lon="-0.35839192">
<ele>63</ele>
<time>2015-04-04T19:58:09Z</time>
</trkpt>
<trkpt lat="39.46739467" lon="-0.35830145">
<ele>62</ele>
<time>2015-04-04T19:58:11Z</time>
</trkpt>
<trkpt lat="39.46738485" lon="-0.35821487">
<ele>62</ele>
<time>2015-04-04T19:58:13Z</time>
</trkpt>
<trkpt lat="39.46737425" lon="-0.3581306">
<ele>64</ele>
<time>2015-04-04T19:58:15Z</time>
</trkpt>
<trkpt lat="39.46736491" lon="-0.35809179">
<ele>65</ele>
<time>2015-04-04T19:58:17Z</time>
</trkpt>
<trkpt lat="39.46734195" lon="-0.35801817">
<ele>67</ele>
<time>2015-04-04T19:58:19Z</time>
</trkpt>
<trkpt lat="39.46732034" lon="-0.35795045">
<ele>67</ele>
<time>2015-04-04T19:58:21Z</time>
</trkpt>
<trkpt lat="39.46729867" lon="-0.35785905">
<ele>68</ele>
<time>2015-04-04T19:58:23Z</time>
</trkpt>
<trkpt lat="39.46728536" lon="-0.3577978">
<ele>68</ele>
<time>2015-04-04T19:58:25Z</time>
</trkpt>
<trkpt lat="39.46729231" lon="-0.35773238">
<ele>69</ele>
<time>2015-04-04T19:58:27Z</time>
</trkpt>
<trkpt lat="39.46726686" lon="-0.35767742">
<ele>72</ele>
<time>2015-04-04T19:58:29Z</time>
</trkpt>
<trkpt lat="39.46724225" lon="-0.35766115">
<ele>73</ele>
<time>2015-04-04T19:58:31Z</time>
</trkpt>
<trkpt lat="39.46722059" lon="-0.35761483">
<ele>73</ele>
<time>2015-04-04T19:58:33Z</time>
</trkpt>
<trkpt lat="39.46721357" lon="-0.35758803">
<ele>74</ele>
<time>2015-04-04T19:58:35Z</time>
</trkpt>
<trkpt lat="39.46721327" lon="-0.35754449">
<ele>75</ele>
<time>2015-04-04T19:58:37Z</time>
</trkpt>
<trkpt lat="39.46723468" lon="-0.35751772">
<ele>76</ele>
<time>2015-04-04T19:58:39Z</time>
</trkpt>
<trkpt lat="39.46719726" lon="-0.35748205">
<ele>78</ele>
<time>2015-04-04T19:58:41Z</time>
</trkpt>
<trkpt lat="39.46718573" lon="-0.35745459">
<ele>78</ele>
<time>2015-04-04T19:58:43Z</time>
</trkpt>
<trkpt lat="39.46716231" lon="-0.35740202">
<ele>78</ele>
<time>2015-04-04T19:58:45Z</time>
</trkpt>
<trkpt lat="39.46712948" lon="-0.35736922">
<ele>78</ele>
<time>2015-04-04T19:58:47Z</time>
</trkpt>
<trkpt lat="39.46710578" lon="-0.3573118">
<ele>78</ele>
<time>2015-04-04T19:58:49Z</time>
</trkpt>
<trkpt lat="39.46708599" lon="-0.35727765">
<ele>78</ele>
<time>2015-04-04T19:58:51Z</time>
</trkpt>
<trkpt lat="39.46706982" lon="-0.35724316">
<ele>79</ele>
<time>2015-04-04T19:58:53Z</time>
</trkpt>
<trkpt lat="39.46705078" lon="-0.3571922">
<ele>79</ele>
<time>2015-04-04T19:58:55Z</time>
</trkpt>
<trkpt lat="39.46703529" lon="-0.35715422">
<ele>79</ele>
<time>2015-04-04T19:58:57Z</time>
</trkpt>
<trkpt lat="39.46702225" lon="-0.35711462">
<ele>78</ele>
<time>2015-04-04T19:58:59Z</time>
</trkpt>
<trkpt lat="39.46700798" lon="-0.35707715">
<ele>79</ele>
<time>2015-04-04T19:59:01Z</time>
</trkpt>
<trkpt lat="39.46701401" lon="-0.35704559">
<ele>79</ele>
<time>2015-04-04T19:59:03Z</time>
</trkpt>
<trkpt lat="39.46700981" lon="-0.35700378">
<ele>79</ele>
<time>2015-04-04T19:59:05Z</time>
</trkpt>
<trkpt lat="39.46701142" lon="-0.35697552">
<ele>80</ele>
<time>2015-04-04T19:59:07Z</time>
</trkpt>
<trkpt lat="39.46700412" lon="-0.35694956">
<ele>81</ele>
<time>2015-04-04T19:59:09Z</time>
</trkpt>
<trkpt lat="39.4670101" lon="-0.35693154">
<ele>80</ele>
<time>2015-04-04T19:59:11Z</time>
</trkpt>
<trkpt lat="39.46699658" lon="-0.35690324">
<ele>80</ele>
<time>2015-04-04T19:59:13Z</time>
</trkpt>
<trkpt lat="39.46698218" lon="-0.35686445">
<ele>82</ele>
<time>2015-04-04T19:59:15Z</time>
</trkpt>
<trkpt lat="39.46694064" lon="-0.35683227">
<ele>83</ele>
<time>2015-04-04T19:59:17Z</time>
</trkpt>
<trkpt lat="39.46691139" lon="-0.3567799">
<ele>83</ele>
<time>2015-04-04T19:59:19Z</time>
</trkpt>
<trkpt lat="39.4668992" lon="-0.35676619">
<ele>82</ele>
<time>2015-04-04T19:59:21Z</time>
</trkpt>
<trkpt lat="39.46689399" lon="-0.35673349">
<ele>83</ele>
<time>2015-04-04T19:59:23Z</time>
</trkpt>
<trkpt lat="39.46690817" lon="-0.3566903">
<ele>84</ele>
<time>2015-04-04T19:59:25Z</time>
</trkpt>
<trkpt lat="39.4669434" lon="-0.35665419">
<ele>82</ele>
<time>2015-04-04T19:59:27Z</time>
</trkpt>
<trkpt lat="39.46713929" lon="-0.35654865">
<ele>81</ele>
<time>2015-04-04T19:59:29Z</time>
</trkpt>
<trkpt lat="39.46716272" lon="-0.35651415">
<ele>82</ele>
<time>2015-04-04T19:59:31Z</time>
</trkpt>
<trkpt lat="39.46718253" lon="-0.35649856">
<ele>82</ele>
<time>2015-04-04T19:59:33Z</time>
</trkpt>
<trkpt lat="39.46719008" lon="-0.35648165">
<ele>81</ele>
<time>2015-04-04T19:59:35Z</time>
</trkpt>
<trkpt lat="39.46721553" lon="-0.3564868">
<ele>82</ele>
<time>2015-04-04T19:59:37Z</time>
</trkpt>
<trkpt lat="39.46724695" lon="-0.35645277">
<ele>85</ele>
<time>2015-04-04T19:59:39Z</time>
</trkpt>
<trkpt lat="39.46725684" lon="-0.35639848">
<ele>87</ele>
<time>2015-04-04T19:59:41Z</time>
</trkpt>
<trkpt lat="39.46725264" lon="-0.3563213">
<ele>89</ele>
<time>2015-04-04T19:59:43Z</time>
</trkpt>
<trkpt lat="39.46724295" lon="-0.35629169">
<ele>90</ele>
<time>2015-04-04T19:59:45Z</time>
</trkpt>
<trkpt lat="39.46724926" lon="-0.35628972">
<ele>90</ele>
<time>2015-04-04T19:59:47Z</time>
</trkpt>
<trkpt lat="39.46725124" lon="-0.35628955">
<ele>90</ele>
<time>2015-04-04T19:59:49Z</time>
</trkpt>
<trkpt lat="39.46725221" lon="-0.35628735">
<ele>90</ele>
<time>2015-04-04T19:59:51Z</time>
</trkpt>
<trkpt lat="39.46725232" lon="-0.35628197">
<ele>91</ele>
<time>2015-04-04T19:59:53Z</time>
</trkpt>
<trkpt lat="39.46725569" lon="-0.3562774">
<ele>91</ele>
<time>2015-04-04T19:59:55Z</time>
</trkpt>
<trkpt lat="39.46725438" lon="-0.35627734">
<ele>91</ele>
<time>2015-04-04T19:59:57Z</time>
</trkpt>
<trkpt lat="39.46725789" lon="-0.356277">
<ele>91</ele>
<time>2015-04-04T19:59:59Z</time>
</trkpt>
<trkpt lat="39.46726359" lon="-0.35627419">
<ele>91</ele>
<time>2015-04-04T20:00:01Z</time>
</trkpt>
<trkpt lat="39.46726502" lon="-0.35627366">
<ele>91</ele>
<time>2015-04-04T20:00:03Z</time>
</trkpt>
<trkpt lat="39.46726499" lon="-0.3562735">
<ele>91</ele>
<time>2015-04-04T20:00:05Z</time>
</trkpt>
<trkpt lat="39.46726533" lon="-0.35627307">
<ele>91</ele>
<time>2015-04-04T20:00:07Z</time>
</trkpt>
<trkpt lat="39.46726508" lon="-0.3562733">
<ele>91</ele>
<time>2015-04-04T20:00:09Z</time>
</trkpt>
<trkpt lat="39.46726421" lon="-0.35627367">
<ele>91</ele>
<time>2015-04-04T20:00:11Z</time>
</trkpt>
<trkpt lat="39.46726448" lon="-0.35627289">
<ele>91</ele>
<time>2015-04-04T20:00:13Z</time>
</trkpt>
<trkpt lat="39.46726588" lon="-0.3562675">
<ele>91</ele>
<time>2015-04-04T20:00:15Z</time>
</trkpt>
<trkpt lat="39.46735406" lon="-0.35623462">
<ele>90</ele>
<time>2015-04-04T20:00:17Z</time>
</trkpt>
<trkpt lat="39.46740977" lon="-0.35621628">
<ele>90</ele>
<time>2015-04-04T20:00:19Z</time>
</trkpt>
<trkpt lat="39.46745906" lon="-0.3561821">
<ele>90</ele>
<time>2015-04-04T20:00:21Z</time>
</trkpt>
<trkpt lat="39.46750814" lon="-0.35612028">
<ele>90</ele>
<time>2015-04-04T20:00:23Z</time>
</trkpt>
<trkpt lat="39.46751189" lon="-0.35610424">
<ele>90</ele>
<time>2015-04-04T20:00:25Z</time>
</trkpt>
<trkpt lat="39.4675647" lon="-0.35605162">
<ele>90</ele>
<time>2015-04-04T20:00:27Z</time>
</trkpt>
<trkpt lat="39.46758073" lon="-0.35602561">
<ele>91</ele>
<time>2015-04-04T20:00:29Z</time>
</trkpt>
<trkpt lat="39.46764048" lon="-0.355997">
<ele>92</ele>
<time>2015-04-04T20:00:31Z</time>
</trkpt>
<trkpt lat="39.46770631" lon="-0.35595556">
<ele>93</ele>
<time>2015-04-04T20:00:33Z</time>
</trkpt>
<trkpt lat="39.46774724" lon="-0.35596035">
<ele>95</ele>
<time>2015-04-04T20:00:35Z</time>
</trkpt>
<trkpt lat="39.46775882" lon="-0.35594724">
<ele>96</ele>
<time>2015-04-04T20:00:37Z</time>
</trkpt>
<trkpt lat="39.46781701" lon="-0.35593116">
<ele>97</ele>
<time>2015-04-04T20:00:39Z</time>
</trkpt>
<trkpt lat="39.46785797" lon="-0.35592825">
<ele>97</ele>
<time>2015-04-04T20:00:41Z</time>
</trkpt>
<trkpt lat="39.4678859" lon="-0.35592076">
<ele>97</ele>
<time>2015-04-04T20:00:43Z</time>
</trkpt>
<trkpt lat="39.46790793" lon="-0.35590747">
<ele>98</ele>
<time>2015-04-04T20:00:45Z</time>
</trkpt>
<trkpt lat="39.46791551" lon="-0.35591108">
<ele>98</ele>
<time>2015-04-04T20:00:47Z</time>
</trkpt>
<trkpt lat="39.46793357" lon="-0.35590329">
<ele>99</ele>
<time>2015-04-04T20:00:49Z</time>
</trkpt>
<trkpt lat="39.4679357" lon="-0.35589892">
<ele>99</ele>
<time>2015-04-04T20:00:51Z</time>
</trkpt>
<trkpt lat="39.46794377" lon="-0.35589592">
<ele>100</ele>
<time>2015-04-04T20:00:53Z</time>
</trkpt>
<trkpt lat="39.46795333" lon="-0.35589201">
<ele>100</ele>
<time>2015-04-04T20:00:55Z</time>
</trkpt>
<trkpt lat="39.46795361" lon="-0.35589152">
<ele>100</ele>
<time>2015-04-04T20:00:57Z</time>
</trkpt>
<trkpt lat="39.46795448" lon="-0.3558913">
<ele>100</ele>
<time>2015-04-04T20:00:59Z</time>
</trkpt>
<trkpt lat="39.46795435" lon="-0.35589189">
<ele>101</ele>
<time>2015-04-04T20:01:01Z</time>
</trkpt>
<trkpt lat="39.46795453" lon="-0.35589262">
<ele>101</ele>
<time>2015-04-04T20:01:03Z</time>
</trkpt>
<trkpt lat="39.46795433" lon="-0.35589268">
<ele>101</ele>
<time>2015-04-04T20:01:05Z</time>
</trkpt>
<trkpt lat="39.46795941" lon="-0.3558925">
<ele>101</ele>
<time>2015-04-04T20:01:07Z</time>
</trkpt>
<trkpt lat="39.46795892" lon="-0.35589266">
<ele>101</ele>
<time>2015-04-04T20:01:09Z</time>
</trkpt>
<trkpt lat="39.46796044" lon="-0.35589233">
<ele>101</ele>
<time>2015-04-04T20:01:11Z</time>
</trkpt>
<trkpt lat="39.4679652" lon="-0.35588797">
<ele>101</ele>
<time>2015-04-04T20:01:13Z</time>
</trkpt>
<trkpt lat="39.4680969" lon="-0.35582215">
<ele>100</ele>
<time>2015-04-04T20:01:15Z</time>
</trkpt>
<trkpt lat="39.46814647" lon="-0.3557989">
<ele>99</ele>
<time>2015-04-04T20:01:17Z</time>
</trkpt>
<trkpt lat="39.46818918" lon="-0.35575836">
<ele>100</ele>
<time>2015-04-04T20:01:19Z</time>
</trkpt>
<trkpt lat="39.46820314" lon="-0.35575665">
<ele>100</ele>
<time>2015-04-04T20:01:21Z</time>
</trkpt>
<trkpt lat="39.46820366" lon="-0.35575021">
<ele>99</ele>
<time>2015-04-04T20:01:23Z</time>
</trkpt>
<trkpt lat="39.46822101" lon="-0.35574189">
<ele>100</ele>
<time>2015-04-04T20:01:25Z</time>
</trkpt>
<trkpt lat="39.46823367" lon="-0.35572523">
<ele>100</ele>
<time>2015-04-04T20:01:27Z</time>
</trkpt>
<trkpt lat="39.46830607" lon="-0.35568205">
<ele>100</ele>
<time>2015-04-04T20:01:29Z</time>
</trkpt>
<trkpt lat="39.46841725" lon="-0.35566312">
<ele>104</ele>
<time>2015-04-04T20:01:31Z</time>
</trkpt>
<trkpt lat="39.4684547" lon="-0.35565965">
<ele>104</ele>
<time>2015-04-04T20:01:33Z</time>
</trkpt>
<trkpt lat="39.46848101" lon="-0.3556439">
<ele>104</ele>
<time>2015-04-04T20:01:35Z</time>
</trkpt>
<trkpt lat="39.46851699" lon="-0.35562708">
<ele>105</ele>
<time>2015-04-04T20:01:37Z</time>
</trkpt>
<trkpt lat="39.46855815" lon="-0.3555993">
<ele>103</ele>
<time>2015-04-04T20:01:39Z</time>
</trkpt>
<trkpt lat="39.46857788" lon="-0.3555771">
<ele>102</ele>
<time>2015-04-04T20:01:41Z</time>
</trkpt>
<trkpt lat="39.46858014" lon="-0.35557659">
<ele>102</ele>
<time>2015-04-04T20:01:43Z</time>
</trkpt>
<trkpt lat="39.46857778" lon="-0.35556907">
<ele>101</ele>
<time>2015-04-04T20:01:45Z</time>
</trkpt>
<trkpt lat="39.46858143" lon="-0.35556105">
<ele>102</ele>
<time>2015-04-04T20:01:47Z</time>
</trkpt>
<trkpt lat="39.46858428" lon="-0.35556117">
<ele>102</ele>
<time>2015-04-04T20:01:49Z</time>
</trkpt>
<trkpt lat="39.46858471" lon="-0.35556007">
<ele>102</ele>
<time>2015-04-04T20:01:51Z</time>
</trkpt>
<trkpt lat="39.46859054" lon="-0.35555878">
<ele>102</ele>
<time>2015-04-04T20:01:53Z</time>
</trkpt>
<trkpt lat="39.46859067" lon="-0.35555738">
<ele>102</ele>
<time>2015-04-04T20:01:55Z</time>
</trkpt>
<trkpt lat="39.46859168" lon="-0.35555689">
<ele>102</ele>
<time>2015-04-04T20:01:57Z</time>
</trkpt>
<trkpt lat="39.46859039" lon="-0.35555703">
<ele>102</ele>
<time>2015-04-04T20:01:59Z</time>
</trkpt>
<trkpt lat="39.46859187" lon="-0.35555505">
<ele>102</ele>
<time>2015-04-04T20:02:01Z</time>
</trkpt>
<trkpt lat="39.46859637" lon="-0.35555115">
<ele>102</ele>
<time>2015-04-04T20:02:03Z</time>
</trkpt>
<trkpt lat="39.46871092" lon="-0.35550222">
<ele>101</ele>
<time>2015-04-04T20:02:05Z</time>
</trkpt>
<trkpt lat="39.46878509" lon="-0.35544958">
<ele>100</ele>
<time>2015-04-04T20:02:07Z</time>
</trkpt>
<trkpt lat="39.46880726" lon="-0.35543577">
<ele>101</ele>
<time>2015-04-04T20:02:09Z</time>
</trkpt>
<trkpt lat="39.46882526" lon="-0.35542802">
<ele>101</ele>
<time>2015-04-04T20:02:11Z</time>
</trkpt>
<trkpt lat="39.46887664" lon="-0.35542328">
<ele>102</ele>
<time>2015-04-04T20:02:13Z</time>
</trkpt>
<trkpt lat="39.46897503" lon="-0.3554078">
<ele>103</ele>
<time>2015-04-04T20:02:15Z</time>
</trkpt>
<trkpt lat="39.46897458" lon="-0.3553955">
<ele>102</ele>
<time>2015-04-04T20:02:17Z</time>
</trkpt>
<trkpt lat="39.46898679" lon="-0.35537336">
<ele>104</ele>
<time>2015-04-04T20:02:19Z</time>
</trkpt>
<trkpt lat="39.46904495" lon="-0.35536729">
<ele>105</ele>
<time>2015-04-04T20:02:21Z</time>
</trkpt>
<trkpt lat="39.46906232" lon="-0.35536003">
<ele>106</ele>
<time>2015-04-04T20:02:23Z</time>
</trkpt>
<trkpt lat="39.46907115" lon="-0.35536091">
<ele>106</ele>
<time>2015-04-04T20:02:25Z</time>
</trkpt>
<trkpt lat="39.46910449" lon="-0.35535197">
<ele>108</ele>
<time>2015-04-04T20:02:27Z</time>
</trkpt>
<trkpt lat="39.46919761" lon="-0.35543864">
<ele>104</ele>
<time>2015-04-04T20:02:29Z</time>
</trkpt>
<trkpt lat="39.46922748" lon="-0.35546927">
<ele>103</ele>
<time>2015-04-04T20:02:31Z</time>
</trkpt>
<trkpt lat="39.46926519" lon="-0.35551105">
<ele>101</ele>
<time>2015-04-04T20:02:33Z</time>
</trkpt>
<trkpt lat="39.46928087" lon="-0.35552456">
<ele>100</ele>
<time>2015-04-04T20:02:35Z</time>
</trkpt>
<trkpt lat="39.46928366" lon="-0.35552686">
<ele>100</ele>
<time>2015-04-04T20:02:37Z</time>
</trkpt>
<trkpt lat="39.46928827" lon="-0.35552722">
<ele>100</ele>
<time>2015-04-04T20:02:39Z</time>
</trkpt>
<trkpt lat="39.46933069" lon="-0.35551054">
<ele>100</ele>
<time>2015-04-04T20:02:41Z</time>
</trkpt>
<trkpt lat="39.46934274" lon="-0.35548532">
<ele>97</ele>
<time>2015-04-04T20:02:43Z</time>
</trkpt>
<trkpt lat="39.46935119" lon="-0.35547737">
<ele>96</ele>
<time>2015-04-04T20:02:45Z</time>
</trkpt>
<trkpt lat="39.46936896" lon="-0.35546261">
<ele>96</ele>
<time>2015-04-04T20:02:47Z</time>
</trkpt>
<trkpt lat="39.4693699" lon="-0.35544602">
<ele>97</ele>
<time>2015-04-04T20:02:49Z</time>
</trkpt>
<trkpt lat="39.4693852" lon="-0.35543752">
<ele>96</ele>
<time>2015-04-04T20:02:51Z</time>
</trkpt>
<trkpt lat="39.46938912" lon="-0.35542411">
<ele>95</ele>
<time>2015-04-04T20:02:53Z</time>
</trkpt>
<trkpt lat="39.46939528" lon="-0.3554176">
<ele>96</ele>
<time>2015-04-04T20:02:55Z</time>
</trkpt>
<trkpt lat="39.46943155" lon="-0.35536514">
<ele>96</ele>
<time>2015-04-04T20:02:57Z</time>
</trkpt>
<trkpt lat="39.46946543" lon="-0.35532873">
<ele>95</ele>
<time>2015-04-04T20:02:59Z</time>
</trkpt>
<trkpt lat="39.46947515" lon="-0.35528183">
<ele>96</ele>
<time>2015-04-04T20:03:01Z</time>
</trkpt>
<trkpt lat="39.46950714" lon="-0.35524433">
<ele>98</ele>
<time>2015-04-04T20:03:03Z</time>
</trkpt>
<trkpt lat="39.4695519" lon="-0.35522685">
<ele>100</ele>
<time>2015-04-04T20:03:05Z</time>
</trkpt>
<trkpt lat="39.46955905" lon="-0.35519645">
<ele>98</ele>
<time>2015-04-04T20:03:07Z</time>
</trkpt>
<trkpt lat="39.46954972" lon="-0.35517441">
<ele>98</ele>
<time>2015-04-04T20:03:09Z</time>
</trkpt>
<trkpt lat="39.46956337" lon="-0.35514181">
<ele>98</ele>
<time>2015-04-04T20:03:11Z</time>
</trkpt>
<trkpt lat="39.46959455" lon="-0.35511443">
<ele>98</ele>
<time>2015-04-04T20:03:13Z</time>
</trkpt>
<trkpt lat="39.4696023" lon="-0.35511887">
<ele>98</ele>
<time>2015-04-04T20:03:15Z</time>
</trkpt>
<trkpt lat="39.46963153" lon="-0.35511035">
<ele>98</ele>
<time>2015-04-04T20:03:17Z</time>
</trkpt>
<trkpt lat="39.46965629" lon="-0.35508776">
<ele>100</ele>
<time>2015-04-04T20:03:19Z</time>
</trkpt>
<trkpt lat="39.46969729" lon="-0.35507741">
<ele>102</ele>
<time>2015-04-04T20:03:21Z</time>
</trkpt>
<trkpt lat="39.46970244" lon="-0.35505864">
<ele>101</ele>
<time>2015-04-04T20:03:23Z</time>
</trkpt>
<trkpt lat="39.46971215" lon="-0.35502706">
<ele>102</ele>
<time>2015-04-04T20:03:25Z</time>
</trkpt>
<trkpt lat="39.46972608" lon="-0.35503584">
<ele>102</ele>
<time>2015-04-04T20:03:27Z</time>
</trkpt>
<trkpt lat="39.46972772" lon="-0.35502512">
<ele>102</ele>
<time>2015-04-04T20:03:29Z</time>
</trkpt>
<trkpt lat="39.4697264" lon="-0.35501149">
<ele>102</ele>
<time>2015-04-04T20:03:31Z</time>
</trkpt>
<trkpt lat="39.46972857" lon="-0.3550157">
<ele>102</ele>
<time>2015-04-04T20:03:33Z</time>
</trkpt>
<trkpt lat="39.46974468" lon="-0.35500516">
<ele>103</ele>
<time>2015-04-04T20:03:35Z</time>
</trkpt>
<trkpt lat="39.4697489" lon="-0.35500384">
<ele>103</ele>
<time>2015-04-04T20:03:37Z</time>
</trkpt>
<trkpt lat="39.46975325" lon="-0.35500203">
<ele>103</ele>
<time>2015-04-04T20:03:39Z</time>
</trkpt>
<trkpt lat="39.46976388" lon="-0.35499799">
<ele>104</ele>
<time>2015-04-04T20:03:41Z</time>
</trkpt>
<trkpt lat="39.4697757" lon="-0.35499337">
<ele>104</ele>
<time>2015-04-04T20:03:43Z</time>
</trkpt>
<trkpt lat="39.46979089" lon="-0.35498457">
<ele>105</ele>
<time>2015-04-04T20:03:45Z</time>
</trkpt>
<trkpt lat="39.46981164" lon="-0.35497503">
<ele>107</ele>
<time>2015-04-04T20:03:47Z</time>
</trkpt>
<trkpt lat="39.46981506" lon="-0.35497261">
<ele>107</ele>
<time>2015-04-04T20:03:49Z</time>
</trkpt>
<trkpt lat="39.46981439" lon="-0.35497238">
<ele>107</ele>
<time>2015-04-04T20:03:51Z</time>
</trkpt>
<trkpt lat="39.4698131" lon="-0.35497241">
<ele>107</ele>
<time>2015-04-04T20:03:53Z</time>
</trkpt>
<trkpt lat="39.46981326" lon="-0.35497238">
<ele>107</ele>
<time>2015-04-04T20:03:55Z</time>
</trkpt>
<trkpt lat="39.46982116" lon="-0.35494131">
<ele>105</ele>
<time>2015-04-04T20:03:57Z</time>
</trkpt>
<trkpt lat="39.46989091" lon="-0.35491441">
<ele>102</ele>
<time>2015-04-04T20:03:59Z</time>
</trkpt>
<trkpt lat="39.46994171" lon="-0.35489863">
<ele>100</ele>
<time>2015-04-04T20:04:01Z</time>
</trkpt>
<trkpt lat="39.46998656" lon="-0.35487688">
<ele>97</ele>
<time>2015-04-04T20:04:03Z</time>
</trkpt>
<trkpt lat="39.47000806" lon="-0.35485605">
<ele>99</ele>
<time>2015-04-04T20:04:05Z</time>
</trkpt>
<trkpt lat="39.47004645" lon="-0.35485027">
<ele>100</ele>
<time>2015-04-04T20:04:07Z</time>
</trkpt>
<trkpt lat="39.47009175" lon="-0.35483517">
<ele>101</ele>
<time>2015-04-04T20:04:09Z</time>
</trkpt>
<trkpt lat="39.47010527" lon="-0.35482396">
<ele>102</ele>
<time>2015-04-04T20:04:11Z</time>
</trkpt>
<trkpt lat="39.4701354" lon="-0.35481725">
<ele>103</ele>
<time>2015-04-04T20:04:13Z</time>
</trkpt>
<trkpt lat="39.47015216" lon="-0.35481471">
<ele>104</ele>
<time>2015-04-04T20:04:15Z</time>
</trkpt>
<trkpt lat="39.47016021" lon="-0.35481375">
<ele>104</ele>
<time>2015-04-04T20:04:17Z</time>
</trkpt>
<trkpt lat="39.47016183" lon="-0.35481377">
<ele>104</ele>
<time>2015-04-04T20:04:19Z</time>
</trkpt>
<trkpt lat="39.47016071" lon="-0.35481399">
<ele>104</ele>
<time>2015-04-04T20:04:21Z</time>
</trkpt>
<trkpt lat="39.47016093" lon="-0.35481413">
<ele>104</ele>
<time>2015-04-04T20:04:23Z</time>
</trkpt>
<trkpt lat="39.47016162" lon="-0.35481418">
<ele>104</ele>
<time>2015-04-04T20:04:25Z</time>
</trkpt>
<trkpt lat="39.47016148" lon="-0.35481423">
<ele>104</ele>
<time>2015-04-04T20:04:27Z</time>
</trkpt>
<trkpt lat="39.47019062" lon="-0.35479748">
<ele>105</ele>
<time>2015-04-04T20:04:29Z</time>
</trkpt>
<trkpt lat="39.47019907" lon="-0.35478537">
<ele>105</ele>
<time>2015-04-04T20:04:31Z</time>
</trkpt>
<trkpt lat="39.47022584" lon="-0.35476854">
<ele>106</ele>
<time>2015-04-04T20:04:33Z</time>
</trkpt>
<trkpt lat="39.47022892" lon="-0.35477022">
<ele>105</ele>
<time>2015-04-04T20:04:35Z</time>
</trkpt>
<trkpt lat="39.4702585" lon="-0.35478107">
<ele>105</ele>
<time>2015-04-04T20:04:37Z</time>
</trkpt>
<trkpt lat="39.4702754" lon="-0.3547771">
<ele>105</ele>
<time>2015-04-04T20:04:39Z</time>
</trkpt>
<trkpt lat="39.470283" lon="-0.35477604">
<ele>106</ele>
<time>2015-04-04T20:04:41Z</time>
</trkpt>
<trkpt lat="39.47028484" lon="-0.35477601">
<ele>106</ele>
<time>2015-04-04T20:04:43Z</time>
</trkpt>
<trkpt lat="39.47028662" lon="-0.35477569">
<ele>106</ele>
<time>2015-04-04T20:04:45Z</time>
</trkpt>
<trkpt lat="39.47028668" lon="-0.35477574">
<ele>106</ele>
<time>2015-04-04T20:04:47Z</time>
</trkpt>
<trkpt lat="39.47028669" lon="-0.35477574">
<ele>106</ele>
<time>2015-04-04T20:04:49Z</time>
</trkpt>
<trkpt lat="39.47028698" lon="-0.35477561">
<ele>106</ele>
<time>2015-04-04T20:04:51Z</time>
</trkpt>
<trkpt lat="39.47028285" lon="-0.35477715">
<ele>106</ele>
<time>2015-04-04T20:04:53Z</time>
</trkpt>
<trkpt lat="39.47028284" lon="-0.35477715">
<ele>106</ele>
<time>2015-04-04T20:04:55Z</time>
</trkpt>
<trkpt lat="39.47028298" lon="-0.35477714">
<ele>106</ele>
<time>2015-04-04T20:04:57Z</time>
</trkpt>
<trkpt lat="39.47028288" lon="-0.3547772">
<ele>106</ele>
<time>2015-04-04T20:04:59Z</time>
</trkpt>
<trkpt lat="39.47028285" lon="-0.35477721">
<ele>106</ele>
<time>2015-04-04T20:05:01Z</time>
</trkpt>
<trkpt lat="39.4702828" lon="-0.35477724">
<ele>106</ele>
<time>2015-04-04T20:05:03Z</time>
</trkpt>
<trkpt lat="39.47028268" lon="-0.35477729">
<ele>106</ele>
<time>2015-04-04T20:05:05Z</time>
</trkpt>
<trkpt lat="39.47028259" lon="-0.35477734">
<ele>106</ele>
<time>2015-04-04T20:05:07Z</time>
</trkpt>
<trkpt lat="39.47028247" lon="-0.35477741">
<ele>106</ele>
<time>2015-04-04T20:05:09Z</time>
</trkpt>
<trkpt lat="39.4702822" lon="-0.35477754">
<ele>106</ele>
<time>2015-04-04T20:05:11Z</time>
</trkpt>
<trkpt lat="39.47028154" lon="-0.35477782">
<ele>106</ele>
<time>2015-04-04T20:05:13Z</time>
</trkpt>
<trkpt lat="39.47024109" lon="-0.35484248">
<ele>105</ele>
<time>2015-04-04T20:05:15Z</time>
</trkpt>
<trkpt lat="39.47020929" lon="-0.35496835">
<ele>102</ele>
<time>2015-04-04T20:05:17Z</time>
</trkpt>
<trkpt lat="39.47015931" lon="-0.35503401">
<ele>102</ele>
<time>2015-04-04T20:05:19Z</time>
</trkpt>
<trkpt lat="39.47013121" lon="-0.3550946">
<ele>104</ele>
<time>2015-04-04T20:05:21Z</time>
</trkpt>
<trkpt lat="39.47012664" lon="-0.35515715">
<ele>105</ele>
<time>2015-04-04T20:05:23Z</time>
</trkpt>
<trkpt lat="39.47012688" lon="-0.35520788">
<ele>103</ele>
<time>2015-04-04T20:05:25Z</time>
</trkpt>
<trkpt lat="39.4701098" lon="-0.35522808">
<ele>102</ele>
<time>2015-04-04T20:05:27Z</time>
</trkpt>
<trkpt lat="39.47005792" lon="-0.3552528">
<ele>104</ele>
<time>2015-04-04T20:05:29Z</time>
</trkpt>
<trkpt lat="39.47001304" lon="-0.35527915">
<ele>105</ele>
<time>2015-04-04T20:05:31Z</time>
</trkpt>
<trkpt lat="39.46998234" lon="-0.35529778">
<ele>105</ele>
<time>2015-04-04T20:05:33Z</time>
</trkpt>
<trkpt lat="39.46994753" lon="-0.35532">
<ele>107</ele>
<time>2015-04-04T20:05:35Z</time>
</trkpt>
<trkpt lat="39.46992049" lon="-0.35534046">
<ele>107</ele>
<time>2015-04-04T20:05:37Z</time>
</trkpt>
<trkpt lat="39.46986973" lon="-0.35535476">
<ele>108</ele>
<time>2015-04-04T20:05:39Z</time>
</trkpt>
<trkpt lat="39.46982956" lon="-0.35536415">
<ele>108</ele>
<time>2015-04-04T20:05:41Z</time>
</trkpt>
<trkpt lat="39.46981023" lon="-0.35537661">
<ele>108</ele>
<time>2015-04-04T20:05:43Z</time>
</trkpt>
<trkpt lat="39.46977959" lon="-0.35537846">
<ele>108</ele>
<time>2015-04-04T20:05:45Z</time>
</trkpt>
<trkpt lat="39.46976054" lon="-0.35539725">
<ele>108</ele>
<time>2015-04-04T20:05:47Z</time>
</trkpt>
<trkpt lat="39.46972068" lon="-0.3554093">
<ele>108</ele>
<time>2015-04-04T20:05:49Z</time>
</trkpt>
<trkpt lat="39.46969915" lon="-0.35542547">
<ele>109</ele>
<time>2015-04-04T20:05:51Z</time>
</trkpt>
<trkpt lat="39.46970218" lon="-0.35545027">
<ele>108</ele>
<time>2015-04-04T20:05:53Z</time>
</trkpt>
<trkpt lat="39.46966369" lon="-0.35544364">
<ele>109</ele>
<time>2015-04-04T20:05:55Z</time>
</trkpt>
<trkpt lat="39.4696527" lon="-0.35546566">
<ele>109</ele>
<time>2015-04-04T20:05:57Z</time>
</trkpt>
<trkpt lat="39.46961329" lon="-0.35548214">
<ele>109</ele>
<time>2015-04-04T20:05:59Z</time>
</trkpt>
<trkpt lat="39.46954213" lon="-0.35545751">
<ele>107</ele>
<time>2015-04-04T20:06:01Z</time>
</trkpt>
<trkpt lat="39.46945355" lon="-0.35540399">
<ele>108</ele>
<time>2015-04-04T20:06:03Z</time>
</trkpt>
<trkpt lat="39.46943623" lon="-0.35537735">
<ele>106</ele>
<time>2015-04-04T20:06:05Z</time>
</trkpt>
<trkpt lat="39.46939224" lon="-0.35531935">
<ele>106</ele>
<time>2015-04-04T20:06:07Z</time>
</trkpt>
<trkpt lat="39.46936436" lon="-0.35529546">
<ele>105</ele>
<time>2015-04-04T20:06:09Z</time>
</trkpt>
<trkpt lat="39.46929282" lon="-0.35527604">
<ele>103</ele>
<time>2015-04-04T20:06:11Z</time>
</trkpt>
<trkpt lat="39.46928365" lon="-0.35526307">
<ele>103</ele>
<time>2015-04-04T20:06:13Z</time>
</trkpt>
<trkpt lat="39.46928071" lon="-0.35523592">
<ele>102</ele>
<time>2015-04-04T20:06:15Z</time>
</trkpt>
<trkpt lat="39.46928734" lon="-0.35522093">
<ele>101</ele>
<time>2015-04-04T20:06:17Z</time>
</trkpt>
<trkpt lat="39.46928915" lon="-0.35521145">
<ele>100</ele>
<time>2015-04-04T20:06:19Z</time>
</trkpt>
<trkpt lat="39.46927203" lon="-0.35517408">
<ele>99</ele>
<time>2015-04-04T20:06:21Z</time>
</trkpt>
<trkpt lat="39.46926169" lon="-0.35516173">
<ele>99</ele>
<time>2015-04-04T20:06:23Z</time>
</trkpt>
<trkpt lat="39.46926974" lon="-0.35514913">
<ele>98</ele>
<time>2015-04-04T20:06:25Z</time>
</trkpt>
<trkpt lat="39.46927373" lon="-0.35515077">
<ele>96</ele>
<time>2015-04-04T20:06:27Z</time>
</trkpt>
<trkpt lat="39.4693026" lon="-0.35515045">
<ele>96</ele>
<time>2015-04-04T20:06:29Z</time>
</trkpt>
<trkpt lat="39.46930283" lon="-0.35515052">
<ele>95</ele>
<time>2015-04-04T20:06:31Z</time>
</trkpt>
<trkpt lat="39.46931865" lon="-0.35516449">
<ele>95</ele>
<time>2015-04-04T20:06:33Z</time>
</trkpt>
<trkpt lat="39.46935272" lon="-0.35516714">
<ele>94</ele>
<time>2015-04-04T20:06:35Z</time>
</trkpt>
<trkpt lat="39.46939653" lon="-0.35513032">
<ele>94</ele>
<time>2015-04-04T20:06:37Z</time>
</trkpt>
<trkpt lat="39.46939303" lon="-0.35506812">
<ele>93</ele>
<time>2015-04-04T20:06:39Z</time>
</trkpt>
<trkpt lat="39.4693796" lon="-0.35505285">
<ele>92</ele>
<time>2015-04-04T20:06:41Z</time>
</trkpt>
<trkpt lat="39.46937961" lon="-0.3550266">
<ele>91</ele>
<time>2015-04-04T20:06:43Z</time>
</trkpt>
<trkpt lat="39.46928982" lon="-0.35497755">
<ele>91</ele>
<time>2015-04-04T20:06:45Z</time>
</trkpt>
<trkpt lat="39.46924576" lon="-0.35494594">
<ele>91</ele>
<time>2015-04-04T20:06:47Z</time>
</trkpt>
<trkpt lat="39.46921684" lon="-0.35488405">
<ele>91</ele>
<time>2015-04-04T20:06:49Z</time>
</trkpt>
<trkpt lat="39.46911335" lon="-0.35473365">
<ele>93</ele>
<time>2015-04-04T20:06:51Z</time>
</trkpt>
<trkpt lat="39.46909023" lon="-0.35469377">
<ele>93</ele>
<time>2015-04-04T20:06:53Z</time>
</trkpt>
<trkpt lat="39.46912127" lon="-0.35465115">
<ele>95</ele>
<time>2015-04-04T20:06:55Z</time>
</trkpt>
<trkpt lat="39.46911174" lon="-0.35462684">
<ele>95</ele>
<time>2015-04-04T20:06:57Z</time>
</trkpt>
<trkpt lat="39.46909297" lon="-0.35461211">
<ele>95</ele>
<time>2015-04-04T20:06:59Z</time>
</trkpt>
<trkpt lat="39.46910359" lon="-0.3546084">
<ele>95</ele>
<time>2015-04-04T20:07:01Z</time>
</trkpt>
<trkpt lat="39.46910729" lon="-0.35457875">
<ele>94</ele>
<time>2015-04-04T20:07:03Z</time>
</trkpt>
<trkpt lat="39.46907221" lon="-0.35453112">
<ele>93</ele>
<time>2015-04-04T20:07:05Z</time>
</trkpt>
<trkpt lat="39.46909841" lon="-0.35450906">
<ele>94</ele>
<time>2015-04-04T20:07:07Z</time>
</trkpt>
<trkpt lat="39.4690082" lon="-0.35443346">
<ele>95</ele>
<time>2015-04-04T20:07:09Z</time>
</trkpt>
<trkpt lat="39.46897916" lon="-0.3544029">
<ele>95</ele>
<time>2015-04-04T20:07:11Z</time>
</trkpt>
<trkpt lat="39.46901044" lon="-0.35439355">
<ele>96</ele>
<time>2015-04-04T20:07:13Z</time>
</trkpt>
<trkpt lat="39.46903004" lon="-0.35438331">
<ele>96</ele>
<time>2015-04-04T20:07:15Z</time>
</trkpt>
<trkpt lat="39.4690434" lon="-0.35437734">
<ele>97</ele>
<time>2015-04-04T20:07:17Z</time>
</trkpt>
<trkpt lat="39.4690473" lon="-0.3543841">
<ele>98</ele>
<time>2015-04-04T20:07:19Z</time>
</trkpt>
<trkpt lat="39.46906025" lon="-0.35437491">
<ele>97</ele>
<time>2015-04-04T20:07:21Z</time>
</trkpt>
<trkpt lat="39.46903688" lon="-0.35435217">
<ele>97</ele>
<time>2015-04-04T20:07:23Z</time>
</trkpt>
<trkpt lat="39.46904253" lon="-0.35432068">
<ele>98</ele>
<time>2015-04-04T20:07:25Z</time>
</trkpt>
<trkpt lat="39.46906453" lon="-0.35427046">
<ele>98</ele>
<time>2015-04-04T20:07:27Z</time>
</trkpt>
<trkpt lat="39.46906822" lon="-0.35423317">
<ele>97</ele>
<time>2015-04-04T20:07:29Z</time>
</trkpt>
<trkpt lat="39.46904695" lon="-0.35420201">
<ele>97</ele>
<time>2015-04-04T20:07:31Z</time>
</trkpt>
<trkpt lat="39.46897173" lon="-0.35413577">
<ele>96</ele>
<time>2015-04-04T20:07:33Z</time>
</trkpt>
<trkpt lat="39.46896028" lon="-0.35410755">
<ele>95</ele>
<time>2015-04-04T20:07:35Z</time>
</trkpt>
<trkpt lat="39.46897612" lon="-0.3540861">
<ele>95</ele>
<time>2015-04-04T20:07:37Z</time>
</trkpt>
<trkpt lat="39.46899127" lon="-0.3540884">
<ele>95</ele>
<time>2015-04-04T20:07:39Z</time>
</trkpt>
<trkpt lat="39.46900138" lon="-0.3540752">
<ele>95</ele>
<time>2015-04-04T20:07:41Z</time>
</trkpt>
<trkpt lat="39.46901358" lon="-0.35402523">
<ele>94</ele>
<time>2015-04-04T20:07:43Z</time>
</trkpt>
<trkpt lat="39.46900695" lon="-0.35400721">
<ele>94</ele>
<time>2015-04-04T20:07:45Z</time>
</trkpt>
<trkpt lat="39.46892112" lon="-0.35393032">
<ele>92</ele>
<time>2015-04-04T20:07:47Z</time>
</trkpt>
<trkpt lat="39.4688924" lon="-0.35388998">
<ele>92</ele>
<time>2015-04-04T20:07:49Z</time>
</trkpt>
<trkpt lat="39.46885611" lon="-0.35386588">
<ele>92</ele>
<time>2015-04-04T20:07:51Z</time>
</trkpt>
<trkpt lat="39.46882649" lon="-0.35383135">
<ele>92</ele>
<time>2015-04-04T20:07:53Z</time>
</trkpt>
<trkpt lat="39.46879201" lon="-0.35380645">
<ele>92</ele>
<time>2015-04-04T20:07:55Z</time>
</trkpt>
<trkpt lat="39.46881" lon="-0.35378803">
<ele>91</ele>
<time>2015-04-04T20:07:57Z</time>
</trkpt>
<trkpt lat="39.46882322" lon="-0.35373497">
<ele>91</ele>
<time>2015-04-04T20:07:59Z</time>
</trkpt>
<trkpt lat="39.46881729" lon="-0.35373698">
<ele>91</ele>
<time>2015-04-04T20:08:01Z</time>
</trkpt>
<trkpt lat="39.46883106" lon="-0.35371759">
<ele>90</ele>
<time>2015-04-04T20:08:03Z</time>
</trkpt>
<trkpt lat="39.46883905" lon="-0.35371326">
<ele>90</ele>
<time>2015-04-04T20:08:05Z</time>
</trkpt>
<trkpt lat="39.46881938" lon="-0.3537003">
<ele>90</ele>
<time>2015-04-04T20:08:07Z</time>
</trkpt>
<trkpt lat="39.46879746" lon="-0.35363195">
<ele>90</ele>
<time>2015-04-04T20:08:09Z</time>
</trkpt>
<trkpt lat="39.46878601" lon="-0.3535891">
<ele>89</ele>
<time>2015-04-04T20:08:11Z</time>
</trkpt>
<trkpt lat="39.46878526" lon="-0.35355696">
<ele>89</ele>
<time>2015-04-04T20:08:13Z</time>
</trkpt>
<trkpt lat="39.46874829" lon="-0.35350672">
<ele>90</ele>
<time>2015-04-04T20:08:15Z</time>
</trkpt>
<trkpt lat="39.46874486" lon="-0.35348699">
<ele>88</ele>
<time>2015-04-04T20:08:17Z</time>
</trkpt>
<trkpt lat="39.46875481" lon="-0.3534542">
<ele>88</ele>
<time>2015-04-04T20:08:19Z</time>
</trkpt>
<trkpt lat="39.46875207" lon="-0.35344179">
<ele>89</ele>
<time>2015-04-04T20:08:21Z</time>
</trkpt>
<trkpt lat="39.46872855" lon="-0.35341575">
<ele>88</ele>
<time>2015-04-04T20:08:23Z</time>
</trkpt>
<trkpt lat="39.46870103" lon="-0.35340113">
<ele>88</ele>
<time>2015-04-04T20:08:25Z</time>
</trkpt>
<trkpt lat="39.46869192" lon="-0.35336892">
<ele>88</ele>
<time>2015-04-04T20:08:27Z</time>
</trkpt>
<trkpt lat="39.46863767" lon="-0.35332186">
<ele>88</ele>
<time>2015-04-04T20:08:29Z</time>
</trkpt>
<trkpt lat="39.46860342" lon="-0.35328785">
<ele>87</ele>
<time>2015-04-04T20:08:31Z</time>
</trkpt>
<trkpt lat="39.46856085" lon="-0.35323633">
<ele>86</ele>
<time>2015-04-04T20:08:33Z</time>
</trkpt>
<trkpt lat="39.46856045" lon="-0.3532214">
<ele>86</ele>
<time>2015-04-04T20:08:35Z</time>
</trkpt>
<trkpt lat="39.46856842" lon="-0.35318681">
<ele>85</ele>
<time>2015-04-04T20:08:37Z</time>
</trkpt>
<trkpt lat="39.4685503" lon="-0.35316616">
<ele>86</ele>
<time>2015-04-04T20:08:39Z</time>
</trkpt>
<trkpt lat="39.46855877" lon="-0.35313332">
<ele>86</ele>
<time>2015-04-04T20:08:41Z</time>
</trkpt>
<trkpt lat="39.46854815" lon="-0.35310517">
<ele>86</ele>
<time>2015-04-04T20:08:43Z</time>
</trkpt>
<trkpt lat="39.46857301" lon="-0.35306585">
<ele>86</ele>
<time>2015-04-04T20:08:45Z</time>
</trkpt>
<trkpt lat="39.46857212" lon="-0.35305277">
<ele>86</ele>
<time>2015-04-04T20:08:47Z</time>
</trkpt>
<trkpt lat="39.46858353" lon="-0.35304189">
<ele>86</ele>
<time>2015-04-04T20:08:49Z</time>
</trkpt>
<trkpt lat="39.46859402" lon="-0.35300243">
<ele>86</ele>
<time>2015-04-04T20:08:51Z</time>
</trkpt>
<trkpt lat="39.46858434" lon="-0.35299787">
<ele>85</ele>
<time>2015-04-04T20:08:53Z</time>
</trkpt>
<trkpt lat="39.46856309" lon="-0.35296956">
<ele>86</ele>
<time>2015-04-04T20:08:55Z</time>
</trkpt>
<trkpt lat="39.46855027" lon="-0.35293238">
<ele>87</ele>
<time>2015-04-04T20:08:57Z</time>
</trkpt>
<trkpt lat="39.46852394" lon="-0.35291867">
<ele>87</ele>
<time>2015-04-04T20:08:59Z</time>
</trkpt>
<trkpt lat="39.46850152" lon="-0.35287092">
<ele>85</ele>
<time>2015-04-04T20:09:01Z</time>
</trkpt>
<trkpt lat="39.46849673" lon="-0.35285413">
<ele>85</ele>
<time>2015-04-04T20:09:03Z</time>
</trkpt>
<trkpt lat="39.46850439" lon="-0.35285837">
<ele>85</ele>
<time>2015-04-04T20:09:05Z</time>
</trkpt>
<trkpt lat="39.4685021" lon="-0.35282978">
<ele>85</ele>
<time>2015-04-04T20:09:07Z</time>
</trkpt>
<trkpt lat="39.46850888" lon="-0.35281805">
<ele>84</ele>
<time>2015-04-04T20:09:09Z</time>
</trkpt>
<trkpt lat="39.46849397" lon="-0.35278586">
<ele>85</ele>
<time>2015-04-04T20:09:11Z</time>
</trkpt>
<trkpt lat="39.46851528" lon="-0.35276815">
<ele>84</ele>
<time>2015-04-04T20:09:13Z</time>
</trkpt>
<trkpt lat="39.46852417" lon="-0.35275819">
<ele>84</ele>
<time>2015-04-04T20:09:15Z</time>
</trkpt>
<trkpt lat="39.46853251" lon="-0.3527431">
<ele>84</ele>
<time>2015-04-04T20:09:17Z</time>
</trkpt>
<trkpt lat="39.46852677" lon="-0.35273973">
<ele>84</ele>
<time>2015-04-04T20:09:19Z</time>
</trkpt>
<trkpt lat="39.46853136" lon="-0.35273058">
<ele>84</ele>
<time>2015-04-04T20:09:21Z</time>
</trkpt>
<trkpt lat="39.4685346" lon="-0.35272423">
<ele>84</ele>
<time>2015-04-04T20:09:23Z</time>
</trkpt>
<trkpt lat="39.46869531" lon="-0.35255018">
<ele>72</ele>
<time>2015-04-04T20:10:36Z</time>
</trkpt>
<trkpt lat="39.46869505" lon="-0.35255932">
<ele>71</ele>
<time>2015-04-04T20:10:37Z</time>
</trkpt>
<trkpt lat="39.46871144" lon="-0.35258387">
<ele>70</ele>
<time>2015-04-04T20:10:39Z</time>
</trkpt>
<trkpt lat="39.46873858" lon="-0.35260589">
<ele>68</ele>
<time>2015-04-04T20:10:41Z</time>
</trkpt>
<trkpt lat="39.46873478" lon="-0.35258897">
<ele>66</ele>
<time>2015-04-04T20:10:43Z</time>
</trkpt>
<trkpt lat="39.46875118" lon="-0.35258561">
<ele>66</ele>
<time>2015-04-04T20:10:45Z</time>
</trkpt>
<trkpt lat="39.46872949" lon="-0.35257908">
<ele>65</ele>
<time>2015-04-04T20:10:47Z</time>
</trkpt>
<trkpt lat="39.4687258" lon="-0.35256964">
<ele>67</ele>
<time>2015-04-04T20:10:49Z</time>
</trkpt>
<trkpt lat="39.46873382" lon="-0.35256996">
<ele>66</ele>
<time>2015-04-04T20:10:51Z</time>
</trkpt>
<trkpt lat="39.46873035" lon="-0.35251567">
<ele>66</ele>
<time>2015-04-04T20:10:53Z</time>
</trkpt>
<trkpt lat="39.46873367" lon="-0.35250396">
<ele>65</ele>
<time>2015-04-04T20:10:55Z</time>
</trkpt>
<trkpt lat="39.46873085" lon="-0.35250199">
<ele>65</ele>
<time>2015-04-04T20:10:57Z</time>
</trkpt>
<trkpt lat="39.46872681" lon="-0.3525048">
<ele>65</ele>
<time>2015-04-04T20:10:59Z</time>
</trkpt>
<trkpt lat="39.46873116" lon="-0.3525076">
<ele>65</ele>
<time>2015-04-04T20:11:01Z</time>
</trkpt>
<trkpt lat="39.4687365" lon="-0.35250676">
<ele>65</ele>
<time>2015-04-04T20:11:03Z</time>
</trkpt>
<trkpt lat="39.46873709" lon="-0.35250703">
<ele>65</ele>
<time>2015-04-04T20:11:05Z</time>
</trkpt>
<trkpt lat="39.46873639" lon="-0.35250805">
<ele>65</ele>
<time>2015-04-04T20:11:07Z</time>
</trkpt>
<trkpt lat="39.46873628" lon="-0.35250772">
<ele>65</ele>
<time>2015-04-04T20:11:09Z</time>
</trkpt>
<trkpt lat="39.4687351" lon="-0.35250638">
<ele>65</ele>
<time>2015-04-04T20:11:11Z</time>
</trkpt>
<trkpt lat="39.46873564" lon="-0.35250621">
<ele>65</ele>
<time>2015-04-04T20:11:13Z</time>
</trkpt>
<trkpt lat="39.46873501" lon="-0.35250598">
<ele>65</ele>
<time>2015-04-04T20:11:15Z</time>
</trkpt>
<trkpt lat="39.46873429" lon="-0.35250638">
<ele>65</ele>
<time>2015-04-04T20:11:17Z</time>
</trkpt>
<trkpt lat="39.4687353" lon="-0.35250591">
<ele>65</ele>
<time>2015-04-04T20:11:19Z</time>
</trkpt>
<trkpt lat="39.46873537" lon="-0.35250573">
<ele>65</ele>
<time>2015-04-04T20:11:21Z</time>
</trkpt>
<trkpt lat="39.46873567" lon="-0.35250507">
<ele>65</ele>
<time>2015-04-04T20:11:23Z</time>
</trkpt>
<trkpt lat="39.46873567" lon="-0.35250507">
<ele>65</ele>
<time>2015-04-04T20:11:25Z</time>
</trkpt>
<trkpt lat="39.46873567" lon="-0.35250507">
<ele>65</ele>
<time>2015-04-04T20:11:27Z</time>
</trkpt>
<trkpt lat="39.46873303" lon="-0.35250775">
<ele>65</ele>
<time>2015-04-04T20:13:11Z</time>
</trkpt>
<trkpt lat="39.46873303" lon="-0.35250764">
<ele>65</ele>
<time>2015-04-04T20:13:12Z</time>
</trkpt>
<trkpt lat="39.4687324" lon="-0.35250746">
<ele>65</ele>
<time>2015-04-04T20:13:14Z</time>
</trkpt>
<trkpt lat="39.46873268" lon="-0.35250758">
<ele>65</ele>
<time>2015-04-04T20:13:16Z</time>
</trkpt>
<trkpt lat="39.46873293" lon="-0.35250753">
<ele>65</ele>
<time>2015-04-04T20:13:18Z</time>
</trkpt>
<trkpt lat="39.4687353" lon="-0.35250685">
<ele>66</ele>
<time>2015-04-04T20:13:20Z</time>
</trkpt>
<trkpt lat="39.46873672" lon="-0.35250648">
<ele>66</ele>
<time>2015-04-04T20:13:22Z</time>
</trkpt>
<trkpt lat="39.46873721" lon="-0.35250662">
<ele>66</ele>
<time>2015-04-04T20:13:24Z</time>
</trkpt>
<trkpt lat="39.46873833" lon="-0.3525059">
<ele>66</ele>
<time>2015-04-04T20:13:26Z</time>
</trkpt>
<trkpt lat="39.46873769" lon="-0.3525062">
<ele>66</ele>
<time>2015-04-04T20:13:28Z</time>
</trkpt>
<trkpt lat="39.46873761" lon="-0.35250645">
<ele>66</ele>
<time>2015-04-04T20:13:30Z</time>
</trkpt>
<trkpt lat="39.4687379" lon="-0.35250617">
<ele>66</ele>
<time>2015-04-04T20:13:32Z</time>
</trkpt>
<trkpt lat="39.46873867" lon="-0.35250591">
<ele>66</ele>
<time>2015-04-04T20:13:34Z</time>
</trkpt>
<trkpt lat="39.46873925" lon="-0.35250519">
<ele>66</ele>
<time>2015-04-04T20:13:36Z</time>
</trkpt>
<trkpt lat="39.46873872" lon="-0.3525051">
<ele>66</ele>
<time>2015-04-04T20:13:38Z</time>
</trkpt>
<trkpt lat="39.46873844" lon="-0.35250511">
<ele>66</ele>
<time>2015-04-04T20:13:40Z</time>
</trkpt>
<trkpt lat="39.46873856" lon="-0.35250509">
<ele>65</ele>
<time>2015-04-04T20:13:42Z</time>
</trkpt>
<trkpt lat="39.46873896" lon="-0.35250472">
<ele>65</ele>
<time>2015-04-04T20:13:44Z</time>
</trkpt>
<trkpt lat="39.46874304" lon="-0.35250347">
<ele>65</ele>
<time>2015-04-04T20:13:46Z</time>
</trkpt>
<trkpt lat="39.468751" lon="-0.35237443">
<ele>63</ele>
<time>2015-04-04T20:13:48Z</time>
</trkpt>
<trkpt lat="39.46876115" lon="-0.35224129">
<ele>63</ele>
<time>2015-04-04T20:13:50Z</time>
</trkpt>
<trkpt lat="39.46868936" lon="-0.35214412">
<ele>64</ele>
<time>2015-04-04T20:13:52Z</time>
</trkpt>
<trkpt lat="39.46863456" lon="-0.35204012">
<ele>63</ele>
<time>2015-04-04T20:13:54Z</time>
</trkpt>
<trkpt lat="39.46863944" lon="-0.35201756">
<ele>63</ele>
<time>2015-04-04T20:13:56Z</time>
</trkpt>
<trkpt lat="39.46865688" lon="-0.35198357">
<ele>63</ele>
<time>2015-04-04T20:13:58Z</time>
</trkpt>
<trkpt lat="39.4686781" lon="-0.3519608">
<ele>63</ele>
<time>2015-04-04T20:14:00Z</time>
</trkpt>
<trkpt lat="39.46869028" lon="-0.3519688">
<ele>64</ele>
<time>2015-04-04T20:14:02Z</time>
</trkpt>
<trkpt lat="39.46873461" lon="-0.35195645">
<ele>68</ele>
<time>2015-04-04T20:14:04Z</time>
</trkpt>
<trkpt lat="39.46873203" lon="-0.35196261">
<ele>69</ele>
<time>2015-04-04T20:14:06Z</time>
</trkpt>
<trkpt lat="39.46874353" lon="-0.35196005">
<ele>70</ele>
<time>2015-04-04T20:14:08Z</time>
</trkpt>
<trkpt lat="39.46874179" lon="-0.35195713">
<ele>69</ele>
<time>2015-04-04T20:14:10Z</time>
</trkpt>
<trkpt lat="39.4687246" lon="-0.35192471">
<ele>65</ele>
<time>2015-04-04T20:14:12Z</time>
</trkpt>
<trkpt lat="39.46875798" lon="-0.35191408">
<ele>66</ele>
<time>2015-04-04T20:14:14Z</time>
</trkpt>
<trkpt lat="39.46878499" lon="-0.35190298">
<ele>65</ele>
<time>2015-04-04T20:14:16Z</time>
</trkpt>
<trkpt lat="39.46880435" lon="-0.35190423">
<ele>66</ele>
<time>2015-04-04T20:14:18Z</time>
</trkpt>
<trkpt lat="39.46882241" lon="-0.35189408">
<ele>65</ele>
<time>2015-04-04T20:14:20Z</time>
</trkpt>
<trkpt lat="39.46886142" lon="-0.35189858">
<ele>64</ele>
<time>2015-04-04T20:14:22Z</time>
</trkpt>
<trkpt lat="39.46887057" lon="-0.35190511">
<ele>64</ele>
<time>2015-04-04T20:14:24Z</time>
</trkpt>
<trkpt lat="39.46888597" lon="-0.35185364">
<ele>63</ele>
<time>2015-04-04T20:14:26Z</time>
</trkpt>
<trkpt lat="39.4689101" lon="-0.35184463">
<ele>64</ele>
<time>2015-04-04T20:14:28Z</time>
</trkpt>
<trkpt lat="39.46896262" lon="-0.35181806">
<ele>67</ele>
<time>2015-04-04T20:14:30Z</time>
</trkpt>
<trkpt lat="39.46907357" lon="-0.35184633">
<ele>67</ele>
<time>2015-04-04T20:14:32Z</time>
</trkpt>
<trkpt lat="39.4690735" lon="-0.35183981">
<ele>68</ele>
<time>2015-04-04T20:14:34Z</time>
</trkpt>
<trkpt lat="39.46907763" lon="-0.35183035">
<ele>68</ele>
<time>2015-04-04T20:14:36Z</time>
</trkpt>
<trkpt lat="39.46907076" lon="-0.35181708">
<ele>67</ele>
<time>2015-04-04T20:14:38Z</time>
</trkpt>
<trkpt lat="39.46909198" lon="-0.35181889">
<ele>68</ele>
<time>2015-04-04T20:14:40Z</time>
</trkpt>
<trkpt lat="39.46909383" lon="-0.35182375">
<ele>68</ele>
<time>2015-04-04T20:14:42Z</time>
</trkpt>
<trkpt lat="39.46909734" lon="-0.35182164">
<ele>67</ele>
<time>2015-04-04T20:14:44Z</time>
</trkpt>
<trkpt lat="39.46909635" lon="-0.35181944">
<ele>67</ele>
<time>2015-04-04T20:14:46Z</time>
</trkpt>
<trkpt lat="39.46909642" lon="-0.35181979">
<ele>67</ele>
<time>2015-04-04T20:14:48Z</time>
</trkpt>
<trkpt lat="39.46909648" lon="-0.35181969">
<ele>67</ele>
<time>2015-04-04T20:14:50Z</time>
</trkpt>
<trkpt lat="39.46909629" lon="-0.35181953">
<ele>67</ele>
<time>2015-04-04T20:14:52Z</time>
</trkpt>
<trkpt lat="39.4690971" lon="-0.35182005">
<ele>67</ele>
<time>2015-04-04T20:14:54Z</time>
</trkpt>
<trkpt lat="39.4690971" lon="-0.35182005">
<ele>67</ele>
<time>2015-04-04T20:14:56Z</time>
</trkpt>
<trkpt lat="39.46909663" lon="-0.35181989">
<ele>67</ele>
<time>2015-04-04T20:15:01Z</time>
</trkpt>
<trkpt lat="39.46909663" lon="-0.35181989">
<ele>67</ele>
<time>2015-04-04T20:15:02Z</time>
</trkpt>
<trkpt lat="39.46909663" lon="-0.35181989">
<ele>67</ele>
<time>2015-04-04T20:15:04Z</time>
</trkpt>
<trkpt lat="39.46909337" lon="-0.35181732">
<ele>68</ele>
<time>2015-04-04T20:15:06Z</time>
</trkpt>
<trkpt lat="39.46908177" lon="-0.35181302">
<ele>68</ele>
<time>2015-04-04T20:15:08Z</time>
</trkpt>
<trkpt lat="39.46907895" lon="-0.35181148">
<ele>68</ele>
<time>2015-04-04T20:15:10Z</time>
</trkpt>
<trkpt lat="39.46909258" lon="-0.3518122">
<ele>68</ele>
<time>2015-04-04T20:15:12Z</time>
</trkpt>
<trkpt lat="39.46909425" lon="-0.35181257">
<ele>68</ele>
<time>2015-04-04T20:15:14Z</time>
</trkpt>
<trkpt lat="39.46909813" lon="-0.35181346">
<ele>68</ele>
<time>2015-04-04T20:15:16Z</time>
</trkpt>
<trkpt lat="39.46909813" lon="-0.35181346">
<ele>68</ele>
<time>2015-04-04T20:15:18Z</time>
</trkpt>
<trkpt lat="39.46909601" lon="-0.35180422">
<ele>68</ele>
<time>2015-04-04T20:17:43Z</time>
</trkpt>
<trkpt lat="39.46909442" lon="-0.35180434">
<ele>68</ele>
<time>2015-04-04T20:17:44Z</time>
</trkpt>
<trkpt lat="39.46909116" lon="-0.35180709">
<ele>68</ele>
<time>2015-04-04T20:17:46Z</time>
</trkpt>
<trkpt lat="39.46908959" lon="-0.35180749">
<ele>68</ele>
<time>2015-04-04T20:17:48Z</time>
</trkpt>
<trkpt lat="39.46908895" lon="-0.35180888">
<ele>68</ele>
<time>2015-04-04T20:17:50Z</time>
</trkpt>
<trkpt lat="39.46908852" lon="-0.35181052">
<ele>68</ele>
<time>2015-04-04T20:17:52Z</time>
</trkpt>
<trkpt lat="39.46908772" lon="-0.3518116">
<ele>68</ele>
<time>2015-04-04T20:17:54Z</time>
</trkpt>
<trkpt lat="39.46908632" lon="-0.35181202">
<ele>68</ele>
<time>2015-04-04T20:17:56Z</time>
</trkpt>
<trkpt lat="39.4690853" lon="-0.35181309">
<ele>68</ele>
<time>2015-04-04T20:17:58Z</time>
</trkpt>
<trkpt lat="39.46908477" lon="-0.35181364">
<ele>68</ele>
<time>2015-04-04T20:18:00Z</time>
</trkpt>
<trkpt lat="39.46908444" lon="-0.35181396">
<ele>68</ele>
<time>2015-04-04T20:18:02Z</time>
</trkpt>
<trkpt lat="39.469084" lon="-0.35181402">
<ele>68</ele>
<time>2015-04-04T20:18:04Z</time>
</trkpt>
<trkpt lat="39.46908375" lon="-0.35181351">
<ele>68</ele>
<time>2015-04-04T20:18:06Z</time>
</trkpt>
<trkpt lat="39.46908308" lon="-0.35181412">
<ele>68</ele>
<time>2015-04-04T20:18:08Z</time>
</trkpt>
<trkpt lat="39.46908265" lon="-0.35181442">
<ele>68</ele>
<time>2015-04-04T20:18:10Z</time>
</trkpt>
<trkpt lat="39.46908192" lon="-0.35181376">
<ele>68</ele>
<time>2015-04-04T20:18:12Z</time>
</trkpt>
<trkpt lat="39.46908124" lon="-0.35181376">
<ele>68</ele>
<time>2015-04-04T20:18:14Z</time>
</trkpt>
<trkpt lat="39.46908037" lon="-0.351814">
<ele>68</ele>
<time>2015-04-04T20:18:16Z</time>
</trkpt>
<trkpt lat="39.46908035" lon="-0.35181453">
<ele>68</ele>
<time>2015-04-04T20:18:18Z</time>
</trkpt>
<trkpt lat="39.46908044" lon="-0.35181429">
<ele>68</ele>
<time>2015-04-04T20:18:20Z</time>
</trkpt>
<trkpt lat="39.46907952" lon="-0.35181407">
<ele>68</ele>
<time>2015-04-04T20:18:22Z</time>
</trkpt>
<trkpt lat="39.46907824" lon="-0.35181382">
<ele>68</ele>
<time>2015-04-04T20:18:24Z</time>
</trkpt>
<trkpt lat="39.46907714" lon="-0.35181438">
<ele>68</ele>
<time>2015-04-04T20:18:26Z</time>
</trkpt>
<trkpt lat="39.46907596" lon="-0.35181445">
<ele>68</ele>
<time>2015-04-04T20:18:28Z</time>
</trkpt>
<trkpt lat="39.46907551" lon="-0.35181419">
<ele>68</ele>
<time>2015-04-04T20:18:30Z</time>
</trkpt>
<trkpt lat="39.46907454" lon="-0.35181418">
<ele>68</ele>
<time>2015-04-04T20:18:32Z</time>
</trkpt>
<trkpt lat="39.46907467" lon="-0.35181462">
<ele>68</ele>
<time>2015-04-04T20:18:34Z</time>
</trkpt>
<trkpt lat="39.46907504" lon="-0.3518148">
<ele>68</ele>
<time>2015-04-04T20:18:36Z</time>
</trkpt>
<trkpt lat="39.46907495" lon="-0.35181493">
<ele>68</ele>
<time>2015-04-04T20:18:38Z</time>
</trkpt>
<trkpt lat="39.46907583" lon="-0.35181559">
<ele>68</ele>
<time>2015-04-04T20:18:40Z</time>
</trkpt>
<trkpt lat="39.46907594" lon="-0.35181596">
<ele>68</ele>
<time>2015-04-04T20:18:42Z</time>
</trkpt>
<trkpt lat="39.46907585" lon="-0.3518161">
<ele>68</ele>
<time>2015-04-04T20:18:44Z</time>
</trkpt>
<trkpt lat="39.46907519" lon="-0.35181637">
<ele>68</ele>
<time>2015-04-04T20:18:46Z</time>
</trkpt>
<trkpt lat="39.46907475" lon="-0.35181627">
<ele>68</ele>
<time>2015-04-04T20:18:48Z</time>
</trkpt>
<trkpt lat="39.46907364" lon="-0.35181635">
<ele>68</ele>
<time>2015-04-04T20:18:50Z</time>
</trkpt>
<trkpt lat="39.46907307" lon="-0.35181599">
<ele>68</ele>
<time>2015-04-04T20:18:52Z</time>
</trkpt>
<trkpt lat="39.46907296" lon="-0.35181568">
<ele>68</ele>
<time>2015-04-04T20:18:54Z</time>
</trkpt>
<trkpt lat="39.46907276" lon="-0.35181627">
<ele>68</ele>
<time>2015-04-04T20:18:56Z</time>
</trkpt>
<trkpt lat="39.46907288" lon="-0.35181659">
<ele>68</ele>
<time>2015-04-04T20:18:58Z</time>
</trkpt>
<trkpt lat="39.46907344" lon="-0.35181686">
<ele>68</ele>
<time>2015-04-04T20:19:00Z</time>
</trkpt>
<trkpt lat="39.46907333" lon="-0.35181716">
<ele>68</ele>
<time>2015-04-04T20:19:02Z</time>
</trkpt>
<trkpt lat="39.46907307" lon="-0.35181722">
<ele>68</ele>
<time>2015-04-04T20:19:04Z</time>
</trkpt>
<trkpt lat="39.46907311" lon="-0.35181731">
<ele>68</ele>
<time>2015-04-04T20:19:06Z</time>
</trkpt>
<trkpt lat="39.46907304" lon="-0.35181743">
<ele>68</ele>
<time>2015-04-04T20:19:08Z</time>
</trkpt>
<trkpt lat="39.46907205" lon="-0.35181728">
<ele>68</ele>
<time>2015-04-04T20:19:10Z</time>
</trkpt>
<trkpt lat="39.46906937" lon="-0.35181887">
<ele>67</ele>
<time>2015-04-04T20:19:12Z</time>
</trkpt>
<trkpt lat="39.46906682" lon="-0.35182059">
<ele>67</ele>
<time>2015-04-04T20:19:14Z</time>
</trkpt>
<trkpt lat="39.46906616" lon="-0.35182139">
<ele>67</ele>
<time>2015-04-04T20:19:16Z</time>
</trkpt>
<trkpt lat="39.46906539" lon="-0.3518222">
<ele>67</ele>
<time>2015-04-04T20:19:18Z</time>
</trkpt>
<trkpt lat="39.46906454" lon="-0.35182257">
<ele>67</ele>
<time>2015-04-04T20:19:20Z</time>
</trkpt>
<trkpt lat="39.4690642" lon="-0.3518228">
<ele>67</ele>
<time>2015-04-04T20:19:22Z</time>
</trkpt>
<trkpt lat="39.46906423" lon="-0.35182289">
<ele>67</ele>
<time>2015-04-04T20:19:24Z</time>
</trkpt>
<trkpt lat="39.46906369" lon="-0.35182276">
<ele>67</ele>
<time>2015-04-04T20:19:26Z</time>
</trkpt>
<trkpt lat="39.46906265" lon="-0.35182244">
<ele>67</ele>
<time>2015-04-04T20:19:28Z</time>
</trkpt>
<trkpt lat="39.46906145" lon="-0.35182216">
<ele>67</ele>
<time>2015-04-04T20:19:30Z</time>
</trkpt>
<trkpt lat="39.46906065" lon="-0.35182217">
<ele>67</ele>
<time>2015-04-04T20:19:32Z</time>
</trkpt>
<trkpt lat="39.46905935" lon="-0.35182211">
<ele>67</ele>
<time>2015-04-04T20:19:34Z</time>
</trkpt>
<trkpt lat="39.46905804" lon="-0.35182203">
<ele>67</ele>
<time>2015-04-04T20:19:36Z</time>
</trkpt>
<trkpt lat="39.46905688" lon="-0.35182186">
<ele>67</ele>
<time>2015-04-04T20:19:38Z</time>
</trkpt>
<trkpt lat="39.469056" lon="-0.351822">
<ele>67</ele>
<time>2015-04-04T20:19:40Z</time>
</trkpt>
<trkpt lat="39.46905511" lon="-0.351822">
<ele>67</ele>
<time>2015-04-04T20:19:42Z</time>
</trkpt>
<trkpt lat="39.46905521" lon="-0.35182233">
<ele>67</ele>
<time>2015-04-04T20:19:44Z</time>
</trkpt>
<trkpt lat="39.46905484" lon="-0.3518226">
<ele>67</ele>
<time>2015-04-04T20:19:46Z</time>
</trkpt>
<trkpt lat="39.46905365" lon="-0.35182282">
<ele>67</ele>
<time>2015-04-04T20:19:48Z</time>
</trkpt>
<trkpt lat="39.46905252" lon="-0.35182303">
<ele>67</ele>
<time>2015-04-04T20:19:50Z</time>
</trkpt>
<trkpt lat="39.46905183" lon="-0.35182345">
<ele>67</ele>
<time>2015-04-04T20:19:52Z</time>
</trkpt>
<trkpt lat="39.46900158" lon="-0.35186171">
<ele>66</ele>
<time>2015-04-04T20:19:54Z</time>
</trkpt>
<trkpt lat="39.4689262" lon="-0.3519174">
<ele>65</ele>
<time>2015-04-04T20:19:56Z</time>
</trkpt>
<trkpt lat="39.4688338" lon="-0.35198374">
<ele>64</ele>
<time>2015-04-04T20:19:58Z</time>
</trkpt>
<trkpt lat="39.46876043" lon="-0.3520662">
<ele>63</ele>
<time>2015-04-04T20:20:00Z</time>
</trkpt>
<trkpt lat="39.46866892" lon="-0.35213871">
<ele>62</ele>
<time>2015-04-04T20:20:02Z</time>
</trkpt>
<trkpt lat="39.46858196" lon="-0.35224322">
<ele>64</ele>
<time>2015-04-04T20:20:04Z</time>
</trkpt>
<trkpt lat="39.46852343" lon="-0.35230154">
<ele>62</ele>
<time>2015-04-04T20:20:06Z</time>
</trkpt>
<trkpt lat="39.46848441" lon="-0.35240321">
<ele>62</ele>
<time>2015-04-04T20:20:08Z</time>
</trkpt>
<trkpt lat="39.46837859" lon="-0.35249012">
<ele>63</ele>
<time>2015-04-04T20:20:10Z</time>
</trkpt>
<trkpt lat="39.46828165" lon="-0.35264005">
<ele>62</ele>
<time>2015-04-04T20:20:12Z</time>
</trkpt>
<trkpt lat="39.46818056" lon="-0.35278194">
<ele>60</ele>
<time>2015-04-04T20:20:14Z</time>
</trkpt>
<trkpt lat="39.46808968" lon="-0.35287497">
<ele>60</ele>
<time>2015-04-04T20:20:16Z</time>
</trkpt>
<trkpt lat="39.46801262" lon="-0.35290398">
<ele>60</ele>
<time>2015-04-04T20:20:18Z</time>
</trkpt>
<trkpt lat="39.46789751" lon="-0.35286697">
<ele>59</ele>
<time>2015-04-04T20:20:20Z</time>
</trkpt>
<trkpt lat="39.4678556" lon="-0.3529106">
<ele>59</ele>
<time>2015-04-04T20:20:22Z</time>
</trkpt>
<trkpt lat="39.46779078" lon="-0.35295725">
<ele>59</ele>
<time>2015-04-04T20:20:24Z</time>
</trkpt>
<trkpt lat="39.4676769" lon="-0.35291601">
<ele>61</ele>
<time>2015-04-04T20:20:26Z</time>
</trkpt>
<trkpt lat="39.46758843" lon="-0.35287395">
<ele>61</ele>
<time>2015-04-04T20:20:28Z</time>
</trkpt>
<trkpt lat="39.4675127" lon="-0.35281902">
<ele>63</ele>
<time>2015-04-04T20:20:30Z</time>
</trkpt>
<trkpt lat="39.46742336" lon="-0.35274752">
<ele>62</ele>
<time>2015-04-04T20:20:32Z</time>
</trkpt>
<trkpt lat="39.46729542" lon="-0.35279968">
<ele>70</ele>
<time>2015-04-04T20:20:34Z</time>
</trkpt>
<trkpt lat="39.46718138" lon="-0.35278288">
<ele>73</ele>
<time>2015-04-04T20:20:36Z</time>
</trkpt>
<trkpt lat="39.46714451" lon="-0.35279718">
<ele>72</ele>
<time>2015-04-04T20:20:38Z</time>
</trkpt>
<trkpt lat="39.4671127" lon="-0.35279173">
<ele>74</ele>
<time>2015-04-04T20:20:40Z</time>
</trkpt>
<trkpt lat="39.46706336" lon="-0.35277109">
<ele>74</ele>
<time>2015-04-04T20:20:42Z</time>
</trkpt>
<trkpt lat="39.46699853" lon="-0.35275198">
<ele>74</ele>
<time>2015-04-04T20:20:44Z</time>
</trkpt>
<trkpt lat="39.46699256" lon="-0.35277413">
<ele>74</ele>
<time>2015-04-04T20:20:46Z</time>
</trkpt>
<trkpt lat="39.46697251" lon="-0.35278016">
<ele>75</ele>
<time>2015-04-04T20:20:48Z</time>
</trkpt>
<trkpt lat="39.46693596" lon="-0.35280025">
<ele>74</ele>
<time>2015-04-04T20:20:50Z</time>
</trkpt>
<trkpt lat="39.46691054" lon="-0.35276836">
<ele>74</ele>
<time>2015-04-04T20:20:52Z</time>
</trkpt>
<trkpt lat="39.4668997" lon="-0.35273991">
<ele>74</ele>
<time>2015-04-04T20:20:54Z</time>
</trkpt>
<trkpt lat="39.46688262" lon="-0.3527293">
<ele>74</ele>
<time>2015-04-04T20:20:56Z</time>
</trkpt>
<trkpt lat="39.46686776" lon="-0.35271561">
<ele>74</ele>
<time>2015-04-04T20:20:58Z</time>
</trkpt>
<trkpt lat="39.46685716" lon="-0.3527173">
<ele>73</ele>
<time>2015-04-04T20:21:00Z</time>
</trkpt>
<trkpt lat="39.46684689" lon="-0.35270521">
<ele>73</ele>
<time>2015-04-04T20:21:02Z</time>
</trkpt>
<trkpt lat="39.46712155" lon="-0.35282635">
<ele>73</ele>
<time>2015-04-04T20:24:38Z</time>
</trkpt>
<trkpt lat="39.46712585" lon="-0.35285268">
<ele>73</ele>
<time>2015-04-04T20:24:39Z</time>
</trkpt>
<trkpt lat="39.46713415" lon="-0.35287542">
<ele>72</ele>
<time>2015-04-04T20:24:41Z</time>
</trkpt>
<trkpt lat="39.46715872" lon="-0.35288489">
<ele>72</ele>
<time>2015-04-04T20:24:43Z</time>
</trkpt>
<trkpt lat="39.46715638" lon="-0.3528637">
<ele>73</ele>
<time>2015-04-04T20:24:45Z</time>
</trkpt>
<trkpt lat="39.46717013" lon="-0.35287552">
<ele>74</ele>
<time>2015-04-04T20:24:47Z</time>
</trkpt>
<trkpt lat="39.46717074" lon="-0.35286892">
<ele>75</ele>
<time>2015-04-04T20:24:49Z</time>
</trkpt>
<trkpt lat="39.46717506" lon="-0.35284406">
<ele>74</ele>
<time>2015-04-04T20:24:51Z</time>
</trkpt>
<trkpt lat="39.46722315" lon="-0.35284673">
<ele>74</ele>
<time>2015-04-04T20:24:53Z</time>
</trkpt>
<trkpt lat="39.46724933" lon="-0.35283646">
<ele>74</ele>
<time>2015-04-04T20:24:55Z</time>
</trkpt>
<trkpt lat="39.46726542" lon="-0.35283626">
<ele>72</ele>
<time>2015-04-04T20:24:57Z</time>
</trkpt>
<trkpt lat="39.46725376" lon="-0.35280904">
<ele>73</ele>
<time>2015-04-04T20:24:59Z</time>
</trkpt>
<trkpt lat="39.4672879" lon="-0.35278972">
<ele>72</ele>
<time>2015-04-04T20:25:01Z</time>
</trkpt>
<trkpt lat="39.4672955" lon="-0.35277411">
<ele>70</ele>
<time>2015-04-04T20:25:03Z</time>
</trkpt>
<trkpt lat="39.46731473" lon="-0.35277501">
<ele>70</ele>
<time>2015-04-04T20:25:05Z</time>
</trkpt>
<trkpt lat="39.46733316" lon="-0.35277601">
<ele>70</ele>
<time>2015-04-04T20:25:07Z</time>
</trkpt>
<trkpt lat="39.46734833" lon="-0.35277604">
<ele>70</ele>
<time>2015-04-04T20:25:09Z</time>
</trkpt>
<trkpt lat="39.46736275" lon="-0.35277873">
<ele>71</ele>
<time>2015-04-04T20:25:11Z</time>
</trkpt>
<trkpt lat="39.46734327" lon="-0.35275871">
<ele>71</ele>
<time>2015-04-04T20:25:13Z</time>
</trkpt>
<trkpt lat="39.46733941" lon="-0.35275004">
<ele>70</ele>
<time>2015-04-04T20:25:15Z</time>
</trkpt>
<trkpt lat="39.46736669" lon="-0.35272981">
<ele>69</ele>
<time>2015-04-04T20:25:17Z</time>
</trkpt>
<trkpt lat="39.46739343" lon="-0.35274544">
<ele>67</ele>
<time>2015-04-04T20:25:19Z</time>
</trkpt>
<trkpt lat="39.46740212" lon="-0.35274781">
<ele>66</ele>
<time>2015-04-04T20:25:21Z</time>
</trkpt>
<trkpt lat="39.46734913" lon="-0.3527172">
<ele>70</ele>
<time>2015-04-04T20:25:23Z</time>
</trkpt>
<trkpt lat="39.46732561" lon="-0.35269501">
<ele>70</ele>
<time>2015-04-04T20:25:25Z</time>
</trkpt>
<trkpt lat="39.46732872" lon="-0.35270152">
<ele>70</ele>
<time>2015-04-04T20:25:27Z</time>
</trkpt>
<trkpt lat="39.46734667" lon="-0.35269193">
<ele>71</ele>
<time>2015-04-04T20:25:29Z</time>
</trkpt>
<trkpt lat="39.46736459" lon="-0.3526879">
<ele>71</ele>
<time>2015-04-04T20:25:31Z</time>
</trkpt>
<trkpt lat="39.46738489" lon="-0.35273281">
<ele>71</ele>
<time>2015-04-04T20:25:33Z</time>
</trkpt>
<trkpt lat="39.46746133" lon="-0.35269544">
<ele>72</ele>
<time>2015-04-04T20:25:35Z</time>
</trkpt>
<trkpt lat="39.46749185" lon="-0.35267556">
<ele>73</ele>
<time>2015-04-04T20:25:37Z</time>
</trkpt>
<trkpt lat="39.46754511" lon="-0.35261719">
<ele>75</ele>
<time>2015-04-04T20:25:39Z</time>
</trkpt>
<trkpt lat="39.46761978" lon="-0.35258574">
<ele>79</ele>
<time>2015-04-04T20:25:41Z</time>
</trkpt>
<trkpt lat="39.46762663" lon="-0.35268575">
<ele>83</ele>
<time>2015-04-04T20:25:43Z</time>
</trkpt>
<trkpt lat="39.46769878" lon="-0.3526697">
<ele>85</ele>
<time>2015-04-04T20:25:45Z</time>
</trkpt>
<trkpt lat="39.46779721" lon="-0.35263058">
<ele>87</ele>
<time>2015-04-04T20:25:47Z</time>
</trkpt>
<trkpt lat="39.46783837" lon="-0.35260883">
<ele>88</ele>
<time>2015-04-04T20:25:49Z</time>
</trkpt>
<trkpt lat="39.46784471" lon="-0.35261969">
<ele>89</ele>
<time>2015-04-04T20:25:51Z</time>
</trkpt>
<trkpt lat="39.46783147" lon="-0.35261928">
<ele>89</ele>
<time>2015-04-04T20:25:53Z</time>
</trkpt>
<trkpt lat="39.46782768" lon="-0.35259249">
<ele>89</ele>
<time>2015-04-04T20:25:55Z</time>
</trkpt>
<trkpt lat="39.46783593" lon="-0.35258326">
<ele>89</ele>
<time>2015-04-04T20:25:57Z</time>
</trkpt>
<trkpt lat="39.46780969" lon="-0.35257608">
<ele>89</ele>
<time>2015-04-04T20:25:59Z</time>
</trkpt>
<trkpt lat="39.4678038" lon="-0.35256192">
<ele>90</ele>
<time>2015-04-04T20:26:01Z</time>
</trkpt>
<trkpt lat="39.46782441" lon="-0.35253405">
<ele>91</ele>
<time>2015-04-04T20:26:03Z</time>
</trkpt>
<trkpt lat="39.46785782" lon="-0.35246887">
<ele>91</ele>
<time>2015-04-04T20:26:05Z</time>
</trkpt>
<trkpt lat="39.46787657" lon="-0.35249815">
<ele>91</ele>
<time>2015-04-04T20:26:07Z</time>
</trkpt>
<trkpt lat="39.46789208" lon="-0.35249105">
<ele>92</ele>
<time>2015-04-04T20:26:09Z</time>
</trkpt>
<trkpt lat="39.46790697" lon="-0.35250279">
<ele>91</ele>
<time>2015-04-04T20:26:11Z</time>
</trkpt>
<trkpt lat="39.46795879" lon="-0.35248727">
<ele>90</ele>
<time>2015-04-04T20:26:13Z</time>
</trkpt>
<trkpt lat="39.46795341" lon="-0.35246447">
<ele>90</ele>
<time>2015-04-04T20:26:15Z</time>
</trkpt>
<trkpt lat="39.46794118" lon="-0.3524424">
<ele>90</ele>
<time>2015-04-04T20:26:17Z</time>
</trkpt>
<trkpt lat="39.46788465" lon="-0.35238627">
<ele>90</ele>
<time>2015-04-04T20:26:19Z</time>
</trkpt>
<trkpt lat="39.4679128" lon="-0.35234357">
<ele>90</ele>
<time>2015-04-04T20:26:21Z</time>
</trkpt>
<trkpt lat="39.46796118" lon="-0.35226021">
<ele>90</ele>
<time>2015-04-04T20:26:23Z</time>
</trkpt>
<trkpt lat="39.4680735" lon="-0.35212382">
<ele>90</ele>
<time>2015-04-04T20:26:25Z</time>
</trkpt>
<trkpt lat="39.46815023" lon="-0.35211976">
<ele>90</ele>
<time>2015-04-04T20:26:27Z</time>
</trkpt>
<trkpt lat="39.46823453" lon="-0.3521052">
<ele>90</ele>
<time>2015-04-04T20:26:29Z</time>
</trkpt>
<trkpt lat="39.4683497" lon="-0.35214334">
<ele>90</ele>
<time>2015-04-04T20:26:31Z</time>
</trkpt>
<trkpt lat="39.46838071" lon="-0.35215389">
<ele>90</ele>
<time>2015-04-04T20:26:33Z</time>
</trkpt>
<trkpt lat="39.46837115" lon="-0.35212665">
<ele>87</ele>
<time>2015-04-04T20:26:35Z</time>
</trkpt>
<trkpt lat="39.46838172" lon="-0.35210398">
<ele>86</ele>
<time>2015-04-04T20:26:37Z</time>
</trkpt>
<trkpt lat="39.46839764" lon="-0.3520724">
<ele>86</ele>
<time>2015-04-04T20:26:39Z</time>
</trkpt>
<trkpt lat="39.46838183" lon="-0.35207894">
<ele>88</ele>
<time>2015-04-04T20:26:41Z</time>
</trkpt>
<trkpt lat="39.46837621" lon="-0.35207932">
<ele>89</ele>
<time>2015-04-04T20:26:43Z</time>
</trkpt>
<trkpt lat="39.46839278" lon="-0.35208465">
<ele>88</ele>
<time>2015-04-04T20:26:45Z</time>
</trkpt>
<trkpt lat="39.46839593" lon="-0.35209228">
<ele>89</ele>
<time>2015-04-04T20:26:47Z</time>
</trkpt>
<trkpt lat="39.46842407" lon="-0.35211078">
<ele>88</ele>
<time>2015-04-04T20:26:49Z</time>
</trkpt>
<trkpt lat="39.46842851" lon="-0.35208449">
<ele>88</ele>
<time>2015-04-04T20:26:51Z</time>
</trkpt>
<trkpt lat="39.46841817" lon="-0.35206142">
<ele>88</ele>
<time>2015-04-04T20:26:53Z</time>
</trkpt>
<trkpt lat="39.46842742" lon="-0.35205392">
<ele>88</ele>
<time>2015-04-04T20:26:55Z</time>
</trkpt>
<trkpt lat="39.46842958" lon="-0.35200203">
<ele>86</ele>
<time>2015-04-04T20:26:57Z</time>
</trkpt>
<trkpt lat="39.46841131" lon="-0.35196718">
<ele>86</ele>
<time>2015-04-04T20:26:59Z</time>
</trkpt>
<trkpt lat="39.46841803" lon="-0.3519727">
<ele>87</ele>
<time>2015-04-04T20:27:01Z</time>
</trkpt>
<trkpt lat="39.46838527" lon="-0.35196933">
<ele>87</ele>
<time>2015-04-04T20:27:03Z</time>
</trkpt>
<trkpt lat="39.46838506" lon="-0.35195645">
<ele>87</ele>
<time>2015-04-04T20:27:05Z</time>
</trkpt>
<trkpt lat="39.46837886" lon="-0.35193198">
<ele>87</ele>
<time>2015-04-04T20:27:07Z</time>
</trkpt>
<trkpt lat="39.46838252" lon="-0.35191893">
<ele>87</ele>
<time>2015-04-04T20:27:09Z</time>
</trkpt>
<trkpt lat="39.4683025" lon="-0.35189415">
<ele>87</ele>
<time>2015-04-04T20:27:11Z</time>
</trkpt>
<trkpt lat="39.46824862" lon="-0.35183202">
<ele>88</ele>
<time>2015-04-04T20:27:13Z</time>
</trkpt>
<trkpt lat="39.46822578" lon="-0.35178347">
<ele>88</ele>
<time>2015-04-04T20:27:15Z</time>
</trkpt>
<trkpt lat="39.46822661" lon="-0.35175773">
<ele>88</ele>
<time>2015-04-04T20:27:17Z</time>
</trkpt>
<trkpt lat="39.46816446" lon="-0.35163138">
<ele>89</ele>
<time>2015-04-04T20:27:19Z</time>
</trkpt>
<trkpt lat="39.46817976" lon="-0.35161157">
<ele>89</ele>
<time>2015-04-04T20:27:21Z</time>
</trkpt>
<trkpt lat="39.46823065" lon="-0.35156804">
<ele>91</ele>
<time>2015-04-04T20:27:23Z</time>
</trkpt>
<trkpt lat="39.46824504" lon="-0.35153373">
<ele>94</ele>
<time>2015-04-04T20:27:25Z</time>
</trkpt>
<trkpt lat="39.46827826" lon="-0.35153187">
<ele>94</ele>
<time>2015-04-04T20:27:27Z</time>
</trkpt>
<trkpt lat="39.46831189" lon="-0.35152218">
<ele>95</ele>
<time>2015-04-04T20:27:29Z</time>
</trkpt>
<trkpt lat="39.46839754" lon="-0.35152588">
<ele>95</ele>
<time>2015-04-04T20:27:31Z</time>
</trkpt>
<trkpt lat="39.46846069" lon="-0.35136735">
<ele>94</ele>
<time>2015-04-04T20:27:33Z</time>
</trkpt>
<trkpt lat="39.46840852" lon="-0.35132836">
<ele>94</ele>
<time>2015-04-04T20:27:35Z</time>
</trkpt>
<trkpt lat="39.46834007" lon="-0.35130518">
<ele>95</ele>
<time>2015-04-04T20:27:37Z</time>
</trkpt>
<trkpt lat="39.46823742" lon="-0.3513103">
<ele>96</ele>
<time>2015-04-04T20:27:39Z</time>
</trkpt>
<trkpt lat="39.46823436" lon="-0.35131268">
<ele>96</ele>
<time>2015-04-04T20:27:41Z</time>
</trkpt>
<trkpt lat="39.46821879" lon="-0.35133957">
<ele>96</ele>
<time>2015-04-04T20:27:43Z</time>
</trkpt>
<trkpt lat="39.46819006" lon="-0.35134854">
<ele>97</ele>
<time>2015-04-04T20:27:45Z</time>
</trkpt>
<trkpt lat="39.4681549" lon="-0.35135425">
<ele>97</ele>
<time>2015-04-04T20:27:47Z</time>
</trkpt>
<trkpt lat="39.46805046" lon="-0.35134922">
<ele>98</ele>
<time>2015-04-04T20:27:49Z</time>
</trkpt>
<trkpt lat="39.46800066" lon="-0.35133654">
<ele>98</ele>
<time>2015-04-04T20:27:51Z</time>
</trkpt>
<trkpt lat="39.46789187" lon="-0.35131447">
<ele>99</ele>
<time>2015-04-04T20:27:53Z</time>
</trkpt>
<trkpt lat="39.46782247" lon="-0.35131874">
<ele>99</ele>
<time>2015-04-04T20:27:55Z</time>
</trkpt>
<trkpt lat="39.46777352" lon="-0.35132917">
<ele>99</ele>
<time>2015-04-04T20:27:57Z</time>
</trkpt>
<trkpt lat="39.46775336" lon="-0.35130297">
<ele>99</ele>
<time>2015-04-04T20:27:59Z</time>
</trkpt>
<trkpt lat="39.46769142" lon="-0.35130873">
<ele>99</ele>
<time>2015-04-04T20:28:01Z</time>
</trkpt>
<trkpt lat="39.46777251" lon="-0.35127515">
<ele>101</ele>
<time>2015-04-04T20:28:03Z</time>
</trkpt>
<trkpt lat="39.46775965" lon="-0.35128052">
<ele>101</ele>
<time>2015-04-04T20:28:05Z</time>
</trkpt>
<trkpt lat="39.46773643" lon="-0.35126655">
<ele>101</ele>
<time>2015-04-04T20:28:07Z</time>
</trkpt>
<trkpt lat="39.4677301" lon="-0.35127856">
<ele>100</ele>
<time>2015-04-04T20:28:09Z</time>
</trkpt>
<trkpt lat="39.46771061" lon="-0.35125758">
<ele>100</ele>
<time>2015-04-04T20:28:11Z</time>
</trkpt>
<trkpt lat="39.46766216" lon="-0.35127449">
<ele>100</ele>
<time>2015-04-04T20:28:13Z</time>
</trkpt>
<trkpt lat="39.46762451" lon="-0.35141218">
<ele>99</ele>
<time>2015-04-04T20:28:15Z</time>
</trkpt>
<trkpt lat="39.46751913" lon="-0.35136125">
<ele>100</ele>
<time>2015-04-04T20:28:17Z</time>
</trkpt>
<trkpt lat="39.46752836" lon="-0.35138253">
<ele>100</ele>
<time>2015-04-04T20:28:19Z</time>
</trkpt>
<trkpt lat="39.46754507" lon="-0.35139722">
<ele>100</ele>
<time>2015-04-04T20:28:21Z</time>
</trkpt>
<trkpt lat="39.46749348" lon="-0.35139971">
<ele>100</ele>
<time>2015-04-04T20:28:23Z</time>
</trkpt>
<trkpt lat="39.46742151" lon="-0.35139304">
<ele>100</ele>
<time>2015-04-04T20:28:25Z</time>
</trkpt>
<trkpt lat="39.467359" lon="-0.35136745">
<ele>100</ele>
<time>2015-04-04T20:28:27Z</time>
</trkpt>
<trkpt lat="39.46734533" lon="-0.35136198">
<ele>100</ele>
<time>2015-04-04T20:28:29Z</time>
</trkpt>
<trkpt lat="39.46725829" lon="-0.35137032">
<ele>100</ele>
<time>2015-04-04T20:28:31Z</time>
</trkpt>
<trkpt lat="39.46723411" lon="-0.35136949">
<ele>100</ele>
<time>2015-04-04T20:28:33Z</time>
</trkpt>
<trkpt lat="39.46729938" lon="-0.35145807">
<ele>100</ele>
<time>2015-04-04T20:28:35Z</time>
</trkpt>
<trkpt lat="39.46735824" lon="-0.35138611">
<ele>99</ele>
<time>2015-04-04T20:28:37Z</time>
</trkpt>
<trkpt lat="39.46744201" lon="-0.35133002">
<ele>101</ele>
<time>2015-04-04T20:28:39Z</time>
</trkpt>
<trkpt lat="39.46742864" lon="-0.35131479">
<ele>101</ele>
<time>2015-04-04T20:28:41Z</time>
</trkpt>
<trkpt lat="39.46764413" lon="-0.35118956">
<ele>105</ele>
<time>2015-04-04T20:28:43Z</time>
</trkpt>
<trkpt lat="39.46776891" lon="-0.35110301">
<ele>107</ele>
<time>2015-04-04T20:28:45Z</time>
</trkpt>
<trkpt lat="39.46785961" lon="-0.35106034">
<ele>108</ele>
<time>2015-04-04T20:28:47Z</time>
</trkpt>
<trkpt lat="39.46786037" lon="-0.35102318">
<ele>109</ele>
<time>2015-04-04T20:28:49Z</time>
</trkpt>
<trkpt lat="39.46781135" lon="-0.35097399">
<ele>109</ele>
<time>2015-04-04T20:28:51Z</time>
</trkpt>
<trkpt lat="39.46779421" lon="-0.35093563">
<ele>109</ele>
<time>2015-04-04T20:28:53Z</time>
</trkpt>
<trkpt lat="39.46778063" lon="-0.35090226">
<ele>109</ele>
<time>2015-04-04T20:28:55Z</time>
</trkpt>
<trkpt lat="39.46775059" lon="-0.35082882">
<ele>108</ele>
<time>2015-04-04T20:28:57Z</time>
</trkpt>
<trkpt lat="39.46766676" lon="-0.35072393">
<ele>109</ele>
<time>2015-04-04T20:28:59Z</time>
</trkpt>
<trkpt lat="39.46767048" lon="-0.35047549">
<ele>103</ele>
<time>2015-04-04T20:29:01Z</time>
</trkpt>
<trkpt lat="39.46771963" lon="-0.35036621">
<ele>99</ele>
<time>2015-04-04T20:29:03Z</time>
</trkpt>
<trkpt lat="39.46773263" lon="-0.35032731">
<ele>97</ele>
<time>2015-04-04T20:29:05Z</time>
</trkpt>
<trkpt lat="39.46773967" lon="-0.35031798">
<ele>96</ele>
<time>2015-04-04T20:29:07Z</time>
</trkpt>
<trkpt lat="39.46773365" lon="-0.35027888">
<ele>97</ele>
<time>2015-04-04T20:29:09Z</time>
</trkpt>
<trkpt lat="39.46768352" lon="-0.35022997">
<ele>96</ele>
<time>2015-04-04T20:29:11Z</time>
</trkpt>
<trkpt lat="39.46769502" lon="-0.35019294">
<ele>95</ele>
<time>2015-04-04T20:29:13Z</time>
</trkpt>
<trkpt lat="39.46768284" lon="-0.35015556">
<ele>93</ele>
<time>2015-04-04T20:29:15Z</time>
</trkpt>
<trkpt lat="39.46767402" lon="-0.35016641">
<ele>94</ele>
<time>2015-04-04T20:29:17Z</time>
</trkpt>
<trkpt lat="39.46762514" lon="-0.35003127">
<ele>97</ele>
<time>2015-04-04T20:29:19Z</time>
</trkpt>
<trkpt lat="39.46763219" lon="-0.35000881">
<ele>96</ele>
<time>2015-04-04T20:29:21Z</time>
</trkpt>
<trkpt lat="39.46763533" lon="-0.35002978">
<ele>95</ele>
<time>2015-04-04T20:29:23Z</time>
</trkpt>
<trkpt lat="39.46771877" lon="-0.35006848">
<ele>95</ele>
<time>2015-04-04T20:29:25Z</time>
</trkpt>
<trkpt lat="39.46773763" lon="-0.350065">
<ele>95</ele>
<time>2015-04-04T20:29:27Z</time>
</trkpt>
<trkpt lat="39.46775447" lon="-0.35007526">
<ele>97</ele>
<time>2015-04-04T20:29:29Z</time>
</trkpt>
<trkpt lat="39.46777116" lon="-0.35008067">
<ele>101</ele>
<time>2015-04-04T20:29:31Z</time>
</trkpt>
<trkpt lat="39.46783828" lon="-0.35012421">
<ele>102</ele>
<time>2015-04-04T20:29:33Z</time>
</trkpt>
<trkpt lat="39.46791288" lon="-0.35018139">
<ele>104</ele>
<time>2015-04-04T20:29:35Z</time>
</trkpt>
<trkpt lat="39.46789643" lon="-0.35016854">
<ele>105</ele>
<time>2015-04-04T20:29:37Z</time>
</trkpt>
<trkpt lat="39.4679171" lon="-0.35017634">
<ele>104</ele>
<time>2015-04-04T20:29:39Z</time>
</trkpt>
<trkpt lat="39.46792286" lon="-0.35017408">
<ele>105</ele>
<time>2015-04-04T20:29:41Z</time>
</trkpt>
<trkpt lat="39.46793471" lon="-0.35017306">
<ele>106</ele>
<time>2015-04-04T20:29:43Z</time>
</trkpt>
<trkpt lat="39.46793421" lon="-0.35017004">
<ele>106</ele>
<time>2015-04-04T20:29:45Z</time>
</trkpt>
<trkpt lat="39.46793532" lon="-0.35017073">
<ele>106</ele>
<time>2015-04-04T20:29:47Z</time>
</trkpt>
<trkpt lat="39.46793568" lon="-0.35017182">
<ele>106</ele>
<time>2015-04-04T20:29:49Z</time>
</trkpt>
<trkpt lat="39.46793687" lon="-0.35017179">
<ele>106</ele>
<time>2015-04-04T20:29:51Z</time>
</trkpt>
<trkpt lat="39.46793616" lon="-0.35017273">
<ele>106</ele>
<time>2015-04-04T20:29:53Z</time>
</trkpt>
<trkpt lat="39.46793649" lon="-0.3501733">
<ele>106</ele>
<time>2015-04-04T20:29:55Z</time>
</trkpt>
<trkpt lat="39.46793677" lon="-0.35017336">
<ele>106</ele>
<time>2015-04-04T20:29:57Z</time>
</trkpt>
<trkpt lat="39.46793614" lon="-0.35017254">
<ele>106</ele>
<time>2015-04-04T20:29:59Z</time>
</trkpt>
<trkpt lat="39.46793606" lon="-0.35017272">
<ele>106</ele>
<time>2015-04-04T20:30:01Z</time>
</trkpt>
<trkpt lat="39.46793622" lon="-0.3501728">
<ele>106</ele>
<time>2015-04-04T20:30:03Z</time>
</trkpt>
<trkpt lat="39.46793614" lon="-0.35017276">
<ele>106</ele>
<time>2015-04-04T20:30:05Z</time>
</trkpt>
<trkpt lat="39.46793691" lon="-0.35017296">
<ele>106</ele>
<time>2015-04-04T20:30:07Z</time>
</trkpt>
<trkpt lat="39.4679372" lon="-0.35017294">
<ele>106</ele>
<time>2015-04-04T20:30:09Z</time>
</trkpt>
<trkpt lat="39.4679378" lon="-0.35017297">
<ele>106</ele>
<time>2015-04-04T20:30:11Z</time>
</trkpt>
<trkpt lat="39.46793798" lon="-0.35017304">
<ele>106</ele>
<time>2015-04-04T20:30:13Z</time>
</trkpt>
<trkpt lat="39.46793849" lon="-0.35017351">
<ele>106</ele>
<time>2015-04-04T20:30:15Z</time>
</trkpt>
<trkpt lat="39.46793886" lon="-0.35017384">
<ele>106</ele>
<time>2015-04-04T20:30:17Z</time>
</trkpt>
<trkpt lat="39.467939" lon="-0.35017395">
<ele>106</ele>
<time>2015-04-04T20:30:19Z</time>
</trkpt>
<trkpt lat="39.46793831" lon="-0.3501742">
<ele>106</ele>
<time>2015-04-04T20:30:21Z</time>
</trkpt>
<trkpt lat="39.46793981" lon="-0.35017426">
<ele>106</ele>
<time>2015-04-04T20:30:23Z</time>
</trkpt>
<trkpt lat="39.46794056" lon="-0.35017416">
<ele>106</ele>
<time>2015-04-04T20:30:25Z</time>
</trkpt>
<trkpt lat="39.46794027" lon="-0.35017386">
<ele>106</ele>
<time>2015-04-04T20:30:27Z</time>
</trkpt>
<trkpt lat="39.4679417" lon="-0.3501739">
<ele>106</ele>
<time>2015-04-04T20:30:29Z</time>
</trkpt>
<trkpt lat="39.46794313" lon="-0.35017431">
<ele>106</ele>
<time>2015-04-04T20:30:31Z</time>
</trkpt>
<trkpt lat="39.46794374" lon="-0.35017439">
<ele>106</ele>
<time>2015-04-04T20:30:33Z</time>
</trkpt>
<trkpt lat="39.4679446" lon="-0.35017435">
<ele>106</ele>
<time>2015-04-04T20:30:35Z</time>
</trkpt>
<trkpt lat="39.46794573" lon="-0.3501743">
<ele>106</ele>
<time>2015-04-04T20:30:37Z</time>
</trkpt>
<trkpt lat="39.46794664" lon="-0.35017468">
<ele>106</ele>
<time>2015-04-04T20:30:39Z</time>
</trkpt>
<trkpt lat="39.46793933" lon="-0.3500995">
<ele>102</ele>
<time>2015-04-04T20:30:41Z</time>
</trkpt>
<trkpt lat="39.46787869" lon="-0.34992917">
<ele>100</ele>
<time>2015-04-04T20:30:43Z</time>
</trkpt>
<trkpt lat="39.46786327" lon="-0.34982541">
<ele>101</ele>
<time>2015-04-04T20:30:45Z</time>
</trkpt>
<trkpt lat="39.46780917" lon="-0.34971461">
<ele>101</ele>
<time>2015-04-04T20:30:47Z</time>
</trkpt>
<trkpt lat="39.46772555" lon="-0.34959616">
<ele>100</ele>
<time>2015-04-04T20:30:49Z</time>
</trkpt>
<trkpt lat="39.4676875" lon="-0.34949367">
<ele>101</ele>
<time>2015-04-04T20:30:51Z</time>
</trkpt>
<trkpt lat="39.46765105" lon="-0.34943218">
<ele>99</ele>
<time>2015-04-04T20:30:53Z</time>
</trkpt>
<trkpt lat="39.46764954" lon="-0.34938717">
<ele>98</ele>
<time>2015-04-04T20:30:55Z</time>
</trkpt>
<trkpt lat="39.46765906" lon="-0.34934784">
<ele>98</ele>
<time>2015-04-04T20:30:57Z</time>
</trkpt>
<trkpt lat="39.46767726" lon="-0.34933465">
<ele>97</ele>
<time>2015-04-04T20:30:59Z</time>
</trkpt>
<trkpt lat="39.46768956" lon="-0.34931525">
<ele>96</ele>
<time>2015-04-04T20:31:01Z</time>
</trkpt>
<trkpt lat="39.46767302" lon="-0.34930613">
<ele>96</ele>
<time>2015-04-04T20:31:03Z</time>
</trkpt>
<trkpt lat="39.46767266" lon="-0.34929707">
<ele>97</ele>
<time>2015-04-04T20:31:05Z</time>
</trkpt>
<trkpt lat="39.46760484" lon="-0.349246">
<ele>97</ele>
<time>2015-04-04T20:31:07Z</time>
</trkpt>
<trkpt lat="39.46756707" lon="-0.34918816">
<ele>96</ele>
<time>2015-04-04T20:31:09Z</time>
</trkpt>
<trkpt lat="39.46757706" lon="-0.34916633">
<ele>96</ele>
<time>2015-04-04T20:31:11Z</time>
</trkpt>
<trkpt lat="39.4675949" lon="-0.34913856">
<ele>97</ele>
<time>2015-04-04T20:31:13Z</time>
</trkpt>
<trkpt lat="39.4676197" lon="-0.34911095">
<ele>97</ele>
<time>2015-04-04T20:31:15Z</time>
</trkpt>
<trkpt lat="39.46760419" lon="-0.34908591">
<ele>96</ele>
<time>2015-04-04T20:31:17Z</time>
</trkpt>
<trkpt lat="39.46760913" lon="-0.34906488">
<ele>95</ele>
<time>2015-04-04T20:31:19Z</time>
</trkpt>
<trkpt lat="39.46758427" lon="-0.34895011">
<ele>94</ele>
<time>2015-04-04T20:31:21Z</time>
</trkpt>
<trkpt lat="39.46752954" lon="-0.34885492">
<ele>94</ele>
<time>2015-04-04T20:31:23Z</time>
</trkpt>
<trkpt lat="39.46747204" lon="-0.34881773">
<ele>93</ele>
<time>2015-04-04T20:31:25Z</time>
</trkpt>
<trkpt lat="39.46749706" lon="-0.34882396">
<ele>93</ele>
<time>2015-04-04T20:31:27Z</time>
</trkpt>
<trkpt lat="39.46751135" lon="-0.34882102">
<ele>93</ele>
<time>2015-04-04T20:31:29Z</time>
</trkpt>
<trkpt lat="39.46749168" lon="-0.34879082">
<ele>93</ele>
<time>2015-04-04T20:31:31Z</time>
</trkpt>
<trkpt lat="39.46753389" lon="-0.34877176">
<ele>92</ele>
<time>2015-04-04T20:31:33Z</time>
</trkpt>
<trkpt lat="39.46753236" lon="-0.34874808">
<ele>92</ele>
<time>2015-04-04T20:31:35Z</time>
</trkpt>
<trkpt lat="39.46754601" lon="-0.34870774">
<ele>92</ele>
<time>2015-04-04T20:31:37Z</time>
</trkpt>
<trkpt lat="39.4676406" lon="-0.34866175">
<ele>94</ele>
<time>2015-04-04T20:31:39Z</time>
</trkpt>
<trkpt lat="39.46762641" lon="-0.34865309">
<ele>94</ele>
<time>2015-04-04T20:31:41Z</time>
</trkpt>
<trkpt lat="39.46761388" lon="-0.3485788">
<ele>95</ele>
<time>2015-04-04T20:31:43Z</time>
</trkpt>
<trkpt lat="39.46758984" lon="-0.34855013">
<ele>95</ele>
<time>2015-04-04T20:31:45Z</time>
</trkpt>
<trkpt lat="39.46754179" lon="-0.34852631">
<ele>95</ele>
<time>2015-04-04T20:31:47Z</time>
</trkpt>
<trkpt lat="39.4675674" lon="-0.34854022">
<ele>96</ele>
<time>2015-04-04T20:31:49Z</time>
</trkpt>
<trkpt lat="39.46753765" lon="-0.34852661">
<ele>96</ele>
<time>2015-04-04T20:31:51Z</time>
</trkpt>
<trkpt lat="39.46752115" lon="-0.34851198">
<ele>96</ele>
<time>2015-04-04T20:31:53Z</time>
</trkpt>
<trkpt lat="39.46745381" lon="-0.34845168">
<ele>96</ele>
<time>2015-04-04T20:31:55Z</time>
</trkpt>
<trkpt lat="39.46746735" lon="-0.34844981">
<ele>95</ele>
<time>2015-04-04T20:31:57Z</time>
</trkpt>
<trkpt lat="39.46746711" lon="-0.34844558">
<ele>95</ele>
<time>2015-04-04T20:31:59Z</time>
</trkpt>
<trkpt lat="39.46743211" lon="-0.34840116">
<ele>95</ele>
<time>2015-04-04T20:32:01Z</time>
</trkpt>
<trkpt lat="39.46737952" lon="-0.34833237">
<ele>94</ele>
<time>2015-04-04T20:32:03Z</time>
</trkpt>
<trkpt lat="39.46738" lon="-0.34829925">
<ele>96</ele>
<time>2015-04-04T20:32:05Z</time>
</trkpt>
<trkpt lat="39.46734607" lon="-0.34826321">
<ele>96</ele>
<time>2015-04-04T20:32:07Z</time>
</trkpt>
<trkpt lat="39.46737798" lon="-0.34816621">
<ele>96</ele>
<time>2015-04-04T20:32:09Z</time>
</trkpt>
<trkpt lat="39.46731183" lon="-0.34797177">
<ele>97</ele>
<time>2015-04-04T20:32:11Z</time>
</trkpt>
<trkpt lat="39.46732071" lon="-0.34790962">
<ele>98</ele>
<time>2015-04-04T20:32:13Z</time>
</trkpt>
<trkpt lat="39.46739567" lon="-0.34785723">
<ele>97</ele>
<time>2015-04-04T20:32:15Z</time>
</trkpt>
<trkpt lat="39.46744013" lon="-0.34788276">
<ele>98</ele>
<time>2015-04-04T20:32:17Z</time>
</trkpt>
<trkpt lat="39.46747707" lon="-0.34788595">
<ele>98</ele>
<time>2015-04-04T20:32:19Z</time>
</trkpt>
<trkpt lat="39.46749032" lon="-0.34788314">
<ele>99</ele>
<time>2015-04-04T20:32:21Z</time>
</trkpt>
<trkpt lat="39.46750265" lon="-0.34786955">
<ele>99</ele>
<time>2015-04-04T20:32:23Z</time>
</trkpt>
<trkpt lat="39.46751001" lon="-0.34785805">
<ele>99</ele>
<time>2015-04-04T20:32:25Z</time>
</trkpt>
<trkpt lat="39.4674121" lon="-0.34789198">
<ele>100</ele>
<time>2015-04-04T20:32:27Z</time>
</trkpt>
<trkpt lat="39.46740435" lon="-0.34789672">
<ele>100</ele>
<time>2015-04-04T20:32:29Z</time>
</trkpt>
<trkpt lat="39.46742185" lon="-0.34789941">
<ele>100</ele>
<time>2015-04-04T20:32:31Z</time>
</trkpt>
<trkpt lat="39.46749235" lon="-0.34786923">
<ele>101</ele>
<time>2015-04-04T20:32:33Z</time>
</trkpt>
<trkpt lat="39.4675083" lon="-0.34782392">
<ele>102</ele>
<time>2015-04-04T20:32:35Z</time>
</trkpt>
<trkpt lat="39.46750102" lon="-0.34782131">
<ele>102</ele>
<time>2015-04-04T20:32:37Z</time>
</trkpt>
<trkpt lat="39.46751579" lon="-0.34781782">
<ele>103</ele>
<time>2015-04-04T20:32:39Z</time>
</trkpt>
<trkpt lat="39.46750954" lon="-0.34779131">
<ele>103</ele>
<time>2015-04-04T20:32:41Z</time>
</trkpt>
<trkpt lat="39.46749845" lon="-0.34773553">
<ele>103</ele>
<time>2015-04-04T20:32:43Z</time>
</trkpt>
<trkpt lat="39.46749323" lon="-0.34773563">
<ele>103</ele>
<time>2015-04-04T20:32:45Z</time>
</trkpt>
<trkpt lat="39.46749197" lon="-0.34773404">
<ele>102</ele>
<time>2015-04-04T20:32:47Z</time>
</trkpt>
<trkpt lat="39.46750496" lon="-0.34771986">
<ele>103</ele>
<time>2015-04-04T20:32:49Z</time>
</trkpt>
<trkpt lat="39.46753172" lon="-0.34769644">
<ele>103</ele>
<time>2015-04-04T20:32:51Z</time>
</trkpt>
<trkpt lat="39.46753818" lon="-0.34764241">
<ele>103</ele>
<time>2015-04-04T20:32:53Z</time>
</trkpt>
<trkpt lat="39.46753458" lon="-0.34759278">
<ele>104</ele>
<time>2015-04-04T20:32:55Z</time>
</trkpt>
<trkpt lat="39.46752803" lon="-0.34758006">
<ele>104</ele>
<time>2015-04-04T20:32:57Z</time>
</trkpt>
<trkpt lat="39.46752479" lon="-0.34757026">
<ele>104</ele>
<time>2015-04-04T20:32:59Z</time>
</trkpt>
<trkpt lat="39.46752014" lon="-0.34755618">
<ele>104</ele>
<time>2015-04-04T20:33:01Z</time>
</trkpt>
<trkpt lat="39.4675004" lon="-0.34809049">
<ele>44</ele>
<time>2015-04-04T20:38:27Z</time>
</trkpt>
<trkpt lat="39.46747615" lon="-0.34806483">
<ele>49</ele>
<time>2015-04-04T20:38:28Z</time>
</trkpt>
<trkpt lat="39.46749662" lon="-0.34806308">
<ele>48</ele>
<time>2015-04-04T20:38:30Z</time>
</trkpt>
<trkpt lat="39.46749907" lon="-0.34804367">
<ele>45</ele>
<time>2015-04-04T20:38:32Z</time>
</trkpt>
<trkpt lat="39.46752381" lon="-0.34804761">
<ele>46</ele>
<time>2015-04-04T20:38:34Z</time>
</trkpt>
<trkpt lat="39.46767099" lon="-0.34801973">
<ele>55</ele>
<time>2015-04-04T20:38:36Z</time>
</trkpt>
<trkpt lat="39.46775068" lon="-0.34798726">
<ele>56</ele>
<time>2015-04-04T20:38:38Z</time>
</trkpt>
<trkpt lat="39.46780497" lon="-0.34795208">
<ele>58</ele>
<time>2015-04-04T20:38:40Z</time>
</trkpt>
<trkpt lat="39.46781592" lon="-0.34798092">
<ele>64</ele>
<time>2015-04-04T20:38:42Z</time>
</trkpt>
<trkpt lat="39.4678552" lon="-0.34797324">
<ele>65</ele>
<time>2015-04-04T20:38:44Z</time>
</trkpt>
<trkpt lat="39.46786071" lon="-0.3479642">
<ele>67</ele>
<time>2015-04-04T20:38:46Z</time>
</trkpt>
<trkpt lat="39.46777509" lon="-0.34773626">
<ele>69</ele>
<time>2015-04-04T20:38:48Z</time>
</trkpt>
<trkpt lat="39.46774816" lon="-0.34768325">
<ele>70</ele>
<time>2015-04-04T20:38:50Z</time>
</trkpt>
<trkpt lat="39.4677561" lon="-0.34767677">
<ele>69</ele>
<time>2015-04-04T20:38:52Z</time>
</trkpt>
<trkpt lat="39.46778555" lon="-0.34767408">
<ele>65</ele>
<time>2015-04-04T20:38:54Z</time>
</trkpt>
<trkpt lat="39.46781048" lon="-0.3476753">
<ele>61</ele>
<time>2015-04-04T20:38:56Z</time>
</trkpt>
<trkpt lat="39.46782085" lon="-0.34767196">
<ele>60</ele>
<time>2015-04-04T20:38:58Z</time>
</trkpt>
<trkpt lat="39.46782261" lon="-0.34767325">
<ele>59</ele>
<time>2015-04-04T20:39:00Z</time>
</trkpt>
<trkpt lat="39.4678277" lon="-0.3476721">
<ele>60</ele>
<time>2015-04-04T20:39:02Z</time>
</trkpt>
<trkpt lat="39.46782478" lon="-0.34765265">
<ele>60</ele>
<time>2015-04-04T20:39:04Z</time>
</trkpt>
<trkpt lat="39.46781444" lon="-0.34762052">
<ele>58</ele>
<time>2015-04-04T20:39:06Z</time>
</trkpt>
<trkpt lat="39.46782004" lon="-0.34758436">
<ele>57</ele>
<time>2015-04-04T20:39:08Z</time>
</trkpt>
<trkpt lat="39.46778734" lon="-0.34755979">
<ele>57</ele>
<time>2015-04-04T20:39:10Z</time>
</trkpt>
<trkpt lat="39.46787785" lon="-0.34751901">
<ele>57</ele>
<time>2015-04-04T20:39:12Z</time>
</trkpt>
<trkpt lat="39.46791742" lon="-0.34748127">
<ele>58</ele>
<time>2015-04-04T20:39:14Z</time>
</trkpt>
<trkpt lat="39.46794033" lon="-0.34746547">
<ele>58</ele>
<time>2015-04-04T20:39:16Z</time>
</trkpt>
<trkpt lat="39.46796453" lon="-0.34748141">
<ele>58</ele>
<time>2015-04-04T20:39:18Z</time>
</trkpt>
<trkpt lat="39.4679929" lon="-0.34744832">
<ele>58</ele>
<time>2015-04-04T20:39:20Z</time>
</trkpt>
<trkpt lat="39.46800722" lon="-0.3474305">
<ele>58</ele>
<time>2015-04-04T20:39:22Z</time>
</trkpt>
<trkpt lat="39.46801255" lon="-0.34742478">
<ele>59</ele>
<time>2015-04-04T20:39:24Z</time>
</trkpt>
<trkpt lat="39.46806585" lon="-0.34741732">
<ele>60</ele>
<time>2015-04-04T20:39:26Z</time>
</trkpt>
<trkpt lat="39.46809594" lon="-0.34740618">
<ele>61</ele>
<time>2015-04-04T20:39:28Z</time>
</trkpt>
<trkpt lat="39.46815053" lon="-0.34738043">
<ele>60</ele>
<time>2015-04-04T20:39:30Z</time>
</trkpt>
<trkpt lat="39.46820219" lon="-0.34735951">
<ele>61</ele>
<time>2015-04-04T20:39:32Z</time>
</trkpt>
<trkpt lat="39.46825248" lon="-0.34732846">
<ele>62</ele>
<time>2015-04-04T20:39:34Z</time>
</trkpt>
<trkpt lat="39.46832657" lon="-0.34729725">
<ele>62</ele>
<time>2015-04-04T20:39:36Z</time>
</trkpt>
<trkpt lat="39.46842503" lon="-0.34723603">
<ele>62</ele>
<time>2015-04-04T20:39:38Z</time>
</trkpt>
<trkpt lat="39.46844162" lon="-0.34719122">
<ele>62</ele>
<time>2015-04-04T20:39:40Z</time>
</trkpt>
<trkpt lat="39.46845282" lon="-0.34717431">
<ele>63</ele>
<time>2015-04-04T20:39:42Z</time>
</trkpt>
<trkpt lat="39.46846835" lon="-0.34715164">
<ele>63</ele>
<time>2015-04-04T20:39:44Z</time>
</trkpt>
<trkpt lat="39.46837898" lon="-0.34717491">
<ele>62</ele>
<time>2015-04-04T20:39:46Z</time>
</trkpt>
<trkpt lat="39.46840258" lon="-0.34715361">
<ele>65</ele>
<time>2015-04-04T20:39:48Z</time>
</trkpt>
<trkpt lat="39.46844232" lon="-0.34712759">
<ele>65</ele>
<time>2015-04-04T20:39:50Z</time>
</trkpt>
<trkpt lat="39.46843598" lon="-0.34713187">
<ele>66</ele>
<time>2015-04-04T20:39:52Z</time>
</trkpt>
<trkpt lat="39.46842944" lon="-0.34710785">
<ele>67</ele>
<time>2015-04-04T20:39:54Z</time>
</trkpt>
<trkpt lat="39.46841814" lon="-0.34708648">
<ele>69</ele>
<time>2015-04-04T20:39:56Z</time>
</trkpt>
<trkpt lat="39.46840467" lon="-0.3470375">
<ele>69</ele>
<time>2015-04-04T20:39:58Z</time>
</trkpt>
<trkpt lat="39.46838915" lon="-0.34702018">
<ele>68</ele>
<time>2015-04-04T20:40:00Z</time>
</trkpt>
<trkpt lat="39.46842133" lon="-0.3470518">
<ele>67</ele>
<time>2015-04-04T20:40:02Z</time>
</trkpt>
<trkpt lat="39.46845636" lon="-0.34704468">
<ele>66</ele>
<time>2015-04-04T20:40:04Z</time>
</trkpt>
<trkpt lat="39.46848461" lon="-0.34701378">
<ele>66</ele>
<time>2015-04-04T20:40:06Z</time>
</trkpt>
<trkpt lat="39.46848362" lon="-0.34698912">
<ele>65</ele>
<time>2015-04-04T20:40:08Z</time>
</trkpt>
<trkpt lat="39.46847827" lon="-0.34698167">
<ele>65</ele>
<time>2015-04-04T20:40:10Z</time>
</trkpt>
<trkpt lat="39.46848567" lon="-0.34696862">
<ele>65</ele>
<time>2015-04-04T20:40:12Z</time>
</trkpt>
<trkpt lat="39.46852448" lon="-0.34697949">
<ele>65</ele>
<time>2015-04-04T20:40:14Z</time>
</trkpt>
<trkpt lat="39.46857431" lon="-0.34706302">
<ele>64</ele>
<time>2015-04-04T20:40:16Z</time>
</trkpt>
<trkpt lat="39.4685898" lon="-0.34706712">
<ele>64</ele>
<time>2015-04-04T20:40:18Z</time>
</trkpt>
<trkpt lat="39.4693836" lon="-0.34705004">
<ele>71</ele>
<time>2015-04-04T20:40:45Z</time>
</trkpt>
<trkpt lat="39.46943105" lon="-0.34705121">
<ele>72</ele>
<time>2015-04-04T20:40:46Z</time>
</trkpt>
<trkpt lat="39.46947527" lon="-0.34705396">
<ele>71</ele>
<time>2015-04-04T20:40:48Z</time>
</trkpt>
<trkpt lat="39.46950374" lon="-0.34699457">
<ele>73</ele>
<time>2015-04-04T20:40:50Z</time>
</trkpt>
<trkpt lat="39.46947789" lon="-0.34696291">
<ele>72</ele>
<time>2015-04-04T20:40:52Z</time>
</trkpt>
<trkpt lat="39.46948133" lon="-0.34684942">
<ele>67</ele>
<time>2015-04-04T20:40:54Z</time>
</trkpt>
<trkpt lat="39.46948111" lon="-0.34682923">
<ele>66</ele>
<time>2015-04-04T20:40:56Z</time>
</trkpt>
<trkpt lat="39.46948867" lon="-0.34683501">
<ele>65</ele>
<time>2015-04-04T20:40:58Z</time>
</trkpt>
<trkpt lat="39.46950875" lon="-0.34684635">
<ele>65</ele>
<time>2015-04-04T20:41:00Z</time>
</trkpt>
<trkpt lat="39.46950667" lon="-0.34684464">
<ele>65</ele>
<time>2015-04-04T20:41:02Z</time>
</trkpt>
<trkpt lat="39.46952932" lon="-0.34685634">
<ele>68</ele>
<time>2015-04-04T20:41:04Z</time>
</trkpt>
<trkpt lat="39.46952784" lon="-0.34686457">
<ele>67</ele>
<time>2015-04-04T20:41:06Z</time>
</trkpt>
<trkpt lat="39.4695147" lon="-0.34687584">
<ele>67</ele>
<time>2015-04-04T20:41:08Z</time>
</trkpt>
<trkpt lat="39.46948871" lon="-0.34688309">
<ele>68</ele>
<time>2015-04-04T20:41:10Z</time>
</trkpt>
<trkpt lat="39.46948559" lon="-0.34689284">
<ele>69</ele>
<time>2015-04-04T20:41:12Z</time>
</trkpt>
<trkpt lat="39.46947297" lon="-0.3468888">
<ele>70</ele>
<time>2015-04-04T20:41:14Z</time>
</trkpt>
<trkpt lat="39.46944626" lon="-0.34691065">
<ele>72</ele>
<time>2015-04-04T20:41:16Z</time>
</trkpt>
<trkpt lat="39.46944178" lon="-0.34691159">
<ele>72</ele>
<time>2015-04-04T20:41:18Z</time>
</trkpt>
<trkpt lat="39.46945779" lon="-0.34688178">
<ele>71</ele>
<time>2015-04-04T20:41:20Z</time>
</trkpt>
<trkpt lat="39.46947452" lon="-0.3469101">
<ele>70</ele>
<time>2015-04-04T20:41:22Z</time>
</trkpt>
<trkpt lat="39.46950681" lon="-0.34692097">
<ele>69</ele>
<time>2015-04-04T20:41:24Z</time>
</trkpt>
<trkpt lat="39.46951011" lon="-0.34690203">
<ele>69</ele>
<time>2015-04-04T20:41:26Z</time>
</trkpt>
<trkpt lat="39.46951469" lon="-0.34691959">
<ele>69</ele>
<time>2015-04-04T20:41:28Z</time>
</trkpt>
<trkpt lat="39.46952252" lon="-0.34695477">
<ele>69</ele>
<time>2015-04-04T20:41:30Z</time>
</trkpt>
<trkpt lat="39.46959392" lon="-0.34694771">
<ele>70</ele>
<time>2015-04-04T20:41:32Z</time>
</trkpt>
<trkpt lat="39.46963882" lon="-0.34687932">
<ele>71</ele>
<time>2015-04-04T20:41:34Z</time>
</trkpt>
<trkpt lat="39.46967468" lon="-0.3468695">
<ele>72</ele>
<time>2015-04-04T20:41:36Z</time>
</trkpt>
<trkpt lat="39.46972624" lon="-0.34688697">
<ele>73</ele>
<time>2015-04-04T20:41:38Z</time>
</trkpt>
<trkpt lat="39.46973019" lon="-0.34688064">
<ele>73</ele>
<time>2015-04-04T20:41:40Z</time>
</trkpt>
<trkpt lat="39.46974453" lon="-0.34688488">
<ele>72</ele>
<time>2015-04-04T20:41:42Z</time>
</trkpt>
<trkpt lat="39.46978771" lon="-0.3468765">
<ele>73</ele>
<time>2015-04-04T20:41:44Z</time>
</trkpt>
<trkpt lat="39.4697903" lon="-0.34686486">
<ele>73</ele>
<time>2015-04-04T20:41:46Z</time>
</trkpt>
<trkpt lat="39.46980102" lon="-0.34686181">
<ele>73</ele>
<time>2015-04-04T20:41:48Z</time>
</trkpt>
<trkpt lat="39.46991866" lon="-0.34670392">
<ele>76</ele>
<time>2015-04-04T20:45:03Z</time>
</trkpt>
<trkpt lat="39.46993727" lon="-0.34672956">
<ele>76</ele>
<time>2015-04-04T20:45:04Z</time>
</trkpt>
<trkpt lat="39.46996692" lon="-0.34675165">
<ele>75</ele>
<time>2015-04-04T20:45:06Z</time>
</trkpt>
<trkpt lat="39.46999503" lon="-0.3467782">
<ele>76</ele>
<time>2015-04-04T20:45:08Z</time>
</trkpt>
<trkpt lat="39.46999938" lon="-0.34677141">
<ele>77</ele>
<time>2015-04-04T20:45:10Z</time>
</trkpt>
<trkpt lat="39.47003585" lon="-0.34678209">
<ele>77</ele>
<time>2015-04-04T20:45:12Z</time>
</trkpt>
<trkpt lat="39.47007535" lon="-0.3467767">
<ele>78</ele>
<time>2015-04-04T20:45:14Z</time>
</trkpt>
<trkpt lat="39.47011977" lon="-0.34678532">
<ele>78</ele>
<time>2015-04-04T20:45:16Z</time>
</trkpt>
<trkpt lat="39.47018701" lon="-0.34678331">
<ele>80</ele>
<time>2015-04-04T20:45:18Z</time>
</trkpt>
<trkpt lat="39.47025779" lon="-0.34677393">
<ele>81</ele>
<time>2015-04-04T20:45:20Z</time>
</trkpt>
<trkpt lat="39.47028991" lon="-0.34677588">
<ele>81</ele>
<time>2015-04-04T20:45:22Z</time>
</trkpt>
<trkpt lat="39.47032187" lon="-0.34677784">
<ele>81</ele>
<time>2015-04-04T20:45:24Z</time>
</trkpt>
<trkpt lat="39.47092089" lon="-0.3480203">
<ele>78</ele>
<time>2015-04-04T20:46:53Z</time>
</trkpt>
<trkpt lat="39.47090233" lon="-0.34802357">
<ele>78</ele>
<time>2015-04-04T20:46:54Z</time>
</trkpt>
<trkpt lat="39.47088235" lon="-0.34801793">
<ele>80</ele>
<time>2015-04-04T20:46:56Z</time>
</trkpt>
<trkpt lat="39.47083307" lon="-0.34797407">
<ele>82</ele>
<time>2015-04-04T20:46:58Z</time>
</trkpt>
<trkpt lat="39.47077099" lon="-0.34794123">
<ele>84</ele>
<time>2015-04-04T20:47:00Z</time>
</trkpt>
<trkpt lat="39.47072106" lon="-0.34793665">
<ele>85</ele>
<time>2015-04-04T20:47:02Z</time>
</trkpt>
<trkpt lat="39.47070403" lon="-0.34793987">
<ele>86</ele>
<time>2015-04-04T20:47:04Z</time>
</trkpt>
<trkpt lat="39.47068726" lon="-0.34793773">
<ele>87</ele>
<time>2015-04-04T20:47:06Z</time>
</trkpt>
<trkpt lat="39.47072194" lon="-0.34792697">
<ele>88</ele>
<time>2015-04-04T20:47:08Z</time>
</trkpt>
<trkpt lat="39.47079295" lon="-0.34793168">
<ele>90</ele>
<time>2015-04-04T20:47:10Z</time>
</trkpt>
<trkpt lat="39.47083568" lon="-0.34792357">
<ele>91</ele>
<time>2015-04-04T20:47:12Z</time>
</trkpt>
<trkpt lat="39.47080904" lon="-0.34793757">
<ele>90</ele>
<time>2015-04-04T20:47:14Z</time>
</trkpt>
<trkpt lat="39.47081785" lon="-0.34795001">
<ele>88</ele>
<time>2015-04-04T20:47:16Z</time>
</trkpt>
<trkpt lat="39.47085516" lon="-0.34794308">
<ele>89</ele>
<time>2015-04-04T20:47:18Z</time>
</trkpt>
<trkpt lat="39.47087402" lon="-0.34794665">
<ele>90</ele>
<time>2015-04-04T20:47:20Z</time>
</trkpt>
<trkpt lat="39.47087456" lon="-0.34795912">
<ele>89</ele>
<time>2015-04-04T20:47:22Z</time>
</trkpt>
<trkpt lat="39.4708941" lon="-0.34797514">
<ele>89</ele>
<time>2015-04-04T20:47:24Z</time>
</trkpt>
<trkpt lat="39.47091692" lon="-0.34798644">
<ele>89</ele>
<time>2015-04-04T20:47:26Z</time>
</trkpt>
<trkpt lat="39.4709173" lon="-0.34801209">
<ele>90</ele>
<time>2015-04-04T20:47:28Z</time>
</trkpt>
<trkpt lat="39.47091698" lon="-0.34799384">
<ele>89</ele>
<time>2015-04-04T20:47:30Z</time>
</trkpt>
<trkpt lat="39.47091723" lon="-0.34798156">
<ele>89</ele>
<time>2015-04-04T20:47:32Z</time>
</trkpt>
<trkpt lat="39.47095103" lon="-0.3479748">
<ele>89</ele>
<time>2015-04-04T20:47:34Z</time>
</trkpt>
<trkpt lat="39.47096573" lon="-0.34796788">
<ele>88</ele>
<time>2015-04-04T20:47:36Z</time>
</trkpt>
<trkpt lat="39.47099011" lon="-0.34794609">
<ele>88</ele>
<time>2015-04-04T20:47:38Z</time>
</trkpt>
<trkpt lat="39.47099487" lon="-0.34792337">
<ele>89</ele>
<time>2015-04-04T20:47:40Z</time>
</trkpt>
<trkpt lat="39.47102849" lon="-0.34790282">
<ele>88</ele>
<time>2015-04-04T20:47:42Z</time>
</trkpt>
<trkpt lat="39.47103071" lon="-0.34785976">
<ele>89</ele>
<time>2015-04-04T20:47:44Z</time>
</trkpt>
<trkpt lat="39.47101618" lon="-0.34781868">
<ele>89</ele>
<time>2015-04-04T20:47:46Z</time>
</trkpt>
<trkpt lat="39.47099699" lon="-0.34777546">
<ele>89</ele>
<time>2015-04-04T20:47:48Z</time>
</trkpt>
<trkpt lat="" lon="">
<ele></ele>
<time>2015-04-04TZ</time>
</trkpt>
</trkseg>
</trk>
<wpt lat="39.467499" lon="-0.350371">
	<name>wpt20:54:10</name>
	<desc></desc>
	<cmt></cmt>
	<photoid>0</photoid>
	<type>3</type>
</wpt>
<wpt lat="
" lon="">
	<name></name>
	<desc></desc>
	<cmt></cmt>
	<photoid></photoid>
	<type></type>
</wpt>
</gpx>
